D85330 / EI-FHX 7700 Squawk Report (3rd of December, 2018)

Aircraft B738 Reg No. EI-FHX Age 8 years old
Model 737 Jet engines 2 First flight 30-09-10
Registered 15-12-15 Rollout 22-09-10 Delivered 13-10-10
Construction No. 40866 Line No. 3432 Series 8JP
ADSHEX 4CA5C0 Airline name Norwegian Air International Owner Banc of America Leasing Ireland Co.
Airfield based Oslo-Gardermoen~Akershus~LN First tracked 2015-12-15 12:14:08

Flight history for EI-FHX

Route Flight No Date Playback
Alicante (ALC) - Kastrup (CPH) D85374 2018-12-14 17:06:00
Gardermoen (OSL) - Alicante (ALC) D85321 2018-12-14 15:45:00
Alicante (ALC) - Gardermoen (OSL) D85320 2018-12-14 09:59:00
Helsinki Vantaa (HEL) - Alicante (ALC) D85423 2018-12-14 06:03:00
Barcelona (BCN) - Helsinki Vantaa (HEL) D85620 2018-12-13 17:38:00
Gatwick (LGW) - Barcelona (BCN) D85501 2018-12-13 13:38:00
Barcelona (BCN) - Gatwick (LGW) D85500 2018-12-13 11:02:00
Ben Gurion (TLV) - Barcelona (BCN) D85671 2018-12-12 16:22:00
Barcelona (BCN) - Ben Gurion (TLV) D85670 2018-12-12 10:12:00
Gatwick (LGW) - Barcelona (BCN) D85503 2018-12-12 05:35:00
Barcelona (BCN) - Gatwick (LGW) D85502 2018-12-11 19:51:00
Keflavik International Airport (KEF) - Barcelona (BCN) D85667 2018-12-11 17:06:00
Barcelona (BCN) - Keflavik International Airport (KEF) D85666 2018-12-11 12:57:00
Arlanda (ARN) - Barcelona (BCN) D85555 2018-12-10 22:06:00
Barcelona (BCN) - Arlanda (ARN) D85554 2018-12-10 17:51:00
Kastrup (CPH) - Barcelona (BCN) D85571 2018-12-10 13:21:00
Barcelona (BCN) - Kastrup (CPH) D85570 2018-12-10 10:42:00
Gardermoen (OSL) - Barcelona (BCN) D85527 2018-12-09 23:26:00
Barcelona (BCN) - Gardermoen (OSL) D85524 2018-12-09 19:17:00
Helsinki Vantaa (HEL) - Barcelona (BCN) D85621 2018-12-09 14:46:00
Time Lat Lon Altitude Heading Speed Vertical Rate
2018-12-03 21:02:41 GMT 58.845474 9.832855 15,625 11 373 -1664
2018-12-03 21:02:33 GMT 58.831467 9.827536 15,850 11 375 -1728
2018-12-03 21:02:23 GMT 58.815857 9.821600 16,125 11 377 -1216
2018-12-03 21:02:13 GMT 58.797592 9.814512 16,275 11 387 -512
2018-12-03 21:02:05 GMT 58.784546 9.809462 16,325 11 395 -512
2018-12-03 21:02:01 GMT 58.777039 9.806627 16,375 11 399 -640
2018-12-03 21:01:53 GMT 58.760517 9.800262 16,500 11 406 -1472
2018-12-03 21:01:42 GMT 58.741711 9.793213 16,925 10 405 -3840
2018-12-03 21:01:31 GMT 58.722668 9.786072 17,600 11 400 -3456
2018-12-03 21:01:25 GMT 58.711449 9.781860 17,950 11 398 -2688
2018-12-03 21:01:21 GMT 58.704235 9.779114 18,150 11 398 -2688
2018-12-03 21:01:14 GMT 58.692318 9.774628 18,450 11 397 -2432
2018-12-03 21:01:10 GMT 58.684937 9.771807 18,600 11 398 -1792
2018-12-03 21:01:06 GMT 58.675919 9.768352 18,750 11 400 -1536
2018-12-03 21:01:01 GMT 58.666294 9.764740 18,900 11 403 -1472
2018-12-03 21:00:55 GMT 58.656425 9.760986 19,025 11 407 -1472
2018-12-03 21:00:50 GMT 58.646988 9.757454 19,150 11 409 -1472
2018-12-03 21:00:44 GMT 58.636036 9.753296 19,300 11 412 -1600
2018-12-03 21:00:40 GMT 58.628357 9.750455 19,425 11 414 -1728
2018-12-03 21:00:35 GMT 58.618973 9.746822 19,575 11 417 -1792
2018-12-03 21:00:30 GMT 58.608398 9.742835 19,750 11 419 -1920
2018-12-03 21:00:24 GMT 58.598511 9.739025 19,925 11 421 -2176
2018-12-03 21:00:19 GMT 58.588989 9.735393 20,100 11 422 -2304
2018-12-03 21:00:14 GMT 58.579243 9.731781 20,300 11 423 -2176
2018-12-03 21:00:08 GMT 58.569077 9.727951 20,500 10 424 -2176
2018-12-03 21:00:03 GMT 58.558319 9.723964 20,725 10 425 -2304
2018-12-03 20:59:58 GMT 58.548843 9.720428 20,925 11 426 -2368
2018-12-03 20:59:50 GMT 58.532967 9.714478 21,250 11 427 -2432
2018-12-03 20:59:47 GMT 58.528313 9.712738 21,350 11 428 -2496
2018-12-03 20:59:41 GMT 58.513557 9.707245 21,675 10 429 -2368
2018-12-03 20:59:38 GMT 58.508484 9.705322 21,775 10 430 -2368
2018-12-03 20:59:33 GMT 58.500092 9.702257 21,950 10 430 -2432
2018-12-03 20:59:26 GMT 58.486816 9.697295 22,250 11 433 -2368
2018-12-03 20:59:23 GMT 58.480179 9.694814 22,375 11 433 -2432
2018-12-03 20:59:20 GMT 58.474873 9.692871 22,500 11 434 -2432
2018-12-03 20:59:16 GMT 58.467178 9.690030 22,650 11 434 -2560
2018-12-03 20:59:13 GMT 58.459137 9.687012 22,850 10 434 -2432
2018-12-03 20:59:10 GMT 58.454807 9.685364 22,925 10 435 -2304
2018-12-03 20:59:05 GMT 58.446304 9.682233 23,100 10 436 -2176
2018-12-03 20:59:00 GMT 58.433258 9.677449 23,350 10 438 -2240
2018-12-03 20:58:55 GMT 58.424686 9.674377 23,525 11 440 -2368
2018-12-03 20:58:49 GMT 58.413933 9.670349 23,750 10 441 -2240
2018-12-03 20:58:45 GMT 58.404968 9.666994 23,925 11 442 -2240
2018-12-03 20:58:39 GMT 58.391739 9.662121 24,200 11 443 -2304
2018-12-03 20:58:35 GMT 58.383728 9.659109 24,325 11 444 -2176
2018-12-03 20:58:28 GMT 58.372421 9.654856 24,525 11 447 -1856
2018-12-03 20:58:24 GMT 58.362305 9.651046 24,700 11 449 -2176
2018-12-03 20:58:20 GMT 58.355186 9.648376 24,825 11 450 -2496
2018-12-03 20:58:17 GMT 58.350082 9.646439 24,950 11 450 -2624
2018-12-03 20:58:11 GMT 58.336426 9.641327 25,425 11 455 -2240
2018-12-03 20:58:07 GMT 58.329021 9.638489 25,375 11 454 -1792
2018-12-03 20:58:03 GMT 58.321014 9.635541 25,500 11 455 -2048
2018-12-03 20:57:59 GMT 58.310493 9.631531 25,725 11 455 -2240
2018-12-03 20:57:56 GMT 58.306595 9.630048 25,775 11 455 -2240
2018-12-03 20:57:50 GMT 58.294235 9.625441 26,275 11 453 -2240
2018-12-03 20:57:47 GMT 58.287033 9.622833 26,150 11 454 -2304
2018-12-03 20:57:43 GMT 58.277584 9.619263 26,325 11 453 -2240
2018-12-03 20:57:39 GMT 58.271019 9.616882 26,625 10 452 -2176
2018-12-03 20:57:36 GMT 58.265663 9.614868 26,550 10 452 -2176
2018-12-03 20:57:32 GMT 58.256680 9.611572 26,725 10 452 -2176
2018-12-03 20:57:27 GMT 58.244980 9.607278 26,950 10 451 -2176
2018-12-03 20:57:22 GMT 58.235596 9.603823 27,125 11 450 -2176
2018-12-03 20:57:19 GMT 58.230518 9.601959 27,250 11 450 -2176
2018-12-03 20:57:16 GMT 58.223953 9.599579 27,250 11 450 -2176
2018-12-03 20:57:11 GMT 58.214600 9.596100 27,525 11 449 -2176
2018-12-03 20:57:08 GMT 58.207489 9.593457 27,650 11 448 -2240
2018-12-03 20:57:01 GMT 58.192841 9.588052 27,925 11 447 -2176
2018-12-03 20:56:58 GMT 58.187164 9.585926 28,200 10 446 -2112
2018-12-03 20:56:55 GMT 58.182312 9.584154 28,125 10 446 -2112
2018-12-03 20:56:50 GMT 58.171417 9.580167 28,275 10 445 -2112
2018-12-03 20:56:45 GMT 58.160934 9.576357 28,525 10 445 -2112
2018-12-03 20:56:40 GMT 58.150864 9.572636 28,725 10 444 -2112
2018-12-03 20:56:34 GMT 58.139603 9.568560 28,925 10 442 -2048
2018-12-03 20:56:30 GMT 58.129166 9.564750 29,100 10 441 -2048
2018-12-03 20:56:26 GMT 58.124359 9.563067 29,200 10 440 -2048
2018-12-03 20:56:23 GMT 58.118187 9.560852 29,300 10 440 -2048
2018-12-03 20:56:17 GMT 58.104176 9.555725 29,600 10 440 -2048
2018-12-03 20:56:09 GMT 58.087601 9.549777 29,750 10 441 -1984
2018-12-03 20:56:04 GMT 58.078400 9.546499 30,025 10 441 -2112
2018-12-03 20:55:56 GMT 58.062187 9.540710 30,225 10 441 -2112
2018-12-03 20:55:53 GMT 58.057571 9.539057 30,400 10 441 -1984
2018-12-03 20:55:47 GMT 58.045990 9.534804 30,600 10 442 -1856
2018-12-03 20:55:43 GMT 58.037567 9.531791 30,725 10 444 -1856
2018-12-03 20:55:38 GMT 58.025070 9.527273 30,925 10 446 -1984
2018-12-03 20:55:35 GMT 58.022057 9.526154 30,975 10 446 -2048
2018-12-03 20:55:32 GMT 58.015167 9.523682 31,100 10 447 -2176
2018-12-03 20:55:29 GMT 58.000809 9.518413 31,325 11 447 -2496
2018-12-03 20:55:25 GMT 58.000809 9.518413 31,400 11 447 -2432
2018-12-03 20:55:22 GMT 57.995754 9.516449 31,500 11 447 -2432
2018-12-03 20:55:17 GMT 57.982765 9.511597 31,775 11 447 -2432
2018-12-03 20:55:13 GMT 57.974487 9.508490 31,950 11 447 -2432
2018-12-03 20:55:04 GMT 57.959305 9.502808 32,275 11 448 -2432
2018-12-03 20:55:01 GMT 57.952415 9.500153 32,425 11 448 -2368
2018-12-03 20:54:55 GMT 57.940639 9.495850 33,300 10 448 -2304
2018-12-03 20:54:52 GMT 57.933105 9.493073 32,800 10 449 -2304
2018-12-03 20:54:46 GMT 57.916443 9.487137 35,125 11 450 -2304
2018-12-03 20:54:43 GMT 57.916443 9.487137 33,125 10 449 -2304
2018-12-03 20:54:40 GMT 57.908516 9.484222 33,300 11 450 -2304
2018-12-03 20:54:34 GMT 57.892315 9.477173 33,625 14 452 -2432
2018-12-03 20:54:22 GMT 57.873184 9.467468 34,025 15 451 -2432
2018-12-03 20:54:18 GMT 57.862522 9.462067 34,225 15 451 -2432
2018-12-03 20:54:14 GMT 57.856518 9.458954 34,325 15 452 -2368
2018-12-03 20:54:11 GMT 57.850883 9.456024 34,475 15 452 -2368
2018-12-03 20:54:08 GMT 57.845032 9.453027 34,600 15 452 -2368
2018-12-03 20:54:03 GMT 57.832355 9.446411 34,850 15 453 -2304
2018-12-03 20:53:59 GMT 57.825302 9.442749 34,975 15 453 -2112
2018-12-03 20:53:53 GMT 57.815041 9.437347 35,200 15 455 -1472
2018-12-03 20:53:50 GMT 57.808365 9.433889 35,250 15 455 -1344
2018-12-03 20:53:42 GMT 57.792114 9.425472 35,425 15 457 -960
2018-12-03 20:53:39 GMT 57.787064 9.422882 35,475 15 457 -960
2018-12-03 20:53:36 GMT 57.781338 9.420044 35,500 15 458 -896
2018-12-03 20:53:33 GMT 57.772350 9.415558 35,600 15 459 -832
2018-12-03 20:53:30 GMT 57.767258 9.412980 35,625 14 460 -832
2018-12-03 20:53:26 GMT 57.760300 9.409524 35,675 14 461 -832
2018-12-03 20:53:20 GMT 57.746048 9.402374 35,775 14 464 -960
2018-12-03 20:53:16 GMT 57.736313 9.397563 35,850 14 465 -1024
2018-12-03 20:53:11 GMT 57.728268 9.393585 35,925 14 465 -1088
2018-12-03 20:53:02 GMT 57.708759 9.383565 36,125 17 468 -960
2018-12-03 20:52:59 GMT 57.703583 9.380522 36,150 19 469 -896
2018-12-03 20:52:52 GMT 57.688248 9.369364 36,275 27 475 -896
2018-12-03 20:52:49 GMT 57.683533 9.364986 36,275 28 475 -960
2018-12-03 20:52:41 GMT 57.668152 9.349108 36,400 29 478 -1024
2018-12-03 20:52:38 GMT 57.663372 9.344049 36,450 29 478 -1024
2018-12-03 20:52:31 GMT 57.648804 9.328633 36,600 29 479 -1024
2018-12-03 20:52:28 GMT 57.644146 9.323760 36,600 29 479 -1024
2018-12-03 20:52:21 GMT 57.627457 9.306021 36,825 29 478 -1088
2018-12-03 20:52:18 GMT 57.624390 9.302759 36,800 29 480 -1088
2018-12-03 20:52:10 GMT 57.603241 9.280272 36,975 29 481 -128
2018-12-03 20:52:02 GMT 57.591450 9.267765 37,000 29 481 0
2018-12-03 20:51:57 GMT 57.583347 9.259171 37,000 29 481 0
2018-12-03 20:51:54 GMT 57.578323 9.253855 37,000 29 481 0
2018-12-03 20:51:50 GMT 57.570419 9.245424 37,000 29 481 0
2018-12-03 20:51:47 GMT 57.563873 9.238472 37,000 29 481 0
2018-12-03 20:51:36 GMT 57.543411 9.216843 36,975 29 481 0
2018-12-03 20:51:32 GMT 57.535492 9.208404 36,975 29 481 0
2018-12-03 20:51:29 GMT 57.527767 9.200252 37,000 29 482 0
2018-12-03 20:51:26 GMT 57.523727 9.195986 37,000 29 482 0
2018-12-03 20:51:18 GMT 57.508347 9.179764 37,000 29 482 0
2018-12-03 20:51:15 GMT 57.503036 9.174099 37,000 29 482 0
2018-12-03 20:51:12 GMT 57.495689 9.166319 37,000 29 482 0
2018-12-03 20:51:08 GMT 57.481979 9.151869 37,000 29 481 0
2018-12-03 20:50:56 GMT 57.465729 9.134703 36,975 29 482 -64
2018-12-03 20:50:53 GMT 57.461105 9.129810 37,000 29 482 0
2018-12-03 20:50:47 GMT 57.447968 9.115906 37,000 29 481 0
2018-12-03 20:50:44 GMT 57.442390 9.110058 37,000 29 481 0
2018-12-03 20:50:36 GMT 57.426933 9.093845 37,000 29 481 0
2018-12-03 20:50:32 GMT 57.418991 9.085522 37,000 29 481 0
2018-12-03 20:50:27 GMT 57.408360 9.074353 37,000 29 481 0
2018-12-03 20:50:24 GMT 57.402466 9.068184 37,000 29 481 0
2018-12-03 20:50:16 GMT 57.385803 9.050674 37,000 29 481 0
2018-12-03 20:50:13 GMT 57.382690 9.047413 37,000 29 481 0
2018-12-03 20:50:06 GMT 57.368977 9.032977 36,975 29 481 0
2018-12-03 20:50:03 GMT 57.363007 9.026728 36,975 29 481 0
2018-12-03 20:49:55 GMT 57.346802 9.009733 37,000 29 481 0
2018-12-03 20:49:52 GMT 57.342133 9.004841 37,000 29 481 0
2018-12-03 20:49:45 GMT 57.328217 8.990335 37,000 29 481 0
2018-12-03 20:49:42 GMT 57.322609 8.984424 37,000 29 481 0
2018-12-03 20:49:35 GMT 57.307709 8.968964 37,000 29 481 0
2018-12-03 20:49:31 GMT 57.302128 8.963072 37,000 29 481 0
2018-12-03 20:49:24 GMT 57.288025 8.948364 37,000 29 481 0
2018-12-03 20:49:21 GMT 57.282391 8.942517 37,000 29 480 0
2018-12-03 20:49:14 GMT 57.268707 8.928280 37,000 29 480 0
2018-12-03 20:49:11 GMT 57.262325 8.921607 37,000 29 480 0
2018-12-03 20:49:04 GMT 57.248978 8.907766 37,000 29 480 0
2018-12-03 20:49:01 GMT 57.242020 8.900557 36,975 29 480 0
2018-12-03 20:48:53 GMT 57.227131 8.885193 36,975 29 481 0
2018-12-03 20:48:49 GMT 57.221924 8.879786 36,975 29 481 -64
2018-12-03 20:48:43 GMT 57.209721 8.867207 36,975 29 481 -64
2018-12-03 20:48:40 GMT 57.202560 8.859787 37,000 29 481 -64
2018-12-03 20:48:33 GMT 57.189377 8.846226 37,000 29 480 0
2018-12-03 20:48:28 GMT 57.181046 8.837704 37,000 29 479 0
2018-12-03 20:48:24 GMT 57.169647 8.825970 37,000 29 479 64
2018-12-03 20:48:20 GMT 57.164425 8.820604 37,000 29 479 64
2018-12-03 20:48:17 GMT 57.156876 8.812838 37,000 29 479 64
2018-12-03 20:48:13 GMT 57.148972 8.804656 36,975 29 481 0
2018-12-03 20:48:10 GMT 57.137146 8.792496 36,975 29 481 0
2018-12-03 20:48:06 GMT 57.137146 8.792496 36,975 29 481 0
2018-12-03 20:48:01 GMT 57.128441 8.783569 36,975 29 481 0
2018-12-03 20:47:57 GMT 57.120117 8.774986 36,975 29 481 -64
2018-12-03 20:47:52 GMT 57.109867 8.764432 37,000 29 481 0
2018-12-03 20:47:47 GMT 57.089905 8.743916 37,000 29 481 0
2018-12-03 20:47:41 GMT 57.089905 8.743916 37,000 29 481 0
2018-12-03 20:47:38 GMT 57.084045 8.737907 37,000 29 481 0
2018-12-03 20:47:35 GMT 57.075165 8.728809 37,000 29 481 0
2018-12-03 20:47:32 GMT 57.070667 8.724208 37,000 29 481 0
2018-12-03 20:47:25 GMT 57.058868 8.712158 37,000 29 481 0
2018-12-03 20:47:21 GMT 57.050354 8.703403 37,000 29 480 0
2018-12-03 20:47:15 GMT 57.039341 8.692135 36,975 29 479 0
2018-12-03 20:47:12 GMT 57.031982 8.684604 36,975 29 479 0
2018-12-03 20:47:07 GMT 57.023838 8.676275 37,000 29 479 0
2018-12-03 20:47:04 GMT 57.018219 8.670530 36,975 29 480 0
2018-12-03 20:47:00 GMT 57.009129 8.661214 36,975 29 479 0
2018-12-03 20:46:53 GMT 56.995209 8.647038 36,975 29 479 -64
2018-12-03 20:46:49 GMT 56.988644 8.640304 37,000 29 479 0
2018-12-03 20:46:45 GMT 56.979752 8.631267 37,000 29 479 0
2018-12-03 20:46:40 GMT 56.970490 8.621875 37,000 29 479 0
2018-12-03 20:46:36 GMT 56.962761 8.613990 37,000 29 478 0
2018-12-03 20:46:33 GMT 56.948891 8.599903 36,975 29 478 0
2018-12-03 20:46:28 GMT 56.948891 8.599903 37,000 29 478 0
2018-12-03 20:46:22 GMT 56.927490 8.578091 36,975 29 478 0
2018-12-03 20:46:18 GMT 56.927490 8.578091 36,975 29 478 0
2018-12-03 20:46:12 GMT 56.915955 8.566332 37,000 29 478 -64
2018-12-03 20:46:09 GMT 56.911331 8.561611 37,000 29 477 -64
2018-12-03 20:46:02 GMT 56.896317 8.546333 37,000 29 476 0
2018-12-03 20:45:59 GMT 56.892281 8.542225 37,000 29 476 0
2018-12-03 20:45:51 GMT 56.876549 8.526188 37,000 29 475 0
2018-12-03 20:45:48 GMT 56.871147 8.520695 37,000 29 475 0
2018-12-03 20:45:42 GMT 56.851044 8.500156 37,000 29 475 0
2018-12-03 20:45:39 GMT 56.851044 8.500156 37,000 29 474 0
2018-12-03 20:45:33 GMT 56.841888 8.490801 37,000 29 474 0
2018-12-03 20:45:30 GMT 56.828476 8.477240 36,975 28 474 0
2018-12-03 20:45:22 GMT 56.813328 8.461953 36,975 28 474 0
2018-12-03 20:45:18 GMT 56.813328 8.461953 36,975 28 474 0
2018-12-03 20:45:15 GMT 56.808765 8.457346 36,975 28 474 0
2018-12-03 20:45:11 GMT 56.800713 8.449284 36,975 28 474 0
2018-12-03 20:45:08 GMT 56.793823 8.442284 36,975 28 474 0
2018-12-03 20:45:00 GMT 56.776550 8.424919 36,975 28 474 0
2018-12-03 20:44:56 GMT 56.770081 8.418363 36,975 28 474 0
2018-12-03 20:44:48 GMT 56.756256 8.404452 36,975 28 473 0
2018-12-03 20:44:45 GMT 56.748413 8.396559 36,975 28 473 0
2018-12-03 20:44:39 GMT 56.732513 8.380531 37,000 28 474 0
2018-12-03 20:44:33 GMT 56.728134 8.376131 37,000 28 474 0
2018-12-03 20:44:30 GMT 56.722179 8.370164 37,000 28 474 0
2018-12-03 20:44:27 GMT 56.716454 8.364317 37,000 28 474 0
2018-12-03 20:44:23 GMT 56.708771 8.356697 36,975 28 474 0
2018-12-03 20:44:18 GMT 56.697052 8.344889 36,975 28 474 0
2018-12-03 20:44:15 GMT 56.692387 8.340218 36,975 28 474 0
2018-12-03 20:44:06 GMT 56.674648 8.322498 36,975 28 474 0
2018-12-03 20:44:01 GMT 56.666225 8.313992 37,000 28 474 0
2018-12-03 20:43:57 GMT 56.653141 8.301057 37,000 28 474 0
2018-12-03 20:43:54 GMT 56.645645 8.293562 37,000 28 474 0
2018-12-03 20:43:50 GMT 56.645645 8.293562 37,000 28 474 0
2018-12-03 20:43:47 GMT 56.637409 8.285375 37,000 28 474 0
2018-12-03 20:43:42 GMT 56.628021 8.276052 37,000 28 475 0
2018-12-03 20:43:39 GMT 56.623764 8.271847 37,000 28 474 0
2018-12-03 20:43:35 GMT 56.615341 8.263435 37,000 28 474 0
2018-12-03 20:43:30 GMT 56.606873 8.255024 36,975 28 474 0
2018-12-03 20:43:25 GMT 56.595337 8.243608 37,000 28 474 0
2018-12-03 20:43:19 GMT 56.583267 8.231592 37,000 28 474 0
2018-12-03 20:43:14 GMT 56.575745 8.224099 37,000 28 474 0
2018-12-03 20:43:10 GMT 56.566368 8.214769 37,000 28 474 0
2018-12-03 20:43:04 GMT 56.556408 8.204813 37,000 28 474 0
2018-12-03 20:42:58 GMT 56.542374 8.190807 37,000 28 474 0
2018-12-03 20:42:53 GMT 56.535873 8.184315 37,000 28 474 0
2018-12-03 20:42:46 GMT 56.522049 8.170582 37,000 28 474 0
2018-12-03 20:42:43 GMT 56.515503 8.164090 36,975 28 474 0
2018-12-03 20:42:36 GMT 56.495178 8.143865 36,975 28 475 0
2018-12-03 20:42:32 GMT 56.495178 8.143865 36,975 28 475 0
2018-12-03 20:42:27 GMT 56.485153 8.133961 36,975 28 475 0
2018-12-03 20:42:22 GMT 56.475361 8.124218 37,000 28 475 0
2018-12-03 20:42:17 GMT 56.465149 8.114236 36,975 28 475 0
2018-12-03 20:42:14 GMT 56.460159 8.109242 36,975 28 475 0
2018-12-03 20:42:10 GMT 56.453434 8.102589 37,000 28 476 0
2018-12-03 20:42:05 GMT 56.442444 8.091764 36,975 28 475 0
2018-12-03 20:42:01 GMT 56.435532 8.084939 36,975 28 475 0
2018-12-03 20:41:55 GMT 56.421871 8.071346 37,000 28 475 -64
2018-12-03 20:41:50 GMT 56.414143 8.063793 37,000 28 475 0
2018-12-03 20:41:45 GMT 56.404926 8.054609 37,000 28 475 0
2018-12-03 20:41:42 GMT 56.397198 8.046970 37,000 28 475 0
2018-12-03 20:41:39 GMT 56.393379 8.043194 37,000 28 476 0
2018-12-03 20:41:36 GMT 56.384907 8.034868 37,000 28 476 0
2018-12-03 20:41:30 GMT 56.375645 8.025770 37,000 28 476 0
2018-12-03 20:41:24 GMT 56.363525 8.013777 37,000 28 476 0
2018-12-03 20:41:20 GMT 56.353867 8.004289 37,000 28 476 0
2018-12-03 20:41:14 GMT 56.343063 7.993719 36,975 28 476 0
2018-12-03 20:41:11 GMT 56.339218 7.989890 36,975 28 477 0
2018-12-03 20:41:08 GMT 56.334026 7.984743 36,975 28 477 0
2018-12-03 20:41:04 GMT 56.325134 7.976074 36,975 28 477 0
2018-12-03 20:41:01 GMT 56.320107 7.971096 36,975 28 477 0
2018-12-03 20:40:58 GMT 56.299393 7.950856 36,975 28 477 0
2018-12-03 20:40:51 GMT 56.294132 7.945776 37,000 28 478 0
2018-12-03 20:40:42 GMT 56.282913 7.934875 37,000 28 478 0
2018-12-03 20:40:38 GMT 56.276505 7.928633 37,000 28 478 0
2018-12-03 20:40:32 GMT 56.261353 7.913902 37,000 28 479 0
2018-12-03 20:40:27 GMT 56.245625 7.898483 37,000 28 479 0
2018-12-03 20:40:23 GMT 56.245625 7.898483 37,000 28 479 0
2018-12-03 20:40:20 GMT 56.238831 7.891929 37,000 28 479 0
2018-12-03 20:40:16 GMT 56.227158 7.880526 37,000 28 480 0
2018-12-03 20:40:09 GMT 56.219788 7.873285 37,000 28 481 0
2018-12-03 20:40:02 GMT 56.205170 7.859087 37,000 28 481 0
2018-12-03 20:39:59 GMT 56.200287 7.854309 37,000 28 481 0
2018-12-03 20:39:56 GMT 56.193485 7.847672 37,000 28 481 0
2018-12-03 20:39:51 GMT 56.184872 7.839260 37,000 28 482 0
2018-12-03 20:39:48 GMT 56.177628 7.832253 37,000 28 481 0
2018-12-03 20:39:44 GMT 56.169846 7.824679 37,000 28 481 0
2018-12-03 20:39:39 GMT 56.158665 7.813854 37,000 28 481 0
2018-12-03 20:39:34 GMT 56.149887 7.805370 37,000 28 481 0
2018-12-03 20:39:28 GMT 56.138123 7.794051 37,000 28 481 0
2018-12-03 20:39:24 GMT 56.128963 7.785187 37,000 28 481 64
2018-12-03 20:39:20 GMT 56.124264 7.780638 37,000 28 481 0
2018-12-03 20:39:16 GMT 56.115463 7.772161 37,000 28 481 0
2018-12-03 20:39:11 GMT 56.105301 7.762340 36,975 28 481 0
2018-12-03 20:39:08 GMT 56.097679 7.754974 37,000 28 481 0
2018-12-03 20:39:04 GMT 56.083786 7.741616 37,000 28 479 0
2018-12-03 20:39:00 GMT 56.083786 7.741616 37,000 28 481 0
2018-12-03 20:38:56 GMT 56.074814 7.732960 37,000 28 481 0
2018-12-03 20:38:51 GMT 56.065655 7.724075 37,000 28 481 0
2018-12-03 20:38:47 GMT 56.058060 7.716730 37,000 28 480 0
2018-12-03 20:38:44 GMT 56.052200 7.711071 37,000 28 480 0
2018-12-03 20:38:41 GMT 56.044418 7.703580 37,000 28 480 0
2018-12-03 20:38:37 GMT 56.038559 7.697920 37,000 28 480 0
2018-12-03 20:38:34 GMT 56.033890 7.693343 37,000 28 480 0
2018-12-03 20:38:28 GMT 56.022408 7.682276 37,000 28 479 0
2018-12-03 20:38:25 GMT 56.015213 7.675282 37,000 28 479 0
2018-12-03 20:38:18 GMT 56.001411 7.662020 37,000 28 479 0
2018-12-03 20:38:15 GMT 55.997314 7.658053 37,000 28 479 0
2018-12-03 20:38:10 GMT 55.985443 7.646570 37,000 28 479 0
2018-12-03 20:38:05 GMT 55.976669 7.638161 37,000 28 479 0
2018-12-03 20:37:58 GMT 55.963028 7.625011 36,975 28 479 0
2018-12-03 20:37:55 GMT 55.955044 7.617302 36,975 28 480 0
2018-12-03 20:37:50 GMT 55.945129 7.607699 36,975 28 480 0
2018-12-03 20:37:46 GMT 55.940243 7.603054 36,975 28 480 0
2018-12-03 20:37:42 GMT 55.932884 7.595930 36,975 28 479 0
2018-12-03 20:37:38 GMT 55.924484 7.587807 36,975 28 478 0
2018-12-03 20:37:34 GMT 55.915756 7.579365 37,000 28 480 0
2018-12-03 20:37:29 GMT 55.906586 7.570579 37,000 28 479 0
2018-12-03 20:37:26 GMT 55.900532 7.564774 37,000 28 478 -64
2018-12-03 20:37:23 GMT 55.886940 7.551641 37,000 28 479 0
2018-12-03 20:37:19 GMT 55.886940 7.551641 37,000 28 478 0
2018-12-03 20:37:16 GMT 55.879536 7.544518 37,000 28 478 0
2018-12-03 20:37:13 GMT 55.868088 7.533542 37,000 28 478 0
2018-12-03 20:37:06 GMT 55.862080 7.527695 37,000 28 478 0
2018-12-03 20:37:03 GMT 55.856461 7.522306 37,000 28 478 -64
2018-12-03 20:37:00 GMT 55.851604 7.517653 37,000 28 477 0
2018-12-03 20:36:57 GMT 55.845154 7.511569 37,000 28 477 0
2018-12-03 20:36:54 GMT 55.837784 7.504494 37,000 28 477 0
2018-12-03 20:36:51 GMT 55.833527 7.500416 37,000 28 477 0
2018-12-03 20:36:45 GMT 55.820297 7.487932 37,000 28 477 0
2018-12-03 20:36:40 GMT 55.812737 7.480745 37,000 28 477 0
2018-12-03 20:36:37 GMT 55.803799 7.472334 36,975 28 476 0
2018-12-03 20:36:34 GMT 55.800304 7.468987 37,000 28 476 0
2018-12-03 20:36:31 GMT 55.793152 7.462214 36,975 28 476 0
2018-12-03 20:36:28 GMT 55.787876 7.457228 37,000 28 476 0
2018-12-03 20:36:25 GMT 55.781685 7.451391 37,000 28 476 0
2018-12-03 20:36:21 GMT 55.774887 7.444985 37,000 28 476 0
2018-12-03 20:36:18 GMT 55.768250 7.438743 37,000 28 476 0
2018-12-03 20:36:14 GMT 55.759735 7.430670 37,000 28 476 0
2018-12-03 20:36:11 GMT 55.754871 7.426157 37,000 28 476 0
2018-12-03 20:36:07 GMT 55.747887 7.419548 37,000 28 476 0
2018-12-03 20:36:01 GMT 55.727142 7.399875 37,000 28 476 0
2018-12-03 20:35:56 GMT 55.727142 7.399875 36,975 28 476 0
2018-12-03 20:35:50 GMT 55.715672 7.389078 36,975 28 476 0
2018-12-03 20:35:47 GMT 55.707947 7.381783 36,975 28 476 0
2018-12-03 20:35:42 GMT 55.699753 7.374058 36,975 28 476 0
2018-12-03 20:35:35 GMT 55.685989 7.361090 37,000 28 476 0
2018-12-03 20:35:32 GMT 55.679398 7.354931 36,975 28 476 0
2018-12-03 20:35:29 GMT 55.673172 7.349021 36,975 28 476 0
2018-12-03 20:35:26 GMT 55.668137 7.344277 37,000 28 476 0
2018-12-03 20:35:23 GMT 55.662323 7.338784 37,000 28 476 0
2018-12-03 20:35:20 GMT 55.655575 7.332430 37,000 28 476 0
2018-12-03 20:35:16 GMT 55.647800 7.325048 37,000 28 476 0
2018-12-03 20:35:13 GMT 55.643936 7.321444 37,000 28 476 0
2018-12-03 20:35:10 GMT 55.636581 7.314491 37,000 28 476 0
2018-12-03 20:35:07 GMT 55.625362 7.303848 37,000 28 476 0
2018-12-03 20:34:59 GMT 55.615307 7.294407 37,000 27 475 0
2018-12-03 20:34:56 GMT 55.608902 7.288430 37,000 27 475 0
2018-12-03 20:34:53 GMT 55.603500 7.283270 37,000 27 475 0
2018-12-03 20:34:49 GMT 55.594406 7.274752 37,000 27 475 0
2018-12-03 20:34:46 GMT 55.589333 7.270031 36,975 27 475 0
2018-12-03 20:34:43 GMT 55.584137 7.265209 36,975 27 475 0
2018-12-03 20:34:35 GMT 55.568802 7.250891 37,000 27 475 0
2018-12-03 20:34:32 GMT 55.563728 7.246256 36,975 27 475 0
2018-12-03 20:34:28 GMT 55.553253 7.236471 36,975 27 475 -64
2018-12-03 20:34:24 GMT 55.548431 7.232000 37,000 27 475 -64
2018-12-03 20:34:20 GMT 55.540077 7.224197 37,000 27 475 0
2018-12-03 20:34:15 GMT 55.529800 7.214605 37,000 27 475 0
2018-12-03 20:34:12 GMT 55.523987 7.209195 37,000 27 475 0
2018-12-03 20:34:05 GMT 55.510071 7.196211 37,000 27 475 0
2018-12-03 20:34:01 GMT 55.504047 7.190638 37,000 27 475 64
2018-12-03 20:33:54 GMT 55.490341 7.177818 36,975 27 476 0
2018-12-03 20:33:50 GMT 55.479858 7.168080 36,975 27 475 0
2018-12-03 20:33:44 GMT 55.470154 7.159008 36,975 27 475 0
2018-12-03 20:33:41 GMT 55.464573 7.153730 36,975 27 476 0
2018-12-03 20:33:38 GMT 55.458939 7.148437 36,975 27 476 0
2018-12-03 20:33:34 GMT 55.450603 7.140684 36,975 27 476 0
2018-12-03 20:33:30 GMT 55.443787 7.134372 36,975 27 476 0
2018-12-03 20:33:27 GMT 55.437195 7.128188 36,975 27 476 0
2018-12-03 20:33:23 GMT 55.430603 7.122049 36,975 27 476 -64
2018-12-03 20:33:20 GMT 55.424789 7.116636 36,975 27 476 0
2018-12-03 20:33:17 GMT 55.418762 7.110984 36,975 27 476 0
2018-12-03 20:33:13 GMT 55.403214 7.096585 36,975 27 475 -64
2018-12-03 20:33:06 GMT 55.395859 7.089761 36,975 27 476 -64
2018-12-03 20:33:02 GMT 55.389038 7.083435 36,975 27 475 -64
2018-12-03 20:32:59 GMT 55.384174 7.079024 37,000 27 475 0
2018-12-03 20:32:56 GMT 55.377937 7.073281 37,000 27 475 0
2018-12-03 20:32:53 GMT 55.370773 7.066713 37,000 27 475 0
2018-12-03 20:32:49 GMT 55.363770 7.060251 37,000 27 475 0
2018-12-03 20:32:46 GMT 55.357315 7.054388 37,000 27 475 0
2018-12-03 20:32:41 GMT 55.348797 7.046564 37,000 27 475 0
2018-12-03 20:32:38 GMT 55.343349 7.041570 37,000 27 476 0
2018-12-03 20:32:35 GMT 55.337112 7.035828 37,000 27 475 0
2018-12-03 20:32:31 GMT 55.328018 7.027372 37,000 27 475 0
2018-12-03 20:32:27 GMT 55.320446 7.020430 37,000 27 475 0
2018-12-03 20:32:22 GMT 55.311089 7.011774 36,975 27 475 0
2018-12-03 20:32:19 GMT 55.305496 7.006531 36,975 27 476 0
2018-12-03 20:32:15 GMT 55.297543 6.999207 36,975 27 476 0
2018-12-03 20:32:12 GMT 55.291676 6.993797 36,975 27 476 0
2018-12-03 20:32:06 GMT 55.280037 6.982977 37,000 27 476 -64
2018-12-03 20:32:02 GMT 55.272171 6.975672 37,000 27 475 -64
2018-12-03 20:31:59 GMT 55.266815 6.970744 37,000 27 475 0
2018-12-03 20:31:56 GMT 55.259628 6.964120 37,000 27 475 0
2018-12-03 20:31:51 GMT 55.250896 6.956010 37,000 27 475 0
2018-12-03 20:31:48 GMT 55.246243 6.951682 36,975 27 475 0
2018-12-03 20:31:43 GMT 55.235138 6.941501 36,975 27 476 0
2018-12-03 20:31:39 GMT 55.227356 6.934312 36,975 27 477 0
2018-12-03 20:31:36 GMT 55.219208 6.926718 36,975 27 477 0
2018-12-03 20:31:31 GMT 55.212025 6.920055 36,975 27 477 0
2018-12-03 20:31:28 GMT 55.206390 6.914843 37,000 27 476 0
2018-12-03 20:31:25 GMT 55.200340 6.909318 37,000 27 476 0
2018-12-03 20:31:22 GMT 55.194717 6.904099 37,000 27 476 0
2018-12-03 20:31:19 GMT 55.188656 6.898582 37,000 27 475 -64
2018-12-03 20:31:15 GMT 55.179520 6.890124 37,000 27 475 0
2018-12-03 20:31:12 GMT 55.174690 6.885681 37,000 27 475 0
2018-12-03 20:31:08 GMT 55.167892 6.879461 37,000 27 475 0
2018-12-03 20:31:04 GMT 55.160522 6.872675 37,000 27 475 0
2018-12-03 20:31:01 GMT 55.152374 6.865163 37,000 27 475 0
2018-12-03 20:30:55 GMT 55.141891 6.855550 37,000 27 475 0
2018-12-03 20:30:52 GMT 55.126137 6.841070 37,000 27 475 0
2018-12-03 20:30:48 GMT 55.126137 6.841070 37,000 27 475 0
2018-12-03 20:30:45 GMT 55.122482 6.837697 37,000 27 475 0
2018-12-03 20:30:41 GMT 55.114124 6.830084 37,000 27 475 0
2018-12-03 20:30:38 GMT 55.109470 6.825756 37,000 27 475 0
2018-12-03 20:30:35 GMT 55.102070 6.819014 37,000 27 475 0
2018-12-03 20:30:32 GMT 55.097626 6.814916 36,975 27 475 0
2018-12-03 20:30:29 GMT 55.092758 6.810525 37,000 27 475 0
2018-12-03 20:30:26 GMT 55.083252 6.801749 37,000 27 475 0
2018-12-03 20:30:23 GMT 55.078583 6.797548 37,000 27 475 0
2018-12-03 20:30:20 GMT 55.072971 6.792381 36,975 27 475 0
2018-12-03 20:30:17 GMT 55.068100 6.787935 37,000 27 475 0
2018-12-03 20:30:12 GMT 55.056839 6.777676 36,975 27 475 0
2018-12-03 20:30:09 GMT 55.052948 6.774121 36,975 27 475 0
2018-12-03 20:30:06 GMT 55.045578 6.767417 36,975 27 475 0
2018-12-03 20:29:57 GMT 55.030014 6.753361 37,000 27 475 0
2018-12-03 20:29:53 GMT 55.013477 6.738364 37,000 27 475 0
2018-12-03 20:29:49 GMT 55.013477 6.738364 37,000 27 475 0
2018-12-03 20:29:46 GMT 55.008404 6.733704 37,000 27 475 0
2018-12-03 20:29:40 GMT 54.996765 6.723133 37,000 27 475 0
2018-12-03 20:29:37 GMT 54.982956 6.710627 36,975 27 475 0
2018-12-03 20:29:33 GMT 54.982956 6.710627 36,975 27 475 0
2018-12-03 20:29:28 GMT 54.973446 6.701910 37,000 27 475 0
2018-12-03 20:29:21 GMT 54.958832 6.688735 37,000 27 475 0
2018-12-03 20:29:18 GMT 54.953796 6.684131 36,975 27 475 0
2018-12-03 20:29:13 GMT 54.943512 6.674777 36,975 27 475 0
2018-12-03 20:29:10 GMT 54.937645 6.669450 36,975 27 475 0
2018-12-03 20:29:07 GMT 54.933563 6.665793 36,975 27 475 0
2018-12-03 20:29:03 GMT 54.922890 6.656133 37,000 27 474 0
2018-12-03 20:28:57 GMT 54.910412 6.644897 37,000 27 474 0
2018-12-03 20:28:50 GMT 54.898132 6.633965 37,000 27 474 0
2018-12-03 20:28:47 GMT 54.892910 6.629250 37,000 27 474 0
2018-12-03 20:28:41 GMT 54.881424 6.619020 37,000 27 474 0
2018-12-03 20:28:38 GMT 54.876942 6.615018 37,000 27 474 0
2018-12-03 20:28:35 GMT 54.864670 6.603995 37,000 27 474 0
2018-12-03 20:28:32 GMT 54.864670 6.603995 37,000 27 474 0
2018-12-03 20:28:28 GMT 54.856739 6.596874 37,000 27 474 0
2018-12-03 20:28:24 GMT 54.849518 6.590424 37,000 27 474 0
2018-12-03 20:28:21 GMT 54.843143 6.584639 37,000 27 474 0
2018-12-03 20:28:15 GMT 54.831089 6.573902 37,000 27 474 0
2018-12-03 20:28:10 GMT 54.822372 6.566027 37,000 27 474 0
2018-12-03 20:28:06 GMT 54.812885 6.557506 37,000 27 473 0
2018-12-03 20:27:59 GMT 54.796967 6.543274 37,000 27 473 0
2018-12-03 20:27:55 GMT 54.791145 6.538030 37,000 27 473 0
2018-12-03 20:27:48 GMT 54.778152 6.526364 36,975 27 474 0
2018-12-03 20:27:44 GMT 54.758560 6.508817 36,975 27 474 0
2018-12-03 20:27:38 GMT 54.758560 6.508817 36,975 27 474 0
2018-12-03 20:27:34 GMT 54.752930 6.503745 36,975 27 474 0
2018-12-03 20:27:31 GMT 54.745560 6.497121 36,975 27 473 0
2018-12-03 20:27:28 GMT 54.729046 6.482350 36,975 27 474 0
2018-12-03 20:27:23 GMT 54.729046 6.482350 36,975 27 474 0
2018-12-03 20:27:17 GMT 54.718735 6.473209 36,975 27 472 0
2018-12-03 20:27:13 GMT 54.702438 6.458588 36,975 27 473 0
2018-12-03 20:27:06 GMT 54.698547 6.455195 36,975 27 474 0
2018-12-03 20:27:03 GMT 54.690811 6.448248 36,975 27 473 -64
2018-12-03 20:26:58 GMT 54.679550 6.438150 37,000 27 473 -64
2018-12-03 20:26:55 GMT 54.675091 6.434160 37,000 27 473 -64
2018-12-03 20:26:52 GMT 54.669846 6.429506 37,000 27 471 0
2018-12-03 20:26:47 GMT 54.660553 6.421186 37,000 27 472 0
2018-12-03 20:26:43 GMT 54.651863 6.413352 37,000 27 471 0
2018-12-03 20:26:39 GMT 54.646088 6.408192 37,000 27 472 0
2018-12-03 20:26:35 GMT 54.636780 6.399869 37,000 27 471 0
2018-12-03 20:26:32 GMT 54.631752 6.395458 37,000 27 471 0
2018-12-03 20:26:29 GMT 54.625397 6.389762 37,000 27 472 0
2018-12-03 20:26:24 GMT 54.616295 6.381642 37,000 27 472 0
2018-12-03 20:26:20 GMT 54.608368 6.374655 37,000 27 472 0
2018-12-03 20:26:17 GMT 54.602554 6.369485 37,000 27 474 0
2018-12-03 20:26:13 GMT 54.594975 6.362749 37,000 27 472 0
2018-12-03 20:26:09 GMT 54.587036 6.355752 37,000 27 472 0
2018-12-03 20:26:06 GMT 54.582218 6.351429 36,975 27 472 0
2018-12-03 20:26:03 GMT 54.575821 6.345735 36,975 27 472 0
2018-12-03 20:26:00 GMT 54.569046 6.339777 36,975 27 473 0
2018-12-03 20:25:56 GMT 54.562805 6.334201 36,975 27 473 0
2018-12-03 20:25:52 GMT 54.554077 6.326509 36,975 27 473 0
2018-12-03 20:25:49 GMT 54.548630 6.321662 36,975 27 473 0
2018-12-03 20:25:46 GMT 54.542404 6.316169 36,975 27 474 0
2018-12-03 20:25:43 GMT 54.537155 6.311562 37,000 27 474 0
2018-12-03 20:25:39 GMT 54.528965 6.304321 36,975 27 474 0
2018-12-03 20:25:34 GMT 54.518864 6.295416 37,000 27 474 0
2018-12-03 20:25:31 GMT 54.513416 6.290588 37,000 27 474 0
2018-12-03 20:25:28 GMT 54.507969 6.285761 37,000 27 474 0
2018-12-03 20:25:25 GMT 54.502522 6.280934 37,000 27 474 0
2018-12-03 20:25:22 GMT 54.494328 6.273776 37,000 27 474 0
2018-12-03 20:25:19 GMT 54.490417 6.270364 37,000 27 474 0
2018-12-03 20:25:15 GMT 54.481853 6.262790 37,000 27 474 0
2018-12-03 20:25:11 GMT 54.473660 6.255632 37,000 27 474 0
2018-12-03 20:25:08 GMT 54.469574 6.252029 37,000 27 474 0
2018-12-03 20:25:05 GMT 54.455978 6.240073 37,000 27 474 0
2018-12-03 20:25:01 GMT 54.455978 6.240073 37,000 27 474 0
2018-12-03 20:24:57 GMT 54.446426 6.231662 37,000 27 474 0
2018-12-03 20:24:53 GMT 54.439445 6.225503 37,000 27 474 0
2018-12-03 20:24:50 GMT 54.433205 6.220093 37,000 27 474 0
2018-12-03 20:24:47 GMT 54.425583 6.213415 37,000 27 474 0
2018-12-03 20:24:43 GMT 54.418579 6.207275 36,975 27 474 0
2018-12-03 20:24:40 GMT 54.412582 6.201949 36,975 27 474 0
2018-12-03 20:24:35 GMT 54.404984 6.195320 36,975 27 474 0
2018-12-03 20:24:31 GMT 54.394821 6.186434 36,975 27 474 0
2018-12-03 20:24:27 GMT 54.388596 6.180941 36,975 27 474 0
2018-12-03 20:24:24 GMT 54.380035 6.173428 36,975 27 474 0
2018-12-03 20:24:19 GMT 54.372456 6.166742 36,975 27 474 0
2018-12-03 20:24:14 GMT 54.355324 6.151678 37,000 27 474 0
2018-12-03 20:24:11 GMT 54.355324 6.151678 36,975 27 474 0
2018-12-03 20:24:06 GMT 54.347130 6.144520 37,000 27 474 0
2018-12-03 20:24:03 GMT 54.341080 6.139176 37,000 27 474 0
2018-12-03 20:24:00 GMT 54.333862 6.132868 37,000 27 474 0
2018-12-03 20:23:56 GMT 54.326660 6.126574 37,000 27 474 0
2018-12-03 20:23:53 GMT 54.323181 6.123505 37,000 27 474 0
2018-12-03 20:23:50 GMT 54.315941 6.117138 37,000 27 474 0
2018-12-03 20:23:47 GMT 54.310684 6.112599 37,000 26 474 0
2018-12-03 20:23:42 GMT 54.301510 6.104570 37,000 26 474 0
2018-12-03 20:23:39 GMT 54.294296 6.098301 37,000 26 474 0
2018-12-03 20:23:35 GMT 54.285122 6.090338 37,000 26 474 0
2018-12-03 20:23:32 GMT 54.282005 6.087674 37,000 26 474 0
2018-12-03 20:23:29 GMT 54.274796 6.081403 37,000 26 474 0
2018-12-03 20:23:26 GMT 54.268936 6.076303 37,000 26 474 0
2018-12-03 20:23:22 GMT 54.261154 6.069475 37,000 26 474 0
2018-12-03 20:23:18 GMT 54.255295 6.064453 37,000 26 474 0
2018-12-03 20:23:15 GMT 54.248657 6.058646 37,000 26 474 0
2018-12-03 20:23:12 GMT 54.239639 6.050956 37,000 26 474 0
2018-12-03 20:23:08 GMT 54.234009 6.046035 37,000 26 474 0
2018-12-03 20:23:05 GMT 54.228516 6.041269 37,000 26 475 0
2018-12-03 20:23:02 GMT 54.222061 6.035732 37,000 26 474 0
2018-12-03 20:22:59 GMT 54.216980 6.031337 37,000 26 474 0
2018-12-03 20:22:56 GMT 54.210342 6.025609 37,000 26 474 0
2018-12-03 20:22:53 GMT 54.205261 6.021214 37,000 26 474 0
2018-12-03 20:22:50 GMT 54.198444 6.015338 37,000 26 474 0
2018-12-03 20:22:44 GMT 54.182381 6.001524 37,000 27 476 0
2018-12-03 20:22:41 GMT 54.182381 6.001524 36,975 26 475 0
2018-12-03 20:22:38 GMT 54.175552 5.995632 36,975 26 475 0
2018-12-03 20:22:34 GMT 54.168324 5.989326 36,975 26 475 0
2018-12-03 20:22:31 GMT 54.161667 5.983591 36,975 26 475 0
2018-12-03 20:22:27 GMT 54.147980 5.971716 37,000 27 476 0
2018-12-03 20:22:24 GMT 54.147980 5.971716 37,000 27 476 0
2018-12-03 20:22:21 GMT 54.141907 5.966439 37,000 27 477 0
2018-12-03 20:22:16 GMT 54.131699 5.957572 37,000 26 476 0
2018-12-03 20:22:13 GMT 54.127808 5.954197 36,975 26 476 0
2018-12-03 20:22:10 GMT 54.118790 5.946350 37,000 26 477 0
2018-12-03 20:22:07 GMT 54.114853 5.942976 37,000 26 477 0
2018-12-03 20:22:04 GMT 54.109726 5.938581 36,975 26 477 0
2018-12-03 20:22:00 GMT 54.102081 5.931890 37,000 26 478 64
2018-12-03 20:21:57 GMT 54.087135 5.918965 36,975 27 479 0
2018-12-03 20:21:54 GMT 54.087135 5.918965 36,975 27 479 0
2018-12-03 20:21:50 GMT 54.079468 5.912292 36,975 27 479 0
2018-12-03 20:21:46 GMT 54.071960 5.905858 36,975 26 480 0
2018-12-03 20:21:43 GMT 54.067612 5.902091 36,975 26 480 0
2018-12-03 20:21:40 GMT 54.061905 5.897073 36,975 26 480 0
2018-12-03 20:21:36 GMT 54.052231 5.888750 36,975 26 480 0
2018-12-03 20:21:33 GMT 54.048080 5.885117 36,975 26 480 0
2018-12-03 20:21:30 GMT 54.040211 5.878332 36,975 26 480 -64
2018-12-03 20:21:25 GMT 54.032299 5.871465 37,000 27 479 -64
2018-12-03 20:21:22 GMT 54.026184 5.866150 37,000 26 478 0
2018-12-03 20:21:19 GMT 54.021057 5.861755 37,000 26 475 0
2018-12-03 20:21:13 GMT 54.008835 5.851240 37,000 26 478 0
2018-12-03 20:21:10 GMT 54.003529 5.846665 37,000 26 477 0
2018-12-03 20:21:07 GMT 53.996658 5.840724 37,000 26 477 0
2018-12-03 20:21:04 GMT 53.992123 5.836810 37,000 26 477 0
2018-12-03 20:21:01 GMT 53.985046 5.830671 37,000 26 477 0
2018-12-03 20:20:58 GMT 53.978577 5.825108 37,000 26 477 0
2018-12-03 20:20:53 GMT 53.969925 5.817653 36,975 26 477 0
2018-12-03 20:20:50 GMT 53.957336 5.806902 36,975 26 476 0
2018-12-03 20:20:47 GMT 53.957336 5.806902 36,975 26 477 -64
2018-12-03 20:20:42 GMT 53.947712 5.798600 37,000 26 477 0
2018-12-03 20:20:39 GMT 53.941380 5.793269 37,000 26 477 0
2018-12-03 20:20:36 GMT 53.935318 5.787990 37,000 26 477 0
2018-12-03 20:20:31 GMT 53.925694 5.779778 37,000 26 477 0
2018-12-03 20:20:28 GMT 53.920761 5.775591 37,000 26 475 0
2018-12-03 20:20:25 GMT 53.915451 5.771054 37,000 26 476 0
2018-12-03 20:20:21 GMT 53.905258 5.762329 37,000 26 476 0
2018-12-03 20:20:18 GMT 53.900345 5.758092 37,000 26 475 0
2018-12-03 20:20:15 GMT 53.894691 5.753282 37,000 26 475 0
2018-12-03 20:20:11 GMT 53.886822 5.746577 37,000 26 475 0
2018-12-03 20:20:08 GMT 53.879974 5.740749 37,000 26 475 0
2018-12-03 20:20:05 GMT 53.874672 5.736237 37,000 26 475 0
2018-12-03 20:20:02 GMT 53.866852 5.729532 37,000 26 474 0
2018-12-03 20:19:59 GMT 53.862762 5.726074 37,000 26 474 -64
2018-12-03 20:19:55 GMT 53.856079 5.720424 37,000 26 474 0
2018-12-03 20:19:52 GMT 53.849209 5.714668 37,000 26 474 0
2018-12-03 20:19:49 GMT 53.843342 5.709659 37,000 26 474 0
2018-12-03 20:19:45 GMT 53.836731 5.704085 37,000 26 474 0
2018-12-03 20:19:42 GMT 53.829071 5.697588 37,000 26 474 0
2018-12-03 20:19:39 GMT 53.824402 5.693665 36,975 26 475 0
2018-12-03 20:19:36 GMT 53.819321 5.689348 37,000 26 474 0
2018-12-03 20:19:33 GMT 53.813461 5.684326 36,975 26 475 0
2018-12-03 20:19:29 GMT 53.802654 5.675246 36,975 26 476 0
2018-12-03 20:19:25 GMT 53.795208 5.668945 36,975 26 476 0
2018-12-03 20:19:20 GMT 53.778900 5.655212 36,975 26 476 0
2018-12-03 20:19:16 GMT 53.778900 5.655212 36,975 26 476 -64
2018-12-03 20:19:13 GMT 53.773041 5.650190 36,975 26 476 -64
2018-12-03 20:19:10 GMT 53.767323 5.645438 36,975 26 476 -64
2018-12-03 20:19:07 GMT 53.762421 5.641244 37,000 26 476 0
2018-12-03 20:19:04 GMT 53.753590 5.633805 37,000 26 475 0
2018-12-03 20:18:58 GMT 53.741814 5.623869 37,000 26 475 0
2018-12-03 20:18:54 GMT 53.733944 5.617245 37,000 26 475 0
2018-12-03 20:18:51 GMT 53.729874 5.613778 37,000 26 475 0
2018-12-03 20:18:48 GMT 53.724171 5.608924 37,000 26 475 0
2018-12-03 20:18:45 GMT 53.718475 5.604126 36,975 26 475 0
2018-12-03 20:18:41 GMT 53.710064 5.596969 37,000 26 476 0
2018-12-03 20:18:38 GMT 53.703964 5.591806 37,000 26 475 0
2018-12-03 20:18:35 GMT 53.698471 5.587097 36,975 26 475 0
2018-12-03 20:18:32 GMT 53.691628 5.581297 36,975 26 478 0
2018-12-03 20:18:29 GMT 53.686089 5.576692 37,000 26 476 0
2018-12-03 20:18:26 GMT 53.673706 5.566223 36,975 26 476 0
2018-12-03 20:18:23 GMT 53.673706 5.566223 36,975 26 476 0
2018-12-03 20:18:20 GMT 53.669815 5.562849 36,975 26 476 0
2018-12-03 20:18:16 GMT 53.659973 5.554609 36,975 26 477 0
2018-12-03 20:18:13 GMT 53.654846 5.550214 36,975 26 478 0
2018-12-03 20:18:10 GMT 53.649307 5.545585 36,975 26 478 0
2018-12-03 20:18:07 GMT 53.643814 5.540876 36,975 18 454 0
2018-12-03 20:18:04 GMT 53.638096 5.536059 37,000 26 478 0
2018-12-03 20:18:01 GMT 53.632370 5.531224 37,000 26 477 0
2018-12-03 20:17:58 GMT 53.624496 5.524554 37,000 26 477 0
2018-12-03 20:17:54 GMT 53.610352 5.512626 37,000 26 476 0
2018-12-03 20:17:50 GMT 53.610352 5.512626 37,000 26 476 0
2018-12-03 20:17:47 GMT 53.605225 5.508310 37,000 26 476 0
2018-12-03 20:17:44 GMT 53.598541 5.502659 37,000 26 476 0
2018-12-03 20:17:41 GMT 53.590668 5.495989 37,000 26 475 0
2018-12-03 20:17:34 GMT 53.573776 5.481785 37,000 26 475 0
2018-12-03 20:17:31 GMT 53.573776 5.481785 37,000 26 475 0
2018-12-03 20:17:28 GMT 53.565948 5.475115 37,000 26 475 0
2018-12-03 20:17:23 GMT 53.557297 5.467896 37,000 26 475 0
2018-12-03 20:17:20 GMT 53.545578 5.457929 37,000 26 475 0
2018-12-03 20:17:14 GMT 53.537704 5.451338 37,000 26 474 0
2018-12-03 20:17:11 GMT 53.533401 5.447649 36,975 26 473 0
2018-12-03 20:17:08 GMT 53.526352 5.441764 36,975 26 474 0
2018-12-03 20:17:05 GMT 53.521683 5.437762 37,000 26 471 0
2018-12-03 20:17:02 GMT 53.510120 5.427973 37,000 26 473 0
2018-12-03 20:16:59 GMT 53.510120 5.427973 37,000 26 474 -64
2018-12-03 20:16:56 GMT 53.504837 5.423558 37,000 26 472 0
2018-12-03 20:16:53 GMT 53.497040 5.416906 37,000 26 473 0
2018-12-03 20:16:50 GMT 53.487717 5.408962 37,000 26 473 0
2018-12-03 20:16:47 GMT 53.487717 5.408962 37,000 26 472 0
2018-12-03 20:16:44 GMT 53.480667 5.402998 37,000 26 472 0
2018-12-03 20:16:41 GMT 53.473297 5.396720 37,000 26 471 0
2018-12-03 20:16:38 GMT 53.466660 5.391148 37,000 26 471 0
2018-12-03 20:16:35 GMT 53.463757 5.388713 37,000 26 471 0
2018-12-03 20:16:32 GMT 53.457733 5.383615 37,000 26 471 0
2018-12-03 20:16:29 GMT 53.451324 5.378212 37,000 26 471 0
2018-12-03 20:16:23 GMT 53.440613 5.369176 36,975 26 471 0
2018-12-03 20:16:20 GMT 53.431866 5.361894 36,975 26 470 0
2018-12-03 20:16:17 GMT 53.429119 5.359632 36,975 26 470 0
2018-12-03 20:16:13 GMT 53.420792 5.352618 36,975 26 469 -64
2018-12-03 20:16:10 GMT 53.415527 5.348241 37,000 24 467 -128
2018-12-03 20:16:07 GMT 53.408707 5.342730 37,000 24 467 -128
2018-12-03 20:16:03 GMT 53.400677 5.336690 37,000 21 462 -64
2018-12-03 20:16:00 GMT 53.394718 5.332570 37,000 21 462 -64
2018-12-03 20:15:57 GMT 53.387177 5.327723 37,000 19 459 0
2018-12-03 20:15:54 GMT 53.381962 5.324653 37,000 18 458 0
2018-12-03 20:15:50 GMT 53.376377 5.321503 37,000 18 457 0
2018-12-03 20:15:47 GMT 53.367950 5.316817 37,000 18 456 0
2018-12-03 20:15:44 GMT 53.363342 5.314165 37,000 18 456 0
2018-12-03 20:15:41 GMT 53.355988 5.310032 37,000 18 455 0
2018-12-03 20:15:37 GMT 53.348602 5.305926 37,000 18 454 0
2018-12-03 20:15:34 GMT 53.342812 5.302681 37,000 18 454 0
2018-12-03 20:15:31 GMT 53.336655 5.299255 37,000 18 454 0
2018-12-03 20:15:27 GMT 53.328896 5.294925 37,000 18 453 0
2018-12-03 20:15:24 GMT 53.322933 5.291613 37,000 18 454 0
2018-12-03 20:15:21 GMT 53.316788 5.288112 37,000 18 454 0
2018-12-03 20:15:18 GMT 53.311810 5.285312 37,000 18 454 0
2018-12-03 20:15:15 GMT 53.304062 5.280971 37,000 18 454 0
2018-12-03 20:15:12 GMT 53.299892 5.278688 36,975 18 454 0
2018-12-03 20:15:09 GMT 53.293304 5.275007 36,975 18 454 0
2018-12-03 20:15:06 GMT 53.287354 5.271633 36,975 18 454 0
2018-12-03 20:15:03 GMT 53.281597 5.268429 37,000 18 454 0
2018-12-03 20:15:00 GMT 53.276802 5.265763 37,000 18 454 0
2018-12-03 20:14:55 GMT 53.259296 5.255989 36,975 18 454 0
2018-12-03 20:14:52 GMT 53.259296 5.255989 36,975 19 449 0
2018-12-03 20:14:46 GMT 53.247574 5.249425 36,975 18 454 0
2018-12-03 20:14:43 GMT 53.241795 5.246214 36,975 18 454 0
2018-12-03 20:14:40 GMT 53.234024 5.241891 36,975 18 454 0
2018-12-03 20:14:36 GMT 53.222488 5.235378 37,000 18 455 0
2018-12-03 20:14:30 GMT 53.216331 5.231916 37,000 18 454 0
2018-12-03 20:14:27 GMT 53.207794 5.227138 37,000 18 454 0
2018-12-03 20:14:23 GMT 53.200653 5.223136 37,000 18 453 0
2018-12-03 20:14:20 GMT 53.196259 5.220625 37,000 18 453 0
2018-12-03 20:14:17 GMT 53.190121 5.217133 37,000 18 451 0
2018-12-03 20:14:14 GMT 53.182434 5.212777 37,000 18 451 0
2018-12-03 20:14:10 GMT 53.175503 5.208893 37,000 18 451 0
2018-12-03 20:14:04 GMT 53.163849 5.202340 37,000 18 452 0
2018-12-03 20:14:01 GMT 53.156342 5.198103 36,975 19 451 0
2018-12-03 20:13:58 GMT 53.152405 5.195827 36,975 19 451 0
2018-12-03 20:13:54 GMT 53.144360 5.191202 36,975 19 451 0
2018-12-03 20:13:51 GMT 53.138027 5.187566 36,975 19 452 0
2018-12-03 20:13:48 GMT 53.132309 5.184291 36,975 19 451 0
2018-12-03 20:13:45 GMT 53.126450 5.180838 37,000 19 451 0
2018-12-03 20:13:41 GMT 53.116974 5.175345 37,000 19 450 0
2018-12-03 20:13:38 GMT 53.110889 5.171814 37,000 19 450 0
2018-12-03 20:13:33 GMT 53.103241 5.167341 37,000 19 451 0
2018-12-03 20:13:30 GMT 53.096970 5.163653 37,000 19 449 0
2018-12-03 20:13:27 GMT 53.091663 5.160592 37,000 19 450 0
2018-12-03 20:13:24 GMT 53.085751 5.157218 36,975 19 450 0
2018-12-03 20:13:21 GMT 53.071838 5.149231 37,000 19 450 0
2018-12-03 20:13:18 GMT 53.071838 5.149231 37,000 19 450 0
2018-12-03 20:13:14 GMT 53.065735 5.145682 37,000 19 449 0
2018-12-03 20:13:11 GMT 53.060440 5.142593 37,000 19 449 0
2018-12-03 20:13:08 GMT 53.053585 5.138620 37,000 19 449 0
2018-12-03 20:13:05 GMT 53.046928 5.134696 37,000 19 449 0
2018-12-03 20:13:01 GMT 53.038147 5.129547 37,000 19 448 0
2018-12-03 20:12:58 GMT 53.034210 5.127258 37,000 19 449 0
2018-12-03 20:12:55 GMT 53.029129 5.124283 37,000 19 448 0
2018-12-03 20:12:51 GMT 53.019745 5.118866 37,000 19 447 0
2018-12-03 20:12:48 GMT 53.013687 5.115313 37,000 19 448 0
2018-12-03 20:12:45 GMT 53.009407 5.112802 37,000 19 448 0
2018-12-03 20:12:42 GMT 53.003540 5.109349 37,000 19 448 0
2018-12-03 20:12:39 GMT 52.997864 5.106049 37,000 19 448 0
2018-12-03 20:12:36 GMT 52.984222 5.098038 37,000 19 448 0
2018-12-03 20:12:33 GMT 52.984222 5.098038 37,000 19 447 0
2018-12-03 20:12:30 GMT 52.972721 5.091378 37,000 19 447 0
2018-12-03 20:12:27 GMT 52.972721 5.091378 37,000 19 447 0
2018-12-03 20:12:24 GMT 52.967468 5.088272 37,000 19 447 0
2018-12-03 20:12:21 GMT 52.962994 5.085650 37,000 19 446 0
2018-12-03 20:12:18 GMT 52.955219 5.081098 37,000 19 446 0
2018-12-03 20:12:15 GMT 52.950565 5.078352 37,000 19 444 0
2018-12-03 20:12:12 GMT 52.943390 5.074158 37,000 19 445 0
2018-12-03 20:12:09 GMT 52.938354 5.071182 37,000 19 445 0
2018-12-03 20:12:06 GMT 52.933525 5.068386 37,000 19 444 0
2018-12-03 20:12:03 GMT 52.926914 5.064462 37,000 19 444 0
2018-12-03 20:12:00 GMT 52.922104 5.061646 37,000 19 444 0
2018-12-03 20:11:57 GMT 52.914532 5.057242 36,975 19 444 0
2018-12-03 20:11:54 GMT 52.910477 5.054855 36,975 19 443 0
2018-12-03 20:11:51 GMT 52.903564 5.050735 36,975 19 443 0
2018-12-03 20:11:48 GMT 52.893303 5.044686 36,975 19 443 0
2018-12-03 20:11:42 GMT 52.885391 5.040054 36,975 19 443 0
2018-12-03 20:11:39 GMT 52.879803 5.036761 36,975 19 444 0
2018-12-03 20:11:36 GMT 52.874031 5.033308 36,975 19 444 0
2018-12-03 20:11:33 GMT 52.870331 5.031128 37,000 19 444 0
2018-12-03 20:11:30 GMT 52.856297 5.022792 36,975 19 444 0
2018-12-03 20:11:27 GMT 52.856297 5.022792 36,975 19 443 0
2018-12-03 20:11:24 GMT 52.851837 5.020142 37,000 19 442 0
2018-12-03 20:11:21 GMT 52.846436 5.016937 37,000 19 443 0
2018-12-03 20:11:18 GMT 52.834900 5.010071 37,000 19 443 0
2018-12-03 20:11:15 GMT 52.834900 5.010071 37,000 19 442 0
2018-12-03 20:11:12 GMT 52.829544 5.006866 37,000 19 442 0
2018-12-03 20:11:09 GMT 52.823196 5.003095 37,000 19 442 0
2018-12-03 20:11:06 GMT 52.817051 4.999407 37,000 19 441 0
2018-12-03 20:11:03 GMT 52.812073 4.996504 36,975 19 440 0
2018-12-03 20:11:00 GMT 52.799194 4.988861 37,000 19 442 0
2018-12-03 20:10:57 GMT 52.799194 4.988861 37,000 19 442 0
2018-12-03 20:10:54 GMT 52.794571 4.986115 37,000 19 442 0
2018-12-03 20:10:51 GMT 52.789028 4.982771 37,000 19 441 0
2018-12-03 20:10:48 GMT 52.784225 4.979935 37,000 19 441 0
2018-12-03 20:10:45 GMT 52.776581 4.975357 37,000 19 441 0
2018-12-03 20:10:42 GMT 52.771957 4.972610 37,000 19 441 0
2018-12-03 20:10:39 GMT 52.764912 4.968410 37,000 19 441 0
2018-12-03 20:10:36 GMT 52.758591 4.964676 37,000 19 440 0
2018-12-03 20:10:33 GMT 52.754951 4.962446 37,000 19 439 0
2018-12-03 20:10:30 GMT 52.748657 4.958725 37,000 19 440 0
2018-12-03 20:10:27 GMT 52.743500 4.955619 37,000 19 439 0
2018-12-03 20:10:23 GMT 52.735073 4.950675 37,000 19 439 0
2018-12-03 20:10:20 GMT 52.729347 4.947222 37,000 19 439 0
2018-12-03 20:10:16 GMT 52.721340 4.942514 37,000 19 439 0
2018-12-03 20:10:13 GMT 52.715988 4.939296 37,000 19 439 0
2018-12-03 20:10:10 GMT 52.704712 4.932632 37,000 19 440 0
2018-12-03 20:10:04 GMT 52.697479 4.928284 36,975 19 439 0
2018-12-03 20:10:01 GMT 52.687359 4.922267 36,975 19 440 0
2018-12-03 20:09:58 GMT 52.687359 4.922267 36,975 19 440 0
2018-12-03 20:09:55 GMT 52.681629 4.918893 37,000 19 439 0
2018-12-03 20:09:52 GMT 52.676102 4.915543 36,975 19 439 0
2018-12-03 20:09:49 GMT 52.670380 4.912186 36,975 19 440 -64
2018-12-03 20:09:46 GMT 52.663288 4.907985 36,975 19 439 0
2018-12-03 20:09:43 GMT 52.658730 4.905239 37,000 19 439 0
2018-12-03 20:09:40 GMT 52.653004 4.901786 37,000 19 439 0
2018-12-03 20:09:36 GMT 52.644836 4.896927 37,000 19 439 0
2018-12-03 20:09:33 GMT 52.632053 4.889308 37,000 19 438 0
2018-12-03 20:09:30 GMT 52.632053 4.889308 37,000 19 438 0
2018-12-03 20:09:27 GMT 52.628082 4.886932 37,000 19 436 0
2018-12-03 20:09:24 GMT 52.622559 4.883658 37,000 19 438 0
2018-12-03 20:09:21 GMT 52.617203 4.880519 37,000 19 437 0
2018-12-03 20:09:18 GMT 52.606018 4.873886 37,000 19 437 0
2018-12-03 20:09:15 GMT 52.606018 4.873886 37,000 19 436 0
2018-12-03 20:09:12 GMT 52.599747 4.870239 37,000 19 436 0
2018-12-03 20:09:09 GMT 52.593109 4.866257 37,000 19 436 0
2018-12-03 20:09:06 GMT 52.583035 4.860352 37,000 19 436 0
2018-12-03 20:09:03 GMT 52.583035 4.860352 37,000 19 436 0
2018-12-03 20:09:00 GMT 52.577179 4.856873 37,000 19 436 0
2018-12-03 20:08:57 GMT 52.572048 4.853838 37,000 19 436 0
2018-12-03 20:08:53 GMT 52.563297 4.848659 37,000 19 436 0
2018-12-03 20:08:50 GMT 52.557987 4.845520 37,000 19 436 0
2018-12-03 20:08:47 GMT 52.552505 4.842300 36,975 19 436 0
2018-12-03 20:08:43 GMT 52.545513 4.838143 36,975 19 436 64
2018-12-03 20:08:40 GMT 52.539413 4.834612 37,000 19 436 0
2018-12-03 20:08:37 GMT 52.532619 4.830610 36,975 19 436 0
2018-12-03 20:08:34 GMT 52.527512 4.827576 36,975 19 436 0
2018-12-03 20:08:31 GMT 52.522202 4.824371 36,975 19 436 0
2018-12-03 20:08:28 GMT 52.516697 4.821115 36,975 19 436 0
2018-12-03 20:08:25 GMT 52.510849 4.817657 37,000 19 436 0
2018-12-03 20:08:22 GMT 52.497795 4.809814 37,000 20 436 0
2018-12-03 20:08:19 GMT 52.497795 4.809814 37,000 20 436 0
2018-12-03 20:08:16 GMT 52.494396 4.807774 37,000 20 435 0
2018-12-03 20:08:13 GMT 52.487778 4.803772 37,000 20 436 0
2018-12-03 20:08:10 GMT 52.481369 4.799957 37,000 20 435 0
2018-12-03 20:08:07 GMT 52.476791 4.797211 36,975 20 436 0
2018-12-03 20:08:04 GMT 52.470192 4.793256 37,000 20 436 0
2018-12-03 20:08:01 GMT 52.465302 4.790274 36,975 20 436 0
2018-12-03 20:07:58 GMT 52.459442 4.786758 36,975 20 436 0
2018-12-03 20:07:55 GMT 52.454498 4.783783 36,975 20 436 0
2018-12-03 20:07:52 GMT 52.447521 4.779602 36,975 20 436 0
2018-12-03 20:07:49 GMT 52.440723 4.775521 36,975 20 436 0
2018-12-03 20:07:46 GMT 52.434860 4.771957 36,975 20 436 -64
2018-12-03 20:07:43 GMT 52.429737 4.768930 36,975 20 436 -64
2018-12-03 20:07:39 GMT 52.416470 4.760925 37,000 20 436 0
2018-12-03 20:07:36 GMT 52.416470 4.760925 37,000 20 436 0
2018-12-03 20:07:33 GMT 52.410789 4.757551 37,000 20 436 0
2018-12-03 20:07:30 GMT 52.406277 4.754804 37,000 20 436 0
2018-12-03 20:07:27 GMT 52.400024 4.751129 37,000 20 436 0
2018-12-03 20:07:24 GMT 52.389236 4.744681 37,000 20 436 0
2018-12-03 20:07:21 GMT 52.389236 4.744681 37,000 20 436 0
2018-12-03 20:07:18 GMT 52.384140 4.741592 37,000 19 436 0
2018-12-03 20:07:15 GMT 52.377319 4.737549 37,000 20 436 0
2018-12-03 20:07:12 GMT 52.373520 4.735260 36,975 20 438 0
2018-12-03 20:07:09 GMT 52.365555 4.730530 36,975 19 436 0
2018-12-03 20:07:06 GMT 52.359146 4.726715 36,975 19 436 0
2018-12-03 20:07:03 GMT 52.355160 4.724357 36,975 19 437 -64
2018-12-03 20:07:00 GMT 52.349854 4.721218 36,975 19 437 0
2018-12-03 20:06:57 GMT 52.342850 4.717026 36,975 20 437 0
2018-12-03 20:06:53 GMT 52.336586 4.713292 37,000 19 437 -64
2018-12-03 20:06:50 GMT 52.331085 4.710083 37,000 20 437 0
2018-12-03 20:06:47 GMT 52.324482 4.706151 37,000 20 437 0
2018-12-03 20:06:44 GMT 52.319366 4.703064 37,000 20 437 0
2018-12-03 20:06:41 GMT 52.307236 4.695892 37,000 20 436 0
2018-12-03 20:06:38 GMT 52.307236 4.695892 37,000 20 436 0
2018-12-03 20:06:35 GMT 52.302509 4.693045 37,000 20 436 0
2018-12-03 20:06:32 GMT 52.296040 4.689200 37,000 19 436 0
2018-12-03 20:06:29 GMT 52.291523 4.686454 37,000 20 436 0
2018-12-03 20:06:26 GMT 52.284897 4.682541 37,000 20 436 0
2018-12-03 20:06:23 GMT 52.279587 4.679337 37,000 20 435 0
2018-12-03 20:06:20 GMT 52.274487 4.676331 37,000 19 436 0
2018-12-03 20:06:17 GMT 52.266895 4.671779 37,000 20 436 0
2018-12-03 20:06:14 GMT 52.262192 4.668961 37,000 19 436 0
2018-12-03 20:06:11 GMT 52.257660 4.666290 37,000 19 437 0
2018-12-03 20:06:08 GMT 52.244019 4.658203 37,000 19 436 0
2018-12-03 20:06:05 GMT 52.244019 4.658203 37,000 19 436 0
2018-12-03 20:06:02 GMT 52.238548 4.654986 37,000 19 436 0
2018-12-03 20:05:59 GMT 52.228134 4.648819 37,000 19 436 0
2018-12-03 20:05:56 GMT 52.228134 4.648819 36,975 19 437 0
2018-12-03 20:05:53 GMT 52.221680 4.645004 36,975 19 437 0
2018-12-03 20:05:50 GMT 52.215591 4.641495 36,975 20 437 0
2018-12-03 20:05:47 GMT 52.211838 4.639206 36,975 19 437 0
2018-12-03 20:05:44 GMT 52.206116 4.635849 36,975 20 437 0
2018-12-03 20:05:41 GMT 52.194553 4.629011 36,975 20 438 0
2018-12-03 20:05:38 GMT 52.194553 4.629011 36,975 20 438 0
2018-12-03 20:05:35 GMT 52.186752 4.624329 36,975 20 438 0
2018-12-03 20:05:32 GMT 52.183151 4.622184 36,975 20 438 0
2018-12-03 20:05:29 GMT 52.169632 4.614182 36,975 20 438 0
2018-12-03 20:05:26 GMT 52.169632 4.614182 36,975 20 438 0
2018-12-03 20:05:23 GMT 52.166019 4.612061 36,975 20 439 0
2018-12-03 20:05:20 GMT 52.158600 4.607620 36,975 20 438 -64
2018-12-03 20:05:17 GMT 52.152924 4.604263 37,000 20 438 -64
2018-12-03 20:05:14 GMT 52.149490 4.602203 37,000 20 439 0
2018-12-03 20:05:11 GMT 52.142044 4.597778 36,975 20 441 0
2018-12-03 20:05:08 GMT 52.136169 4.594269 36,975 20 441 0
2018-12-03 20:05:05 GMT 52.132324 4.591980 36,975 20 441 0
2018-12-03 20:05:02 GMT 52.126774 4.588675 36,975 20 443 0
2018-12-03 20:04:59 GMT 52.121422 4.585536 36,975 20 445 0
2018-12-03 20:04:56 GMT 52.115650 4.582084 36,975 20 445 0
2018-12-03 20:04:53 GMT 52.095909 4.570156 36,975 20 448 0
2018-12-03 20:04:49 GMT 52.095909 4.570156 36,975 20 449 0
2018-12-03 20:04:45 GMT 52.092464 4.567958 36,975 24 455 0
2018-12-03 20:04:42 GMT 52.086647 4.564113 36,975 23 453 192
2018-12-03 20:04:39 GMT 52.082039 4.560896 36,975 24 454 128
2018-12-03 20:04:36 GMT 52.074188 4.555130 36,975 24 455 0
2018-12-03 20:04:33 GMT 52.063698 4.547320 36,975 24 455 -64
2018-12-03 20:04:30 GMT 52.063698 4.547320 37,000 24 455 -64
2018-12-03 20:04:27 GMT 52.057598 4.542847 37,000 24 455 -64
2018-12-03 20:04:24 GMT 52.052811 4.539261 37,000 24 455 -64
2018-12-03 20:04:21 GMT 52.047634 4.535470 37,000 24 455 -64
2018-12-03 20:04:18 GMT 52.040955 4.530563 37,000 24 454 0
2018-12-03 20:04:15 GMT 52.035439 4.526446 37,000 24 454 0
2018-12-03 20:04:12 GMT 52.028179 4.521109 37,000 24 453 0
2018-12-03 20:04:09 GMT 52.023617 4.517735 37,000 24 453 0
2018-12-03 20:04:06 GMT 52.016922 4.512787 37,000 24 453 0
2018-12-03 20:04:03 GMT 52.012344 4.509430 37,000 24 453 0
2018-12-03 20:04:00 GMT 52.000340 4.500549 37,000 24 453 0
2018-12-03 20:03:54 GMT 51.994400 4.496231 37,000 24 453 0
2018-12-03 20:03:51 GMT 51.988888 4.492153 37,000 24 453 0
2018-12-03 20:03:48 GMT 51.985069 4.489328 37,000 24 453 0
2018-12-03 20:03:45 GMT 51.978973 4.484855 37,000 24 453 0
2018-12-03 20:03:42 GMT 51.971924 4.479675 37,000 24 453 0
2018-12-03 20:03:39 GMT 51.961048 4.471671 36,975 24 453 0
2018-12-03 20:03:36 GMT 51.961048 4.471671 37,000 24 453 0
2018-12-03 20:03:33 GMT 51.955536 4.467621 36,975 24 453 0
2018-12-03 20:03:30 GMT 51.948898 4.462646 36,975 24 453 0
2018-12-03 20:03:27 GMT 51.944290 4.459272 36,975 24 453 0
2018-12-03 20:03:24 GMT 51.937820 4.454485 36,975 24 454 0
2018-12-03 20:03:21 GMT 51.931351 4.449698 36,975 24 454 0
2018-12-03 20:03:18 GMT 51.925625 4.445539 36,975 24 454 0
2018-12-03 20:03:15 GMT 51.921616 4.442520 36,975 24 454 0
2018-12-03 20:03:12 GMT 51.913799 4.436829 36,975 24 454 0
2018-12-03 20:03:09 GMT 51.903091 4.428903 36,975 24 454 0
2018-12-03 20:03:06 GMT 51.898315 4.425430 36,975 24 455 0
2018-12-03 20:03:03 GMT 51.898315 4.425430 36,975 24 455 0
2018-12-03 20:03:00 GMT 51.891449 4.420364 36,975 24 455 0
2018-12-03 20:02:57 GMT 51.886288 4.416580 36,975 24 455 -64
2018-12-03 20:02:54 GMT 51.881306 4.412918 36,975 24 455 -64
2018-12-03 20:02:50 GMT 51.873047 4.406928 37,000 24 455 -64
2018-12-03 20:02:47 GMT 51.867691 4.402994 37,000 24 455 0
2018-12-03 20:02:44 GMT 51.861923 4.398837 36,975 24 455 -64
2018-12-03 20:02:41 GMT 51.854816 4.393616 37,000 24 455 0
2018-12-03 20:02:38 GMT 51.851002 4.390869 37,000 24 455 0
2018-12-03 20:02:35 GMT 51.845276 4.386673 37,000 24 455 0
2018-12-03 20:02:32 GMT 51.837593 4.381027 37,000 24 455 0
2018-12-03 20:02:28 GMT 51.824753 4.371668 37,000 24 456 0
2018-12-03 20:02:25 GMT 51.824753 4.371668 37,000 24 456 0
2018-12-03 20:02:21 GMT 51.815186 4.364616 37,000 24 456 0
2018-12-03 20:02:17 GMT 51.803696 4.356153 37,000 24 456 0
2018-12-03 20:02:14 GMT 51.803696 4.356153 36,975 24 456 0
2018-12-03 20:02:11 GMT 51.798340 4.352219 36,975 24 456 0
2018-12-03 20:02:08 GMT 51.787457 4.344177 36,975 24 456 0
2018-12-03 20:02:02 GMT 51.780762 4.339228 36,975 24 456 0
2018-12-03 20:01:58 GMT 51.774048 4.334335 37,000 24 456 0
2018-12-03 20:01:55 GMT 51.768696 4.330368 36,975 24 456 0
2018-12-03 20:01:52 GMT 51.762726 4.326015 37,000 24 456 -64
2018-12-03 20:01:49 GMT 51.750504 4.317033 37,000 24 456 -64
2018-12-03 20:01:46 GMT 51.750504 4.317033 37,000 24 456 -64
2018-12-03 20:01:43 GMT 51.744579 4.312668 37,000 24 455 -64
2018-12-03 20:01:40 GMT 51.740765 4.309921 37,000 24 455 0
2018-12-03 20:01:37 GMT 51.735214 4.305824 37,000 24 455 0
2018-12-03 20:01:34 GMT 51.729080 4.301370 37,000 24 455 0
2018-12-03 20:01:31 GMT 51.723724 4.297436 37,000 24 455 0
2018-12-03 20:01:28 GMT 51.716858 4.292388 37,000 24 455 0
2018-12-03 20:01:25 GMT 51.704269 4.283109 37,000 24 455 0
2018-12-03 20:01:22 GMT 51.704269 4.283109 37,000 24 455 0
2018-12-03 20:01:19 GMT 51.698547 4.278952 37,000 24 455 0
2018-12-03 20:01:16 GMT 51.693375 4.275131 37,000 24 455 0
2018-12-03 20:01:13 GMT 51.688248 4.271380 37,000 24 455 0
2018-12-03 20:01:10 GMT 51.681381 4.266333 37,000 24 455 0
2018-12-03 20:01:07 GMT 51.675823 4.262238 37,000 24 455 0
2018-12-03 20:01:04 GMT 51.670303 4.258167 37,000 24 455 0
2018-12-03 20:01:01 GMT 51.663803 4.253416 37,000 24 455 0
2018-12-03 20:00:58 GMT 51.658226 4.249344 37,000 24 455 0
2018-12-03 20:00:55 GMT 51.653870 4.246142 37,000 24 454 -64
2018-12-03 20:00:52 GMT 51.648102 4.241910 37,000 24 454 0
2018-12-03 20:00:49 GMT 51.642380 4.237753 37,000 24 454 0
2018-12-03 20:00:46 GMT 51.636658 4.233522 36,975 24 454 0
2018-12-03 20:00:43 GMT 51.630936 4.229365 36,975 24 454 -64
2018-12-03 20:00:40 GMT 51.623657 4.224095 37,000 24 454 -64
2018-12-03 20:00:37 GMT 51.619080 4.220754 37,000 24 452 0
2018-12-03 20:00:34 GMT 51.611435 4.215187 37,000 24 452 0
2018-12-03 20:00:31 GMT 51.605904 4.211197 37,000 24 452 0
2018-12-03 20:00:28 GMT 51.601913 4.208358 37,000 24 452 0
2018-12-03 20:00:25 GMT 51.595985 4.204025 37,000 24 452 64
2018-12-03 20:00:22 GMT 51.588593 4.198707 37,000 24 452 0
2018-12-03 20:00:19 GMT 51.583237 4.194847 37,000 24 452 0
2018-12-03 20:00:16 GMT 51.576004 4.189577 37,000 24 452 0
2018-12-03 20:00:13 GMT 51.571266 4.186172 37,000 24 452 0
2018-12-03 20:00:10 GMT 51.567822 4.183655 36,975 24 452 0
2018-12-03 20:00:07 GMT 51.562683 4.180001 36,975 24 452 0
2018-12-03 20:00:03 GMT 51.554508 4.174042 36,975 24 452 0
2018-12-03 20:00:00 GMT 51.548038 4.169388 36,975 24 452 0
2018-12-03 19:59:57 GMT 51.543274 4.165897 36,975 24 452 0
2018-12-03 19:59:54 GMT 51.538696 4.162631 36,975 24 453 0
2018-12-03 19:59:51 GMT 51.532974 4.158474 37,000 24 452 64
2018-12-03 19:59:48 GMT 51.521942 4.150457 36,975 24 452 64
2018-12-03 19:59:42 GMT 51.514473 4.145126 36,975 24 453 0
2018-12-03 19:59:39 GMT 51.508209 4.140510 36,975 24 454 0
2018-12-03 19:59:36 GMT 51.503998 4.137466 36,975 24 454 0
2018-12-03 19:59:33 GMT 51.496353 4.131973 36,975 24 455 -64
2018-12-03 19:59:30 GMT 51.492142 4.128929 36,975 24 454 0
2018-12-03 19:59:27 GMT 51.483936 4.123001 36,975 24 455 0
2018-12-03 19:59:24 GMT 51.478775 4.119279 36,975 24 455 -64
2018-12-03 19:59:21 GMT 51.468018 4.111559 36,975 24 455 -64
2018-12-03 19:59:18 GMT 51.468018 4.111559 37,000 24 455 -64
2018-12-03 19:59:15 GMT 51.461151 4.106586 37,000 24 454 0
2018-12-03 19:59:12 GMT 51.457123 4.103699 37,000 24 455 0
2018-12-03 19:59:09 GMT 51.450603 4.098969 37,000 24 454 0
2018-12-03 19:59:06 GMT 51.443714 4.094086 37,000 24 454 0
2018-12-03 19:59:03 GMT 51.440269 4.091568 37,000 24 454 0
2018-12-03 19:59:00 GMT 51.434917 4.087753 37,000 24 454 0
2018-12-03 19:58:57 GMT 51.429192 4.083557 37,000 24 454 0
2018-12-03 19:58:54 GMT 51.421509 4.078064 37,000 24 454 0
2018-12-03 19:58:51 GMT 51.416157 4.074249 37,000 24 454 0
2018-12-03 19:58:48 GMT 51.410801 4.070358 37,000 24 454 0
2018-12-03 19:58:45 GMT 51.405869 4.066772 37,000 24 454 0
2018-12-03 19:58:42 GMT 51.400887 4.063187 37,000 24 454 0
2018-12-03 19:58:39 GMT 51.393253 4.057617 37,000 24 454 0
2018-12-03 19:58:36 GMT 51.388687 4.054337 37,000 24 454 0
2018-12-03 19:58:33 GMT 51.381428 4.049072 37,000 24 454 0
2018-12-03 19:58:30 GMT 51.377609 4.046326 36,975 24 454 0
2018-12-03 19:58:27 GMT 51.369736 4.040668 36,975 24 454 0
2018-12-03 19:58:23 GMT 51.361923 4.035034 36,975 24 454 -64
2018-12-03 19:58:20 GMT 51.358105 4.032288 37,000 24 454 -64
2018-12-03 19:58:17 GMT 51.352753 4.028473 37,000 22 453 -192
2018-12-03 19:58:14 GMT 51.345978 4.023891 37,000 20 450 -128
2018-12-03 19:58:11 GMT 51.341114 4.020844 37,000 19 450 0
2018-12-03 19:58:08 GMT 51.329224 4.013870 37,000 19 450 0
2018-12-03 19:58:05 GMT 51.329224 4.013870 37,000 19 450 0
2018-12-03 19:58:02 GMT 51.323364 4.010455 37,000 19 450 0
2018-12-03 19:57:58 GMT 51.313370 4.004745 37,000 19 450 64
2018-12-03 19:57:55 GMT 51.309460 4.002533 37,000 19 450 64
2018-12-03 19:57:52 GMT 51.301849 3.998133 36,975 19 451 64
2018-12-03 19:57:49 GMT 51.296356 3.995015 36,975 19 451 0
2018-12-03 19:57:46 GMT 51.292419 3.992788 36,975 19 451 0
2018-12-03 19:57:43 GMT 51.286320 3.989258 36,975 19 451 0
2018-12-03 19:57:40 GMT 51.278687 3.984919 36,975 19 452 0
2018-12-03 19:57:37 GMT 51.272781 3.981505 36,975 19 452 0
2018-12-03 19:57:34 GMT 51.267467 3.978424 36,975 19 452 0
2018-12-03 19:57:31 GMT 51.262985 3.975863 36,975 19 452 0
2018-12-03 19:57:28 GMT 51.247032 3.966675 36,975 19 454 0
2018-12-03 19:57:24 GMT 51.247032 3.966675 36,975 19 453 0
2018-12-03 19:57:21 GMT 51.240555 3.962872 36,975 19 454 0
2018-12-03 19:57:18 GMT 51.235794 3.960200 36,975 19 454 0
2018-12-03 19:57:15 GMT 51.230087 3.956833 36,975 19 454 0
2018-12-03 19:57:12 GMT 51.224964 3.953857 36,975 20 454 0
2018-12-03 19:57:09 GMT 51.217098 3.949280 36,975 20 454 0
2018-12-03 19:57:06 GMT 51.213364 3.947135 36,975 20 454 0
2018-12-03 19:57:03 GMT 51.206066 3.942871 36,975 20 454 0
2018-12-03 19:57:00 GMT 51.199951 3.939341 37,000 24 458 64
2018-12-03 19:56:57 GMT 51.194870 3.936297 37,000 24 458 64
2018-12-03 19:56:54 GMT 51.188187 3.932140 37,000 26 461 0
2018-12-03 19:56:50 GMT 51.182373 3.928355 37,000 26 460 0
2018-12-03 19:56:47 GMT 51.175991 3.923798 37,000 25 459 64
2018-12-03 19:56:44 GMT 51.169476 3.918915 37,000 26 460 0
2018-12-03 19:56:41 GMT 51.165070 3.915438 37,000 26 460 0
2018-12-03 19:56:38 GMT 51.158981 3.910613 37,000 26 461 0
2018-12-03 19:56:35 GMT 51.153305 3.906085 37,000 26 461 0
2018-12-03 19:56:32 GMT 51.145874 3.900146 37,000 26 461 0
2018-12-03 19:56:29 GMT 51.139820 3.895264 37,000 26 461 0
2018-12-03 19:56:26 GMT 51.135258 3.891678 37,000 26 461 0
2018-12-03 19:56:23 GMT 51.129162 3.886795 37,000 26 461 0
2018-12-03 19:56:20 GMT 51.122910 3.881811 37,000 26 460 0
2018-12-03 19:56:17 GMT 51.118698 3.878471 37,000 26 460 0
2018-12-03 19:56:14 GMT 51.112820 3.873749 37,000 26 460 0
2018-12-03 19:56:11 GMT 51.107300 3.869340 37,000 26 460 0
2018-12-03 19:56:08 GMT 51.102402 3.865406 37,000 26 460 0
2018-12-03 19:56:04 GMT 51.094200 3.858871 37,000 26 460 0
2018-12-03 19:56:01 GMT 51.087982 3.853826 37,000 26 460 0
2018-12-03 19:55:58 GMT 51.081894 3.849001 37,000 26 460 0
2018-12-03 19:55:55 GMT 51.076950 3.844992 37,000 26 461 0
2018-12-03 19:55:52 GMT 51.072052 3.841058 37,000 27 461 0
2018-12-03 19:55:49 GMT 51.066330 3.836455 36,975 27 460 0
2018-12-03 19:55:46 GMT 51.060867 3.832016 36,975 27 461 0
2018-12-03 19:55:43 GMT 51.055187 3.827362 36,975 27 461 0
2018-12-03 19:55:40 GMT 51.042667 3.817215 36,975 27 461 0
2018-12-03 19:55:37 GMT 51.042667 3.817215 36,975 27 461 0
2018-12-03 19:55:34 GMT 51.036243 3.811951 36,975 27 461 0
2018-12-03 19:55:31 GMT 51.031681 3.808212 36,975 27 461 0
2018-12-03 19:55:28 GMT 51.024883 3.802643 36,975 27 461 0
2018-12-03 19:55:25 GMT 51.020695 3.799210 36,975 27 461 0
2018-12-03 19:55:22 GMT 51.015804 3.795166 37,000 27 461 0
2018-12-03 19:55:19 GMT 51.007099 3.788071 37,000 27 461 -64
2018-12-03 19:55:16 GMT 51.002911 3.784637 37,000 27 461 -64
2018-12-03 19:55:13 GMT 50.997070 3.779816 37,000 27 461 -64
2018-12-03 19:55:10 GMT 50.992126 3.775808 37,000 27 461 0
2018-12-03 19:55:07 GMT 50.987408 3.771973 37,000 27 461 0
2018-12-03 19:55:04 GMT 50.980774 3.766529 37,000 27 461 0
2018-12-03 19:55:01 GMT 50.973953 3.760962 37,000 27 461 0
2018-12-03 19:54:58 GMT 50.961136 3.750421 37,000 27 461 0
2018-12-03 19:54:55 GMT 50.961136 3.750421 37,000 27 461 0
2018-12-03 19:54:52 GMT 50.959011 3.748779 37,000 27 461 0
2018-12-03 19:54:49 GMT 50.951294 3.742404 37,000 27 461 0
2018-12-03 19:54:46 GMT 50.947701 3.739471 37,000 27 461 0
2018-12-03 19:54:43 GMT 50.939365 3.732681 37,000 27 461 0
2018-12-03 19:54:40 GMT 50.935043 3.729116 37,000 27 461 0
2018-12-03 19:54:37 GMT 50.927444 3.722881 37,000 27 461 0
2018-12-03 19:54:32 GMT 50.919891 3.716719 37,000 27 461 0
2018-12-03 19:54:29 GMT 50.914413 3.712234 37,000 27 461 -64
2018-12-03 19:54:26 GMT 50.908539 3.707440 37,000 27 461 0
2018-12-03 19:54:22 GMT 50.900986 3.701205 37,000 27 461 -64
2018-12-03 19:54:19 GMT 50.893604 3.695145 37,000 27 462 0
2018-12-03 19:54:15 GMT 50.888123 3.690664 37,000 27 461 0
2018-12-03 19:54:12 GMT 50.880524 3.684503 37,000 27 462 0
2018-12-03 19:54:09 GMT 50.874847 3.679826 36,975 27 462 64
2018-12-03 19:54:06 GMT 50.869949 3.675743 37,000 27 462 64
2018-12-03 19:54:02 GMT 50.862183 3.669357 36,975 35 476 0
2018-12-03 19:53:56 GMT 50.849709 3.659134 36,975 27 462 0
2018-12-03 19:53:53 GMT 50.846310 3.656311 36,975 27 462 0
2018-12-03 19:53:50 GMT 50.841568 3.652360 37,000 27 463 -64
2018-12-03 19:53:47 GMT 50.833237 3.645457 36,975 27 463 -64
2018-12-03 19:53:43 GMT 50.826199 3.639603 37,000 28 463 0
2018-12-03 19:53:40 GMT 50.821472 3.635658 37,000 28 465 64
2018-12-03 19:53:37 GMT 50.815430 3.630462 37,000 29 466 192
2018-12-03 19:53:34 GMT 50.810741 3.626328 37,000 33 472 128
2018-12-03 19:53:31 GMT 50.803894 3.619847 36,975 35 474 0
2018-12-03 19:53:25 GMT 50.794830 3.610419 36,975 34 473 64
2018-12-03 19:53:22 GMT 50.787277 3.602105 36,975 35 474 0
2018-12-03 19:53:19 GMT 50.783707 3.598097 36,975 35 474 0
2018-12-03 19:53:16 GMT 50.777664 3.591267 37,000 35 476 0
2018-12-03 19:53:13 GMT 50.770290 3.583069 37,000 35 475 0
2018-12-03 19:53:10 GMT 50.766750 3.579025 37,000 35 475 0
2018-12-03 19:53:06 GMT 50.756695 3.567810 37,000 35 475 0
2018-12-03 19:53:03 GMT 50.753265 3.564024 36,975 35 477 0
2018-12-03 19:53:00 GMT 50.748085 3.558197 36,975 35 477 0
2018-12-03 19:52:57 GMT 50.743427 3.553009 36,975 35 476 0
2018-12-03 19:52:54 GMT 50.736053 3.544798 36,975 35 477 0
2018-12-03 19:52:51 GMT 50.728134 3.535890 36,975 35 477 0
2018-12-03 19:52:48 GMT 50.728134 3.535890 36,975 35 477 0
2018-12-03 19:52:45 GMT 50.721504 3.528442 37,000 35 477 0
2018-12-03 19:52:42 GMT 50.717545 3.524017 37,000 35 477 0
2018-12-03 19:52:39 GMT 50.706421 3.511581 37,000 35 477 0
2018-12-03 19:52:33 GMT 50.699066 3.503302 37,000 35 477 0
2018-12-03 19:52:30 GMT 50.686634 3.489456 37,000 35 477 -64
2018-12-03 19:52:26 GMT 50.686634 3.489456 37,000 35 477 0
2018-12-03 19:52:23 GMT 50.681076 3.483186 37,000 35 476 0
2018-12-03 19:52:20 GMT 50.677326 3.479004 37,000 35 477 0
2018-12-03 19:52:17 GMT 50.672150 3.473164 37,000 35 477 0
2018-12-03 19:52:14 GMT 50.665874 3.466038 37,000 35 477 0
2018-12-03 19:52:11 GMT 50.661591 3.461213 37,000 35 477 0
2018-12-03 19:52:08 GMT 50.654938 3.453682 37,000 35 477 0
2018-12-03 19:52:05 GMT 50.648895 3.446816 37,000 35 477 -64
2018-12-03 19:52:02 GMT 50.643860 3.441106 37,000 35 477 0
2018-12-03 19:51:58 GMT 50.629532 3.424988 37,000 35 477 -64
2018-12-03 19:51:55 GMT 50.629532 3.424988 36,875 35 476 0
2018-12-03 19:51:52 GMT 50.627014 3.422169 37,000 35 476 -64
2018-12-03 19:51:48 GMT 50.620392 3.414670 37,000 35 476 -64
2018-12-03 19:51:44 GMT 50.611267 3.404461 37,000 34 474 192
2018-12-03 19:51:41 GMT 50.605682 3.398413 37,000 34 474 448
2018-12-03 19:51:38 GMT 50.601883 3.394414 36,925 26 464 640
2018-12-03 19:51:35 GMT 50.588562 3.381548 36,875 26 463 704
2018-12-03 19:51:32 GMT 50.585907 3.379236 36,850 26 463 704
2018-12-03 19:51:26 GMT 50.578262 3.373020 36,800 26 463 704
2018-12-03 19:51:23 GMT 50.574829 3.370273 36,775 26 463 832
2018-12-03 19:51:20 GMT 50.567741 3.364786 36,725 26 463 768
2018-12-03 19:51:16 GMT 50.558895 3.357956 36,650 26 463 704
2018-12-03 19:51:13 GMT 50.552380 3.352909 36,475 26 462 704
2018-12-03 19:51:10 GMT 50.549515 3.350613 36,575 26 463 576
2018-12-03 19:51:07 GMT 50.540928 3.343927 36,550 26 462 704
2018-12-03 19:51:04 GMT 50.537064 3.340957 36,525 26 462 768
2018-12-03 19:51:01 GMT 50.531525 3.336591 36,450 26 462 768
2018-12-03 19:50:58 GMT 50.525803 3.332110 36,450 26 462 768
2018-12-03 19:50:55 GMT 50.519302 3.327050 36,450 26 462 768
2018-12-03 19:50:52 GMT 50.513786 3.322770 36,350 26 461 640
2018-12-03 19:50:49 GMT 50.508434 3.318539 36,350 26 459 448
2018-12-03 19:50:46 GMT 50.503452 3.314679 36,125 26 461 384
2018-12-03 19:50:43 GMT 50.498337 3.310716 36,125 26 459 512
2018-12-03 19:50:39 GMT 50.482315 3.298284 36,225 26 459 512
2018-12-03 19:50:36 GMT 50.482315 3.298284 36,100 26 459 576
2018-12-03 19:50:33 GMT 50.478516 3.295320 36,100 26 459 704
2018-12-03 19:50:28 GMT 50.469772 3.288526 36,125 26 459 640
2018-12-03 19:50:25 GMT 50.462765 3.283056 36,100 26 459 704
2018-12-03 19:50:21 GMT 50.455353 3.277323 35,975 26 458 512
2018-12-03 19:50:18 GMT 50.449497 3.272738 35,975 26 458 576
2018-12-03 19:50:14 GMT 50.443027 3.267690 35,975 26 458 576
2018-12-03 19:50:11 GMT 50.430359 3.257735 35,800 26 457 704
2018-12-03 19:50:08 GMT 50.424126 3.252844 35,850 26 457 960
2018-12-03 19:50:05 GMT 50.424126 3.252844 35,850 26 457 960
2018-12-03 19:50:02 GMT 50.419830 3.249423 35,825 26 457 896
2018-12-03 19:49:58 GMT 50.409988 3.241690 35,725 26 457 640
2018-12-03 19:49:51 GMT 50.396027 3.230703 35,675 26 457 1024
2018-12-03 19:49:48 GMT 50.393963 3.229090 35,625 26 457 1024
2018-12-03 19:49:45 GMT 50.381744 3.219428 35,575 26 456 832
2018-12-03 19:49:42 GMT 50.381744 3.219428 35,450 26 456 1088
2018-12-03 19:49:39 GMT 50.376270 3.215134 35,425 26 457 1088
2018-12-03 19:49:36 GMT 50.370438 3.210538 35,425 26 456 896
2018-12-03 19:49:33 GMT 50.363842 3.205410 35,325 26 456 1152
2018-12-03 19:49:29 GMT 50.355183 3.198580 35,275 26 457 960
2018-12-03 19:49:26 GMT 50.349701 3.194347 35,225 26 457 832
2018-12-03 19:49:23 GMT 50.337448 3.184773 35,150 26 455 768
2018-12-03 19:49:19 GMT 50.337448 3.184773 35,100 26 455 1088
2018-12-03 19:49:16 GMT 50.332718 3.181120 35,100 26 455 1088
2018-12-03 19:49:11 GMT 50.323288 3.173820 34,900 26 456 960
2018-12-03 19:49:08 GMT 50.317848 3.169556 34,950 26 456 960
2018-12-03 19:49:05 GMT 50.310883 3.164135 34,800 26 457 1152
2018-12-03 19:49:01 GMT 50.303185 3.158124 34,800 26 455 1344
2018-12-03 19:48:58 GMT 50.299576 3.155317 34,625 26 456 1216
2018-12-03 19:48:55 GMT 50.292801 3.150040 34,675 26 455 1280
2018-12-03 19:48:51 GMT 50.284702 3.143723 34,550 26 456 1280
2018-12-03 19:48:48 GMT 50.279022 3.139343 34,525 26 456 1280
2018-12-03 19:48:45 GMT 50.273392 3.134964 34,475 26 456 1216
2018-12-03 19:48:41 GMT 50.265804 3.129099 34,375 26 457 1088
2018-12-03 19:48:38 GMT 50.260914 3.125313 34,250 26 457 1152
2018-12-03 19:48:35 GMT 50.255447 3.121057 34,250 26 457 1152
2018-12-03 19:48:32 GMT 50.248066 3.115366 34,200 26 457 1280
2018-12-03 19:48:29 GMT 50.242386 3.110912 34,125 26 457 1088
2018-12-03 19:48:25 GMT 50.236496 3.106384 34,075 26 457 1152
2018-12-03 19:48:22 GMT 50.225143 3.097566 33,950 26 457 1216
2018-12-03 19:48:19 GMT 50.216080 3.090555 33,875 26 458 1216
2018-12-03 19:48:15 GMT 50.216080 3.090555 33,775 26 457 1216
2018-12-03 19:48:12 GMT 50.212280 3.087592 33,800 26 459 1280
2018-12-03 19:48:09 GMT 50.198814 3.077211 33,475 26 460 1472
2018-12-03 19:48:06 GMT 50.198814 3.077211 33,550 26 458 1216
2018-12-03 19:48:02 GMT 50.192917 3.072630 33,550 26 458 1216
2018-12-03 19:47:58 GMT 50.185127 3.066670 33,400 26 460 1472
2018-12-03 19:47:55 GMT 50.178703 3.061697 33,375 26 459 1344
2018-12-03 19:47:52 GMT 50.172043 3.056584 33,325 26 459 1344
2018-12-03 19:47:48 GMT 50.164227 3.050562 33,225 26 459 1280
2018-12-03 19:47:45 GMT 50.160599 3.047766 32,700 26 460 1472
2018-12-03 19:47:41 GMT 50.151443 3.040828 33,050 26 460 1408
2018-12-03 19:47:37 GMT 50.143478 3.034684 33,000 26 460 1472
2018-12-03 19:47:34 GMT 50.137550 3.030148 32,925 26 460 1472
2018-12-03 19:47:31 GMT 50.127823 3.022758 32,025 26 460 1088
2018-12-03 19:47:28 GMT 50.127823 3.022758 32,175 26 460 1088
2018-12-03 19:47:24 GMT 50.120590 3.017193 32,700 26 459 960
2018-12-03 19:47:21 GMT 50.115280 3.013145 32,625 26 459 1152
2018-12-03 19:47:18 GMT 50.108223 3.007730 32,600 26 459 960
2018-12-03 19:47:13 GMT 50.098892 3.000569 32,500 26 459 960
2018-12-03 19:47:10 GMT 50.095093 2.997677 32,475 26 459 1152
2018-12-03 19:47:07 GMT 50.088066 2.992290 32,300 26 459 1472
2018-12-03 19:47:04 GMT 50.081596 2.987390 32,300 26 459 1472
2018-12-03 19:47:01 GMT 50.077606 2.984306 32,275 26 459 1472
2018-12-03 19:46:58 GMT 50.072098 2.980042 32,125 26 459 896
2018-12-03 19:46:55 GMT 50.063721 2.973658 32,075 26 459 704
2018-12-03 19:46:51 GMT 50.057247 2.968684 32,050 26 459 704
2018-12-03 19:46:47 GMT 50.050598 2.963634 31,975 26 457 832
2018-12-03 19:46:43 GMT 50.043045 2.957780 31,900 26 457 896
2018-12-03 19:46:40 GMT 50.036224 2.952576 31,750 26 455 896
2018-12-03 19:46:36 GMT 50.030914 2.948528 31,850 26 456 832
2018-12-03 19:46:33 GMT 50.016174 2.937325 31,450 26 455 832
2018-12-03 19:46:29 GMT 50.016174 2.937325 31,650 26 455 896
2018-12-03 19:46:26 GMT 50.010864 2.933277 31,475 26 455 896
2018-12-03 19:46:23 GMT 50.006134 2.929712 31,650 26 455 832
2018-12-03 19:46:20 GMT 49.998413 2.923809 31,550 26 455 896
2018-12-03 19:46:14 GMT 49.988205 2.916075 31,400 26 455 832
2018-12-03 19:46:10 GMT 49.981064 2.910654 31,425 26 455 832
2018-12-03 19:46:07 GMT 49.974060 2.905364 30,075 26 455 1600
2018-12-03 19:46:03 GMT 49.964611 2.898164 31,300 26 454 896
2018-12-03 19:45:59 GMT 49.957069 2.892448 31,225 26 455 896
2018-12-03 19:45:56 GMT 49.953461 2.889693 31,200 26 455 896
2018-12-03 19:45:52 GMT 49.938766 2.878490 31,100 26 455 960
2018-12-03 19:45:49 GMT 49.938766 2.878490 31,075 26 455 960
2018-12-03 19:45:45 GMT 49.934235 2.875021 30,975 26 454 1280
2018-12-03 19:45:42 GMT 49.925903 2.868733 30,950 26 454 1280
2018-12-03 19:45:39 GMT 49.922340 2.866021 30,900 26 454 1344
2018-12-03 19:45:35 GMT 49.914597 2.860204 30,775 26 454 1344
2018-12-03 19:45:31 GMT 49.905396 2.853179 30,750 26 453 1408
2018-12-03 19:45:28 GMT 49.900833 2.849764 30,575 26 454 1536
2018-12-03 19:45:25 GMT 49.895203 2.845459 30,550 26 454 1408
2018-12-03 19:45:21 GMT 49.886719 2.839026 30,425 26 454 1344
2018-12-03 19:45:18 GMT 49.883331 2.836496 30,400 26 454 1472
2018-12-03 19:45:15 GMT 49.876347 2.831206 30,325 26 455 1600
2018-12-03 19:45:12 GMT 49.864059 2.821896 30,200 26 454 1088
2018-12-03 19:45:09 GMT 49.864059 2.821896 30,125 26 454 1088
2018-12-03 19:45:03 GMT 49.854630 2.814741 29,950 26 454 1600
2018-12-03 19:45:00 GMT 49.848999 2.810404 29,975 26 454 1472
2018-12-03 19:44:57 GMT 49.843735 2.806429 29,825 26 455 1600
2018-12-03 19:44:54 GMT 49.835613 2.800252 29,500 26 455 1152
2018-12-03 19:44:51 GMT 49.832016 2.797538 29,525 26 455 1600
2018-12-03 19:44:48 GMT 49.823509 2.791121 29,375 26 455 1600
2018-12-03 19:44:43 GMT 49.816711 2.785999 29,475 26 455 1600
2018-12-03 19:44:39 GMT 49.806335 2.778168 29,325 26 456 1344
2018-12-03 19:44:36 GMT 49.797638 2.771518 29,125 26 456 1344
2018-12-03 19:44:33 GMT 49.797638 2.771518 29,225 26 456 1152
2018-12-03 19:44:30 GMT 49.791759 2.767144 29,050 26 454 1216
2018-12-03 19:44:26 GMT 49.784222 2.761428 29,025 26 454 1216
2018-12-03 19:44:23 GMT 49.778542 2.757123 29,000 26 453 1280
2018-12-03 19:44:19 GMT 49.771957 2.752147 28,925 26 454 1280
2018-12-03 19:44:16 GMT 49.764248 2.746285 28,825 26 453 1280
2018-12-03 19:44:12 GMT 49.751076 2.736338 28,725 26 453 1344
2018-12-03 19:44:08 GMT 49.743580 2.730696 28,650 26 453 1344
2018-12-03 19:44:05 GMT 49.743580 2.730696 28,500 26 449 1280
2018-12-03 19:44:01 GMT 49.737350 2.726055 28,500 25 451 1280
2018-12-03 19:43:57 GMT 49.728172 2.719116 28,350 26 450 1280
2018-12-03 19:43:54 GMT 49.723526 2.715575 28,175 25 445 1408
2018-12-03 19:43:50 GMT 49.715462 2.709540 28,225 25 449 1344
2018-12-03 19:43:47 GMT 49.703705 2.700685 28,125 25 449 1280
2018-12-03 19:43:44 GMT 49.703705 2.700685 27,750 25 449 1280
2018-12-03 19:43:41 GMT 49.697910 2.696327 28,050 25 449 1280
2018-12-03 19:43:38 GMT 49.694000 2.693385 27,975 26 448 1280
2018-12-03 19:43:35 GMT 49.688229 2.689052 27,900 25 448 1344
2018-12-03 19:43:31 GMT 49.680408 2.683188 27,750 26 444 1344
2018-12-03 19:43:28 GMT 49.674496 2.678660 27,525 26 446 1344
2018-12-03 19:43:25 GMT 49.670609 2.675749 27,600 25 445 1344
2018-12-03 19:43:22 GMT 49.665024 2.671557 27,525 25 445 1344
2018-12-03 19:43:19 GMT 49.658577 2.666708 27,425 25 445 1408
2018-12-03 19:43:16 GMT 49.653362 2.662848 27,350 25 445 1408
2018-12-03 19:43:10 GMT 49.642281 2.654534 27,225 25 443 1408
2018-12-03 19:43:07 GMT 49.636597 2.650235 27,225 25 443 1408
2018-12-03 19:43:03 GMT 49.629387 2.644810 27,125 25 442 1408
2018-12-03 19:43:00 GMT 49.622589 2.639754 27,025 25 442 1472
2018-12-03 19:42:57 GMT 49.617828 2.636141 26,900 26 441 1472
2018-12-03 19:42:54 GMT 49.612289 2.632021 26,875 25 438 1600
2018-12-03 19:42:49 GMT 49.603134 2.625154 26,750 25 436 1536
2018-12-03 19:42:46 GMT 49.597641 2.621034 26,575 26 439 1472
2018-12-03 19:42:41 GMT 49.588165 2.613879 26,550 26 439 1536
2018-12-03 19:42:38 GMT 49.583771 2.610626 26,475 25 439 1600
2018-12-03 19:42:35 GMT 49.577957 2.606217 26,325 25 438 1600
2018-12-03 19:42:30 GMT 49.568848 2.599423 26,075 25 436 1536
2018-12-03 19:42:27 GMT 49.564453 2.596171 26,200 25 438 1600
2018-12-03 19:42:23 GMT 49.555553 2.589507 25,325 25 436 1600
2018-12-03 19:42:20 GMT 49.550480 2.585721 25,975 25 436 1536
2018-12-03 19:42:15 GMT 49.541199 2.578751 25,825 25 436 1600
2018-12-03 19:42:12 GMT 49.535957 2.574809 25,325 25 436 1664
2018-12-03 19:42:09 GMT 49.528740 2.569465 25,650 25 434 1600
2018-12-03 19:42:05 GMT 49.523483 2.565524 25,400 26 432 1664
2018-12-03 19:42:02 GMT 49.516251 2.560104 25,450 25 433 1664
2018-12-03 19:41:59 GMT 49.512493 2.557291 25,325 25 433 1664
2018-12-03 19:41:56 GMT 49.505978 2.552465 25,150 25 433 1664
2018-12-03 19:41:53 GMT 49.501144 2.548828 25,200 26 432 1728
2018-12-03 19:41:49 GMT 49.493591 2.543190 24,850 25 432 1664
2018-12-03 19:41:44 GMT 49.485306 2.536974 24,925 25 431 1600
2018-12-03 19:41:41 GMT 49.478851 2.532132 24,750 25 431 1600
2018-12-03 19:41:36 GMT 49.471344 2.526566 24,725 25 430 1664
2018-12-03 19:41:32 GMT 49.463985 2.521065 24,500 24 427 1536
2018-12-03 19:41:28 GMT 49.455597 2.514857 24,425 23 424 1600
2018-12-03 19:41:25 GMT 49.452759 2.512689 24,350 24 427 1536
2018-12-03 19:41:22 GMT 49.447403 2.508786 24,350 24 427 1536
2018-12-03 19:41:18 GMT 49.438568 2.502730 24,175 23 424 1600
2018-12-03 19:41:15 GMT 49.434036 2.499823 24,100 22 423 1792
2018-12-03 19:41:11 GMT 49.426483 2.494953 23,700 22 421 1664
2018-12-03 19:41:08 GMT 49.420715 2.491220 23,900 22 423 1792
2018-12-03 19:41:05 GMT 49.416595 2.488620 23,775 22 421 1408
2018-12-03 19:41:02 GMT 49.410454 2.484645 23,700 22 420 1344
2018-12-03 19:40:59 GMT 49.397415 2.476220 23,550 22 418 1280
2018-12-03 19:40:55 GMT 49.397415 2.476220 23,550 22 418 1280
2018-12-03 19:40:52 GMT 49.391693 2.472558 23,475 22 417 1216
2018-12-03 19:40:48 GMT 49.385826 2.468744 23,400 22 414 1280
2018-12-03 19:40:45 GMT 49.378704 2.464190 23,300 22 416 1216
2018-12-03 19:40:42 GMT 49.374298 2.461360 23,250 22 416 1280
2018-12-03 19:40:37 GMT 49.367020 2.456673 23,075 22 415 1280
2018-12-03 19:40:34 GMT 49.361713 2.453204 23,025 22 415 1280
2018-12-03 19:40:31 GMT 49.355850 2.449458 23,025 22 414 1280
2018-12-03 19:40:28 GMT 49.348259 2.444603 22,900 22 414 1280
2018-12-03 19:40:25 GMT 49.343323 2.441422 22,850 22 414 1280
2018-12-03 19:40:20 GMT 49.330078 2.432908 22,675 22 414 1216
2018-12-03 19:40:17 GMT 49.330078 2.432908 22,700 22 414 1216
2018-12-03 19:40:14 GMT 49.324814 2.429528 22,650 22 414 1152
2018-12-03 19:40:10 GMT 49.311768 2.421147 22,525 22 412 896
2018-12-03 19:40:07 GMT 49.311768 2.421147 22,400 22 411 896
2018-12-03 19:40:04 GMT 49.307190 2.418260 22,450 22 412 896
2018-12-03 19:39:59 GMT 49.298401 2.412626 22,400 22 411 896
2018-12-03 19:39:56 GMT 49.293503 2.409457 22,325 22 411 896
2018-12-03 19:39:52 GMT 49.286297 2.404849 22,275 22 405 2176
2018-12-03 19:39:49 GMT 49.281364 2.401741 22,225 22 411 896
2018-12-03 19:39:46 GMT 49.274380 2.397260 22,175 22 411 832
2018-12-03 19:39:41 GMT 49.266815 2.392414 22,050 22 411 832
2018-12-03 19:39:38 GMT 49.261719 2.389165 22,050 22 411 896
2018-12-03 19:39:35 GMT 49.256458 2.385840 21,950 22 410 1472
2018-12-03 19:39:31 GMT 49.249603 2.381498 21,950 22 409 1920
2018-12-03 19:39:28 GMT 49.244705 2.378399 21,775 22 409 2048
2018-12-03 19:39:25 GMT 49.237885 2.374059 21,750 22 409 2048
2018-12-03 19:39:20 GMT 49.226059 2.366470 21,550 22 408 2112
2018-12-03 19:39:17 GMT 49.226059 2.366470 21,500 22 408 2112
2018-12-03 19:39:14 GMT 49.220146 2.362711 21,375 22 407 2176
2018-12-03 19:39:10 GMT 49.212513 2.357868 20,975 22 404 2176
2018-12-03 19:39:07 GMT 49.208130 2.355159 21,125 22 406 2176
2018-12-03 19:39:03 GMT 49.201759 2.351074 21,000 22 405 2176
2018-12-03 19:39:00 GMT 49.195358 2.346990 20,850 22 404 2176
2018-12-03 19:38:56 GMT 49.188957 2.342979 20,725 22 404 2112
2018-12-03 19:38:53 GMT 49.183960 2.339806 19,850 22 403 2048
2018-12-03 19:38:49 GMT 49.177414 2.335722 20,325 22 402 2112
2018-12-03 19:38:46 GMT 49.171734 2.332137 20,350 22 401 2176
2018-12-03 19:38:42 GMT 49.159721 2.324620 20,175 22 401 2304
2018-12-03 19:38:39 GMT 49.159721 2.324620 20,075 22 400 2240
2018-12-03 19:38:36 GMT 49.154068 2.321073 19,850 22 399 2112
2018-12-03 19:38:31 GMT 49.144547 2.315017 19,750 22 399 2112
2018-12-03 19:38:27 GMT 49.139610 2.311972 19,700 22 397 2304
2018-12-03 19:38:24 GMT 49.133972 2.308397 19,525 22 397 2240
2018-12-03 19:38:21 GMT 49.128891 2.305227 19,400 22 395 2304
2018-12-03 19:38:18 GMT 49.124668 2.302575 18,725 22 390 2432
2018-12-03 19:38:15 GMT 49.119095 2.299030 19,225 22 395 2304
2018-12-03 19:38:12 GMT 49.112320 2.294804 18,975 22 393 2176
2018-12-03 19:38:08 GMT 49.107117 2.291517 18,725 22 390 2432
2018-12-03 19:38:03 GMT 49.094036 2.283277 18,650 22 391 2304
2018-12-03 19:38:00 GMT 49.094036 2.283277 18,600 22 391 2240
2018-12-03 19:37:57 GMT 49.089661 2.280603 18,500 22 391 2368
2018-12-03 19:37:54 GMT 49.082306 2.275977 18,325 22 390 2496
2018-12-03 19:37:51 GMT 49.077164 2.272691 18,200 22 390 2432
2018-12-03 19:37:48 GMT 49.071808 2.269381 17,900 22 389 2240
2018-12-03 19:37:43 GMT 49.065811 2.265578 17,900 22 388 2176
2018-12-03 19:37:39 GMT 49.058331 2.260871 17,750 22 387 2176
2018-12-03 19:37:33 GMT 49.048599 2.254733 17,450 22 385 2368
2018-12-03 19:37:30 GMT 49.043015 2.251141 17,400 22 385 2496
2018-12-03 19:37:26 GMT 49.037430 2.247620 17,350 22 385 2432
2018-12-03 19:37:23 GMT 49.031330 2.243741 17,100 22 384 2240
2018-12-03 19:37:20 GMT 49.027744 2.241428 17,025 22 384 2240
2018-12-03 19:37:17 GMT 49.021835 2.237669 16,925 22 383 2368
2018-12-03 19:37:14 GMT 49.018112 2.235295 16,450 24 382 2880
2018-12-03 19:37:10 GMT 49.011127 2.230803 15,925 23 382 2752
2018-12-03 19:37:07 GMT 49.004791 2.226703 16,525 23 382 2752
2018-12-03 19:37:04 GMT 49.001072 2.224153 16,325 25 382 2880
2018-12-03 19:37:00 GMT 48.993439 2.218588 16,125 27 384 2880
2018-12-03 19:36:56 GMT 48.985107 2.211773 15,875 30 385 2688
2018-12-03 19:36:50 GMT 48.979145 2.206445 15,675 30 384 2176
2018-12-03 19:36:46 GMT 48.972565 2.200505 15,550 30 383 2112
2018-12-03 19:36:43 GMT 48.969498 2.197759 15,475 30 383 2112
2018-12-03 19:36:39 GMT 48.963272 2.192062 15,250 31 380 2496
2018-12-03 19:36:36 GMT 48.957546 2.186858 15,125 30 379 2752
2018-12-03 19:36:33 GMT 48.954517 2.184111 15,125 30 379 2752
2018-12-03 19:36:27 GMT 48.939972 2.170856 14,675 30 377 2560
2018-12-03 19:36:24 GMT 48.939972 2.170856 14,575 30 375 2560
2018-12-03 19:36:18 GMT 48.930546 2.162355 14,400 30 374 2752
2018-12-03 19:36:14 GMT 48.916122 2.149377 13,600 30 371 3008
2018-12-03 19:36:08 GMT 48.916122 2.149377 13,675 30 372 3200
2018-12-03 19:36:05 GMT 48.907562 2.141700 13,700 30 372 3200
2018-12-03 19:36:02 GMT 48.907562 2.141700 13,600 30 372 3136
2018-12-03 19:35:58 GMT 48.900742 2.135644 13,400 30 371 2880
2018-12-03 19:35:55 GMT 48.897171 2.132474 13,250 30 371 2752
2018-12-03 19:35:52 GMT 48.892883 2.128673 13,100 30 369 2880
2018-12-03 19:35:49 GMT 48.887146 2.123530 12,900 30 368 2944
2018-12-03 19:35:46 GMT 48.882595 2.119494 12,775 30 368 2944
2018-12-03 19:35:42 GMT 48.878174 2.115591 12,625 30 367 2944
2018-12-03 19:35:38 GMT 48.871857 2.110009 12,075 30 365 2944
2018-12-03 19:35:35 GMT 48.864258 2.103318 12,225 30 365 2880
2018-12-03 19:35:32 GMT 48.864258 2.103318 12,075 30 365 2880
2018-12-03 19:35:28 GMT 48.856808 2.096726 11,700 14 340 192
2018-12-03 19:35:25 GMT 48.853775 2.093952 11,575 30 363 2624
2018-12-03 19:35:22 GMT 48.848557 2.089304 11,625 30 362 2560
2018-12-03 19:35:19 GMT 48.844208 2.085501 11,525 29 360 2432
2018-12-03 19:35:16 GMT 48.838837 2.080970 11,350 25 354 1472
2018-12-03 19:35:11 GMT 48.832272 2.076271 11,025 6 325 768
2018-12-03 19:35:08 GMT 48.823883 2.072331 11,125 12 337 192
2018-12-03 19:35:05 GMT 48.823883 2.072331 11,100 11 335 256
2018-12-03 19:35:01 GMT 48.816772 2.070417 11,025 7 326 704
2018-12-03 19:34:54 GMT 48.806622 2.068538 10,950 6 320 960
2018-12-03 19:34:51 GMT 48.802525 2.067815 10,875 6 313 896
2018-12-03 19:34:48 GMT 48.797516 2.066979 10,825 6 309 960
2018-12-03 19:34:45 GMT 48.792114 2.065993 10,750 6 305 1024
2018-12-03 19:34:38 GMT 48.783951 2.064418 10,650 7 295 768
2018-12-03 19:34:34 GMT 48.779110 2.063478 10,625 7 291 704
2018-12-03 19:34:28 GMT 48.770172 2.061671 10,500 7 279 1920
2018-12-03 19:34:24 GMT 48.765797 2.060804 10,375 7 277 2560
2018-12-03 19:34:17 GMT 48.757233 2.058997 10,050 7 274 2880
2018-12-03 19:34:14 GMT 48.752792 2.058035 9,875 7 273 2816
2018-12-03 19:34:08 GMT 48.745285 2.056486 9,675 7 272 2880
2018-12-03 19:34:03 GMT 48.739105 2.055148 9,350 7 270 3328
2018-12-03 19:33:58 GMT 48.733887 2.054091 9,175 352 256 1408
2018-12-03 19:33:55 GMT 48.730179 2.053387 8,950 7 269 3008
2018-12-03 19:33:51 GMT 48.720795 2.052260 8,675 0 263 1664
2018-12-03 19:33:48 GMT 48.720795 2.052260 8,575 357 259 1472
2018-12-03 19:33:41 GMT 48.713425 2.053528 8,375 344 250 1408
2018-12-03 19:33:38 GMT 48.708984 2.055570 8,225 336 246 1408
2018-12-03 19:33:34 GMT 48.705826 2.057683 8,125 330 242 1408
2018-12-03 19:33:31 GMT 48.702576 2.060641 8,050 325 239 1408
2018-12-03 19:33:26 GMT 48.698181 2.066204 7,850 312 234 1536
2018-12-03 19:33:20 GMT 48.692150 2.080102 6,575 290 229 896
2018-12-03 19:33:16 GMT 48.692150 2.080102 7,500 292 230 1856
2018-12-03 19:33:12 GMT 48.690445 2.086909 7,350 289 229 2048
2018-12-03 19:33:09 GMT 48.689732 2.090149 7,150 289 228 1984
2018-12-03 19:33:05 GMT 48.686188 2.106065 6,725 290 229 1600
2018-12-03 19:32:59 GMT 48.686188 2.106065 6,900 289 229 1792
2018-12-03 19:32:55 GMT 48.684982 2.111327 6,800 289 229 1792
2018-12-03 19:32:51 GMT 48.683353 2.118627 6,650 290 229 960
2018-12-03 19:32:45 GMT 48.681427 2.126911 6,550 290 229 896
2018-12-03 19:32:38 GMT 48.678909 2.137475 6,450 291 228 832
2018-12-03 19:32:35 GMT 48.677719 2.142264 6,400 291 227 768
2018-12-03 19:32:30 GMT 48.675888 2.149658 6,325 292 227 832
2018-12-03 19:32:27 GMT 48.674786 2.153971 6,300 292 226 832
2018-12-03 19:32:24 GMT 48.673855 2.157512 6,275 292 226 896
2018-12-03 19:32:17 GMT 48.670944 2.168814 5,950 256 224 2752
2018-12-03 19:32:14 GMT 48.670040 2.173125 6,050 283 221 2304
2018-12-03 19:32:07 GMT 48.668976 2.188462 5,675 265 222 3008
2018-12-03 19:32:04 GMT 48.668976 2.188462 5,575 256 224 2752
2018-12-03 19:31:58 GMT 48.670738 2.197916 5,275 244 225 2624
2018-12-03 19:31:53 GMT 48.672867 2.203815 4,925 236 223 2880
2018-12-03 19:31:47 GMT 48.676575 2.212125 4,800 236 221 3520
2018-12-03 19:31:43 GMT 48.678650 2.216564 4,550 236 221 3840
2018-12-03 19:31:36 GMT 48.685181 2.230647 4,000 235 223 3584
2018-12-03 19:31:32 GMT 48.685181 2.230647 3,875 235 224 3328
2018-12-03 19:31:26 GMT 48.689125 2.238898 3,575 234 220 2112
2018-12-03 19:31:22 GMT 48.691315 2.243379 3,275 235 213 2432
2018-12-03 19:31:18 GMT 48.694012 2.248945 3,250 235 210 2688
2018-12-03 19:31:14 GMT 48.695362 2.251836 3,150 235 209 2816
2018-12-03 19:31:10 GMT 48.698296 2.257980 2,900 234 205 3072
2018-12-03 19:31:05 GMT 48.701366 2.264195 2,625 234 204 3072
2018-12-03 19:31:02 GMT 48.702717 2.266942 2,500 234 203 2880
2018-12-03 19:30:56 GMT 48.705696 2.273447 2,275 239 197 1280
2018-12-03 19:30:53 GMT 48.706863 2.276266 2,200 241 193 1088
2018-12-03 19:30:49 GMT 48.708912 2.282121 2,125 244 182 1152
2018-12-03 19:30:44 GMT 48.710861 2.288185 2,025 245 173 1408
2018-12-03 19:30:39 GMT 48.712372 2.292973 1,925 245 167 1152
2018-12-03 19:30:33 GMT 48.714310 2.299106 1,825 245 157 1344
2018-12-03 19:30:29 GMT 48.715805 2.303678 1,700 245 151 2624
2018-12-03 19:30:22 GMT 48.717754 2.309659 1,425 244 151 2496
2018-12-03 19:30:17 GMT 48.719337 2.314357 1,300 244 152 2432
2018-12-03 19:30:12 GMT 48.721161 2.319805 975 243 154 2880
2018-12-03 19:29:56 GMT 48.726254 2.334524 0 243 158 1408
2018-12-03 19:29:50 GMT 48.728485 2.340915 0 241 145
2018-12-03 19:29:39 GMT 48.731255 2.348743 0 241 115
2018-12-03 19:29:29 GMT 48.733360 2.354684 0 241 74
2018-12-03 19:29:16 GMT 48.734859 2.358909 0 244 19
2018-12-03 19:29:04 GMT 48.735134 2.359737 0 250 8
2018-12-03 19:28:56 GMT 48.735180 2.360089 0 286 10
2018-12-03 19:28:40 GMT 48.734585 2.360940 0 348 15
2018-12-03 19:28:32 GMT 48.733955 2.360922 0 19 15
2018-12-03 19:28:23 GMT 48.733463 2.360476 0 47 18
2018-12-03 19:28:11 GMT 48.732883 2.359079 0 61 25
2018-12-03 19:28:04 GMT 48.732605 2.358258 0 61 23
2018-12-03 19:27:54 GMT 48.732124 2.356902 0 59 17
2018-12-03 19:27:43 GMT 48.731720 2.356134 0 30 17
2018-12-03 19:27:33 GMT 48.730988 2.355447 0 50 18
2018-12-03 19:27:19 GMT 48.730408 2.354208 0 42 17
2018-12-03 19:27:12 GMT 48.729961 2.353803 0 16 14
2018-12-03 19:27:01 GMT 48.729370 2.353640 0 340 14
2018-12-03 19:26:46 GMT 48.728462 2.354349 0 343 16
2018-12-03 19:26:41 GMT 48.728207 2.354471 0 343 18
2018-12-03 19:26:29 GMT 48.727203 2.354895 0 345 19
2018-12-03 19:26:18 GMT 48.726128 2.355335 0 343 19
2018-12-03 19:26:04 GMT 48.725330 2.355682 0 343 19
2018-12-03 19:25:53 GMT 48.724422 2.356057 0 345 17
2018-12-03 19:25:30 GMT 48.723293 2.357146 0 261 12
2018-12-03 19:25:23 GMT 48.723354 2.357543 0 253 14
2018-12-03 19:25:11 GMT 48.723564 2.358663 0 255 11
2018-12-03 19:25:01 GMT 48.723667 2.359224 0 255 11
2018-12-03 19:24:53 GMT 48.723770 2.359789 0 253 10
2018-12-03 19:21:30 GMT 48.723946 2.360651 0 3
2018-12-03 19:21:17 GMT 48.723866 2.360525 0 4
2018-12-03 19:21:11 GMT 48.723770 2.360476 0 4
2018-12-03 19:20:59 GMT 48.723598 2.360441 0 4
2018-12-03 19:20:49 GMT 48.723457 2.360452 0 4
2018-12-03 19:20:39 GMT 48.723289 2.360476 0 4
2018-12-03 19:20:15 GMT 48.723049 2.360476 0 0
2018-12-03 19:19:44 GMT 48.723049 2.360488 0 0
We lost coverage of the aircraft here for a total of 85 minutes
2018-12-03 17:54:16 GMT 48.723049 2.360488 0 241 1 0
2018-12-03 17:54:06 GMT 48.723122 2.360488 0 241 3 0
2018-12-03 17:53:55 GMT 48.723270 2.360488 0 241 4 0
2018-12-03 17:53:39 GMT 48.723656 2.360494 0 241 8 0
2018-12-03 17:53:32 GMT 48.723877 2.360561 0 241 9 0
2018-12-03 17:51:17 GMT 48.723133 2.378612 0 255 110 0
2018-12-03 17:51:14 GMT 48.723621 2.381287 0 253 120 0
2018-12-03 17:51:03 GMT 48.725189 2.390090 375 256 143 -128
2018-12-03 17:50:55 GMT 48.726879 2.399139 475 255 144 -832
2018-12-03 17:50:46 GMT 48.728416 2.407596 600 255 138 0
2018-12-03 17:50:43 GMT 48.728832 2.409837 625 255 140 -704
2018-12-03 17:50:39 GMT 48.729584 2.413753 675 255 138 -576
2018-12-03 17:50:34 GMT 48.730370 2.418076 725 256 136 -768
2018-12-03 17:50:28 GMT 48.731396 2.423786 800 254 136 -640
2018-12-03 17:50:22 GMT 48.732559 2.429950 900 255 135 -704
2018-12-03 17:50:18 GMT 48.733166 2.433183 950 255 135 -704
2018-12-03 17:50:12 GMT 48.734161 2.438683 1,025 254 133 -640
2018-12-03 17:50:07 GMT 48.734932 2.442723 1,150 255 131 -640
2018-12-03 17:50:04 GMT 48.735626 2.446782 1,125 255 131 -640
2018-12-03 17:49:56 GMT 48.736702 2.452553 1,200 255 131 -704
2018-12-03 17:49:52 GMT 48.737411 2.456360 1,225 255 132 -704
2018-12-03 17:49:46 GMT 48.739075 2.465346 1,425 254 132 -640
2018-12-03 17:49:43 GMT 48.739075 2.465346 1,400 255 132 -768
2018-12-03 17:49:38 GMT 48.739773 2.469105 1,425 255 131 -768
2018-12-03 17:49:35 GMT 48.740288 2.471779 1,450 255 132 -768
2018-12-03 17:49:32 GMT 48.740986 2.475465 1,525 254 133 -704
2018-12-03 17:49:28 GMT 48.741531 2.478262 1,550 254 133 -640
2018-12-03 17:49:24 GMT 48.742054 2.481248 1,575 255 133 -640
2018-12-03 17:49:21 GMT 48.742584 2.484178 1,600 257 132 -512
2018-12-03 17:49:18 GMT 48.743134 2.487488 1,675 257 132 -640
2018-12-03 17:49:14 GMT 48.743591 2.490427 1,700 256 133 -704
2018-12-03 17:49:10 GMT 48.744244 2.494186 1,750 254 133 -704
2018-12-03 17:49:05 GMT 48.745220 2.499028 1,825 253 131 -640
2018-12-03 17:49:00 GMT 48.746017 2.502981 1,875 255 130 -640
2018-12-03 17:48:55 GMT 48.746899 2.507774 1,950 255 129 -704
2018-12-03 17:48:52 GMT 48.747299 2.510094 1,975 255 130 -704
2018-12-03 17:48:49 GMT 48.747620 2.511855 2,025 255 129 -704
2018-12-03 17:48:46 GMT 48.748169 2.514954 2,050 255 129 -704
2018-12-03 17:48:43 GMT 48.748619 2.517459 2,075 255 129 -704
2018-12-03 17:48:40 GMT 48.749222 2.520799 2,125 254 129 -576
2018-12-03 17:48:37 GMT 48.749828 2.524181 2,300 254 128 -640
2018-12-03 17:48:33 GMT 48.750294 2.526422 2,200 254 126 -640
2018-12-03 17:48:29 GMT 48.750916 2.529743 2,250 255 126 -512
2018-12-03 17:48:26 GMT 48.751457 2.532638 2,275 256 125 -576
2018-12-03 17:48:22 GMT 48.752014 2.535870 2,300 256 125 -640
2018-12-03 17:48:19 GMT 48.752518 2.538828 2,375 256 126 -704
2018-12-03 17:48:16 GMT 48.753551 2.544564 2,425 255 127 -704
2018-12-03 17:48:12 GMT 48.753551 2.544564 2,425 255 127 -640
2018-12-03 17:48:08 GMT 48.754166 2.547913 2,650 254 135 -576
2018-12-03 17:48:05 GMT 48.755184 2.553526 2,550 255 129 -704
2018-12-03 17:48:01 GMT 48.755184 2.553526 2,600 255 131 -704
2018-12-03 17:47:58 GMT 48.755859 2.557138 2,600 255 132 -768
2018-12-03 17:47:53 GMT 48.757370 2.565163 2,700 254 135 -512
2018-12-03 17:47:48 GMT 48.757370 2.565163 2,725 255 136 -576
2018-12-03 17:47:45 GMT 48.758068 2.568994 2,775 255 136 -704
2018-12-03 17:47:41 GMT 48.758698 2.572421 2,800 255 137 -704
2018-12-03 17:47:37 GMT 48.759277 2.575499 2,825 255 137 -704
2018-12-03 17:47:34 GMT 48.759838 2.578607 2,900 255 137 -640
2018-12-03 17:47:29 GMT 48.760628 2.583088 2,950 255 138 -640
2018-12-03 17:47:25 GMT 48.761330 2.586774 3,000 255 138 -704
2018-12-03 17:47:22 GMT 48.762074 2.590894 3,075 254 137 -640
2018-12-03 17:47:19 GMT 48.762405 2.592492 3,075 254 137 -640
2018-12-03 17:47:16 GMT 48.762817 2.594675 3,150 255 137 -640
2018-12-03 17:47:13 GMT 48.763367 2.597633 3,150 255 137 -640
2018-12-03 17:47:10 GMT 48.763870 2.600379 3,175 255 138 -704
2018-12-03 17:47:07 GMT 48.764446 2.603471 3,225 255 138 -704
2018-12-03 17:47:03 GMT 48.765198 2.607281 3,250 254 139 -768
2018-12-03 17:46:59 GMT 48.766075 2.612072 3,350 255 139 -704
2018-12-03 17:46:54 GMT 48.766846 2.616084 3,425 255 139 -704
2018-12-03 17:46:51 GMT 48.767349 2.618901 3,450 256 139 -704
2018-12-03 17:46:47 GMT 48.767899 2.621929 3,450 256 139 -768
2018-12-03 17:46:42 GMT 48.768684 2.626961 3,550 258 138 -576
2018-12-03 17:46:37 GMT 48.769337 2.631515 3,600 261 135 -320
2018-12-03 17:46:32 GMT 48.769821 2.636226 3,625 263 135 -256
2018-12-03 17:46:28 GMT 48.770279 2.641508 3,650 263 134 -128
2018-12-03 17:46:22 GMT 48.770737 2.646085 3,650 263 133 -192
2018-12-03 17:46:18 GMT 48.771057 2.649818 3,675 265 132 -256
2018-12-03 17:46:10 GMT 48.771423 2.656649 3,725 267 132 -320
2018-12-03 17:46:07 GMT 48.771515 2.659396 3,775 267 131 -448
2018-12-03 17:46:00 GMT 48.771652 2.665100 3,775 279 128 -256
2018-12-03 17:45:57 GMT 48.769089 2.673833 3,825 305 132 -448
2018-12-03 17:45:51 GMT 48.769089 2.673833 3,850 306 132 -448
2018-12-03 17:45:47 GMT 48.767845 2.676472 3,875 306 134 -832
2018-12-03 17:45:44 GMT 48.766960 2.678423 3,900 306 134 -832
2018-12-03 17:45:39 GMT 48.765240 2.682110 3,950 306 134 -896
2018-12-03 17:45:36 GMT 48.763824 2.685101 4,025 306 134 -832
2018-12-03 17:45:31 GMT 48.762074 2.688904 4,100 306 136 -896
2018-12-03 17:45:28 GMT 48.761047 2.691072 4,125 306 136 -896
2018-12-03 17:45:25 GMT 48.759933 2.693341 4,175 307 140 -576
2018-12-03 17:45:18 GMT 48.757557 2.698300 4,250 306 141 -896
2018-12-03 17:45:13 GMT 48.755230 2.703070 4,350 305 146 -768
2018-12-03 17:45:08 GMT 48.753296 2.707214 4,450 306 144 -1280
2018-12-03 17:45:03 GMT 48.751553 2.710949 4,525 306 145 -896
2018-12-03 17:44:58 GMT 48.749588 2.715243 4,625 305 147 -768
2018-12-03 17:44:52 GMT 48.747391 2.719961 4,700 305 150 -704
2018-12-03 17:44:48 GMT 48.745316 2.724393 4,775 312 156 -960
2018-12-03 17:44:45 GMT 48.743958 2.726933 4,875 318 160 -1088
2018-12-03 17:44:39 GMT 48.741173 2.730970 4,900 327 160 -1024
2018-12-03 17:44:36 GMT 48.739914 2.732199 4,950 333 163 -1024
2018-12-03 17:44:33 GMT 48.737076 2.734222 5,025 344 171 -960
2018-12-03 17:44:30 GMT 48.735073 2.735162 5,050 351 178 -768
2018-12-03 17:44:27 GMT 48.732044 2.735885 5,100 0 188 -768
2018-12-03 17:44:22 GMT 48.727951 2.735885 5,125 8 198 -1408
2018-12-03 17:44:18 GMT 48.724644 2.735162 5,350 12 205 -1280
2018-12-03 17:44:15 GMT 48.722351 2.734398 5,625 11 207 -1152
2018-12-03 17:44:12 GMT 48.718731 2.733211 5,625 11 207 -1152
2018-12-03 17:44:09 GMT 48.716267 2.732415 5,475 11 210 -1280
2018-12-03 17:44:06 GMT 48.712189 2.731159 5,525 11 211 -1408
2018-12-03 17:44:02 GMT 48.708755 2.730103 5,625 11 213 -1408
2018-12-03 17:43:58 GMT 48.705002 2.728946 5,700 10 214 -896
2018-12-03 17:43:54 GMT 48.702068 2.728079 5,750 10 217 -704
2018-12-03 17:43:51 GMT 48.698296 2.726995 5,800 10 219 -1024
2018-12-03 17:43:45 GMT 48.692059 2.725260 5,900 10 225 -576
2018-12-03 17:43:41 GMT 48.687836 2.724116 5,950 10 229 -512
2018-12-03 17:43:37 GMT 48.683899 2.722990 6,000 10 232 -256
2018-12-03 17:43:33 GMT 48.679459 2.721722 6,000 10 233 -320
2018-12-03 17:43:30 GMT 48.676601 2.720851 6,025 10 235 -512
2018-12-03 17:43:26 GMT 48.672272 2.719694 6,050 10 236 -1152
2018-12-03 17:43:23 GMT 48.667877 2.718482 6,150 10 238 -1216
2018-12-03 17:43:19 GMT 48.664627 2.717637 6,200 10 238 -1024
2018-12-03 17:43:14 GMT 48.659939 2.716297 6,275 11 241 -1088
2018-12-03 17:43:10 GMT 48.654209 2.714346 6,425 20 248 -1088
2018-12-03 17:43:06 GMT 48.650162 2.712355 6,450 24 254 -960
2018-12-03 17:43:02 GMT 48.642757 2.706901 6,550 28 260 -896
2018-12-03 17:42:59 GMT 48.642757 2.706901 6,575 30 264 -960
2018-12-03 17:42:56 GMT 48.639175 2.703793 6,625 30 266 -1024
2018-12-03 17:42:51 GMT 48.634598 2.699749 6,700 30 267 -1216
2018-12-03 17:42:48 GMT 48.631912 2.697360 6,750 30 268 -1344
2018-12-03 17:42:45 GMT 48.627960 2.693834 6,825 31 270 -1472
2018-12-03 17:42:42 GMT 48.624756 2.690946 7,000 36 275 -1280
2018-12-03 17:42:38 GMT 48.620693 2.686880 7,000 36 275 -1280
2018-12-03 17:42:34 GMT 48.616928 2.682566 7,075 41 281 -384
2018-12-03 17:42:31 GMT 48.613815 2.678340 7,100 47 291 192
2018-12-03 17:42:28 GMT 48.610779 2.673581 7,100 52 297 0
2018-12-03 17:42:23 GMT 48.607285 2.666714 7,125 55 301 -192
2018-12-03 17:42:20 GMT 48.605053 2.661366 7,175 63 307 -768
2018-12-03 17:42:17 GMT 48.602772 2.654499 7,200 72 315 -768
2018-12-03 17:42:13 GMT 48.600723 2.646838 7,250 72 315 -768
2018-12-03 17:42:10 GMT 48.599121 2.639043 7,325 74 316 -704
2018-12-03 17:42:06 GMT 48.596741 2.626225 7,375 74 317 -704
2018-12-03 17:42:03 GMT 48.596741 2.626225 7,375 74 317 -704
2018-12-03 17:42:00 GMT 48.595276 2.618360 7,450 74 316 -704
2018-12-03 17:41:56 GMT 48.593903 2.610943 7,475 74 316 -704
2018-12-03 17:41:53 GMT 48.592762 2.604772 7,525 74 316 -704
2018-12-03 17:41:50 GMT 48.591366 2.597110 7,575 74 316 -704
2018-12-03 17:41:47 GMT 48.590240 2.590942 7,600 74 316 -704
2018-12-03 17:41:42 GMT 48.588573 2.581787 7,650 74 317 -704
2018-12-03 17:41:39 GMT 48.587128 2.573692 7,675 74 318 -832
2018-12-03 17:41:36 GMT 48.584476 2.559092 7,775 74 319 -1280
2018-12-03 17:41:32 GMT 48.584476 2.559092 7,800 74 319 -1472
2018-12-03 17:41:29 GMT 48.583172 2.551792 7,875 74 319 -1920
2018-12-03 17:41:25 GMT 48.582008 2.545286 7,975 74 318 -2048
2018-12-03 17:41:22 GMT 48.580444 2.536504 8,125 74 318 -1920
2018-12-03 17:41:19 GMT 48.579494 2.531120 8,200 74 318 -1920
2018-12-03 17:41:16 GMT 48.578156 2.523616 8,325 74 320 -1792
2018-12-03 17:41:12 GMT 48.576561 2.514785 8,425 74 320 -1728
2018-12-03 17:41:09 GMT 48.575592 2.509390 8,500 74 321 -1536
2018-12-03 17:41:05 GMT 48.574001 2.500546 8,650 74 322 -1472
2018-12-03 17:41:02 GMT 48.572845 2.494319 8,700 74 322 -1472
2018-12-03 17:40:58 GMT 48.571426 2.486502 8,725 74 324 -1664
2018-12-03 17:40:52 GMT 48.568726 2.471713 8,975 74 323 -1792
2018-12-03 17:40:48 GMT 48.567249 2.463684 9,100 74 324 -1664
2018-12-03 17:40:43 GMT 48.565620 2.454505 9,225 74 325 -1600
2018-12-03 17:40:40 GMT 48.564411 2.447927 9,325 74 325 -1792
2018-12-03 17:40:37 GMT 48.563202 2.441350 9,400 74 325 -1920
2018-12-03 17:40:32 GMT 48.560898 2.428894 9,575 74 326 -1792
2018-12-03 17:40:29 GMT 48.559895 2.423425 9,675 74 327 -1728
2018-12-03 17:40:24 GMT 48.557556 2.410936 9,825 74 327 -1536
2018-12-03 17:40:20 GMT 48.556046 2.403048 9,950 73 328 -1536
2018-12-03 17:40:17 GMT 48.554775 2.396031 10,000 73 330 -1664
2018-12-03 17:40:13 GMT 48.553024 2.387132 10,125 73 330 -1856
2018-12-03 17:40:10 GMT 48.551704 2.380347 10,275 73 330 -1920
2018-12-03 17:40:07 GMT 48.550461 2.373892 10,300 73 330 -1664
2018-12-03 17:40:02 GMT 48.548584 2.364446 10,475 73 332 -1344
2018-12-03 17:39:59 GMT 48.547119 2.357201 10,500 72 331 -1472
2018-12-03 17:39:56 GMT 48.545517 2.349243 10,575 72 331 -1664
2018-12-03 17:39:50 GMT 48.541321 2.331198 10,825 58 324 -768
2018-12-03 17:39:44 GMT 48.539337 2.324735 10,875 60 324 -832
2018-12-03 17:39:41 GMT 48.535950 2.316143 10,950 53 318 -576
2018-12-03 17:39:38 GMT 48.534851 2.313779 10,975 45 318 0
2018-12-03 17:39:35 GMT 48.531189 2.306918 10,975 45 318 0
2018-12-03 17:39:30 GMT 48.526062 2.299030 10,975 43 318 64
2018-12-03 17:39:27 GMT 48.523399 2.295203 10,975 43 318 64
2018-12-03 17:39:24 GMT 48.520187 2.290649 10,975 43 319 0
2018-12-03 17:39:19 GMT 48.514893 2.283255 10,975 43 323 64
2018-12-03 17:39:16 GMT 48.510773 2.277409 10,975 43 324 0
2018-12-03 17:39:07 GMT 48.501068 2.263747 10,950 43 330 0
2018-12-03 17:39:04 GMT 48.497562 2.258847 10,950 43 336 0
2018-12-03 17:38:57 GMT 48.490173 2.248394 10,950 43 343 -64
2018-12-03 17:38:54 GMT 48.485550 2.241845 10,975 43 350 0
2018-12-03 17:38:47 GMT 48.477997 2.231140 10,975 43 354 0
2018-12-03 17:38:44 GMT 48.475033 2.226900 10,975 43 360 0
2018-12-03 17:38:38 GMT 48.467350 2.215913 10,975 43 366 0
2018-12-03 17:38:35 GMT 48.464264 2.211562 10,975 43 366 0
2018-12-03 17:38:32 GMT 48.460693 2.206445 10,975 43 371 0
2018-12-03 17:38:26 GMT 48.452454 2.194591 10,975 43 379 0
2018-12-03 17:38:23 GMT 48.448013 2.188251 10,950 43 384 0
2018-12-03 17:38:15 GMT 48.438721 2.174870 10,975 43 390 0
2018-12-03 17:38:11 GMT 48.433601 2.167559 11,000 43 391 0
2018-12-03 17:38:05 GMT 48.425583 2.156067 10,975 43 391 0
2018-12-03 17:38:01 GMT 48.420868 2.149306 11,000 43 391 0
2018-12-03 17:37:56 GMT 48.413395 2.138648 11,000 43 391 0
2018-12-03 17:37:52 GMT 48.407501 2.130221 11,000 43 391 0
2018-12-03 17:37:45 GMT 48.399525 2.118843 10,975 43 391 0
2018-12-03 17:37:40 GMT 48.393192 2.109881 10,975 43 390 0
2018-12-03 17:37:33 GMT 48.383926 2.096628 10,975 43 390 0
2018-12-03 17:37:30 GMT 48.379990 2.091064 10,975 43 389 0
2018-12-03 17:37:23 GMT 48.370239 2.077332 10,975 43 389 0
2018-12-03 17:37:19 GMT 48.365124 2.070128 11,000 43 389 0
2018-12-03 17:37:14 GMT 48.357376 2.059232 11,000 43 389 0
2018-12-03 17:37:09 GMT 48.351994 2.051697 11,000 42 389 0
2018-12-03 17:37:03 GMT 48.343800 2.040277 11,000 43 389 0
2018-12-03 17:36:58 GMT 48.338028 2.032182 11,000 43 388 0
2018-12-03 17:36:53 GMT 48.329224 2.019865 11,000 43 389 0
2018-12-03 17:36:49 GMT 48.326485 2.015991 11,000 43 389 0
2018-12-03 17:36:46 GMT 48.322403 2.010287 10,975 43 389 0
2018-12-03 17:36:42 GMT 48.316753 2.002403 11,000 43 389 0
2018-12-03 17:36:36 GMT 48.308487 1.990779 11,000 43 388 0
2018-12-03 17:36:32 GMT 48.302719 1.982680 10,975 42 389 -64
2018-12-03 17:36:29 GMT 48.299435 1.978117 11,000 42 389 -64
2018-12-03 17:36:25 GMT 48.294174 1.970745 11,000 42 389 -64
2018-12-03 17:36:21 GMT 48.288483 1.962891 11,000 42 389 0
2018-12-03 17:36:14 GMT 48.279697 1.950579 11,000 42 389 0
2018-12-03 17:36:11 GMT 48.275742 1.945086 11,000 42 389 0
2018-12-03 17:36:08 GMT 48.271786 1.939593 11,000 42 389 0
2018-12-03 17:36:05 GMT 48.267826 1.934027 11,000 42 389 0
2018-12-03 17:36:00 GMT 48.262054 1.925932 11,000 42 389 0
2018-12-03 17:35:57 GMT 48.257820 1.920078 10,975 42 389 0
2018-12-03 17:35:53 GMT 48.251255 1.910898 11,000 42 389 0
2018-12-03 17:35:50 GMT 48.248089 1.906489 11,000 42 389 0
2018-12-03 17:35:43 GMT 48.240223 1.895575 11,000 43 389 0
2018-12-03 17:35:39 GMT 48.234238 1.887113 11,000 43 389 0
2018-12-03 17:35:34 GMT 48.220779 1.868521 10,975 42 389 0
2018-12-03 17:35:30 GMT 48.220779 1.868521 10,975 42 389 0
2018-12-03 17:35:26 GMT 48.217346 1.863732 11,000 42 389 0
2018-12-03 17:35:23 GMT 48.211964 1.856184 11,000 42 389 0
2018-12-03 17:35:19 GMT 48.207321 1.849788 11,000 42 389 0
2018-12-03 17:35:16 GMT 48.203259 1.844113 11,000 42 389 0
2018-12-03 17:35:11 GMT 48.198120 1.836970 11,000 43 389 0
2018-12-03 17:35:08 GMT 48.192692 1.829440 11,000 43 389 0
2018-12-03 17:35:04 GMT 48.187592 1.822252 11,000 43 389 0
2018-12-03 17:35:00 GMT 48.181938 1.814334 10,975 42 389 -64
2018-12-03 17:34:57 GMT 48.178772 1.809925 10,975 42 389 0
2018-12-03 17:34:54 GMT 48.172722 1.801541 10,975 42 389 0
2018-12-03 17:34:49 GMT 48.168205 1.795253 10,975 42 389 0
2018-12-03 17:34:46 GMT 48.163738 1.789037 10,975 42 389 -64
2018-12-03 17:34:43 GMT 48.159393 1.783012 11,000 42 389 -64
2018-12-03 17:34:38 GMT 48.151306 1.771898 11,000 42 389 0
2018-12-03 17:34:34 GMT 48.148701 1.768165 11,000 42 389 0
2018-12-03 17:34:28 GMT 48.140121 1.756302 11,000 43 389 0
2018-12-03 17:34:25 GMT 48.136185 1.750809 11,000 43 389 -64
2018-12-03 17:34:21 GMT 48.131195 1.743805 11,000 43 389 0
2018-12-03 17:34:16 GMT 48.123703 1.733305 11,000 43 389 0
2018-12-03 17:34:10 GMT 48.117138 1.724149 11,000 43 388 64
2018-12-03 17:34:07 GMT 48.112671 1.717952 11,000 42 389 0
2018-12-03 17:34:03 GMT 48.107758 1.711189 10,975 42 389 0
2018-12-03 17:33:58 GMT 48.099609 1.699860 10,975 42 389 0
2018-12-03 17:33:52 GMT 48.093246 1.691071 11,000 42 389 0
2018-12-03 17:33:49 GMT 48.088650 1.684711 11,000 42 389 0
2018-12-03 17:33:45 GMT 48.084133 1.678514 11,000 42 389 0
2018-12-03 17:33:41 GMT 48.078312 1.670415 10,975 42 389 0
2018-12-03 17:33:37 GMT 48.072601 1.662575 10,975 42 389 0
2018-12-03 17:33:33 GMT 48.067337 1.655296 10,975 42 390 0
2018-12-03 17:33:29 GMT 48.062531 1.648705 11,000 42 390 0
2018-12-03 17:33:26 GMT 48.057644 1.641963 11,000 42 390 -64
2018-12-03 17:33:23 GMT 48.053921 1.636822 11,000 42 390 -64
2018-12-03 17:33:19 GMT 48.049171 1.630272 11,000 42 390 0
2018-12-03 17:33:15 GMT 48.042004 1.620413 11,000 42 391 64
2018-12-03 17:33:12 GMT 48.038681 1.615814 11,000 42 390 0
2018-12-03 17:33:08 GMT 48.034698 1.610390 11,000 42 390 0
2018-12-03 17:33:05 GMT 48.029388 1.603043 11,000 42 391 64
2018-12-03 17:32:57 GMT 48.018635 1.588299 10,975 42 391 64
2018-12-03 17:32:53 GMT 48.013962 1.581894 10,975 42 392 0
2018-12-03 17:32:48 GMT 48.008377 1.574203 10,975 42 392 -640
2018-12-03 17:32:44 GMT 48.001549 1.564918 11,050 42 392 -832
2018-12-03 17:32:41 GMT 47.998848 1.561256 11,050 42 392 -832
2018-12-03 17:32:36 GMT 47.991486 1.551201 11,125 42 393 -768
2018-12-03 17:32:31 GMT 47.985161 1.542664 11,200 42 392 -768
2018-12-03 17:32:28 GMT 47.980682 1.536644 11,225 42 392 -768
2018-12-03 17:32:25 GMT 47.976830 1.531396 11,450 42 397 -2624
2018-12-03 17:32:22 GMT 47.972122 1.525040 11,325 42 391 -768
2018-12-03 17:32:18 GMT 47.967590 1.518860 11,350 42 390 -768
2018-12-03 17:32:13 GMT 47.961281 1.510338 11,425 42 391 -768
2018-12-03 17:32:10 GMT 47.957275 1.504916 11,450 42 390 -832
2018-12-03 17:32:06 GMT 47.951691 1.497239 11,525 42 392 -896
2018-12-03 17:32:03 GMT 47.947968 1.492169 11,600 42 394 -1664
2018-12-03 17:32:00 GMT 47.943638 1.486323 11,600 42 394 -1664
2018-12-03 17:31:57 GMT 47.939484 1.480614 11,725 42 396 -2176
2018-12-03 17:31:50 GMT 47.929459 1.466949 12,025 42 397 -2688
2018-12-03 17:31:46 GMT 47.924835 1.460632 12,175 42 397 -2432
2018-12-03 17:31:42 GMT 47.919292 1.453083 12,400 42 399 -2048
2018-12-03 17:31:39 GMT 47.914810 1.446968 12,475 42 398 -2112
2018-12-03 17:31:36 GMT 47.910816 1.441603 12,575 42 399 -2176
2018-12-03 17:31:29 GMT 47.900208 1.426643 12,950 45 403 -2752
2018-12-03 17:31:25 GMT 47.897224 1.422096 13,025 48 406 -2368
2018-12-03 17:31:19 GMT 47.888672 1.407486 13,275 51 412 -2112
2018-12-03 17:31:15 GMT 47.884098 1.398785 13,425 54 415 -3008
2018-12-03 17:31:09 GMT 47.873978 1.375488 13,950 60 420 -2816
2018-12-03 17:31:05 GMT 47.873978 1.375488 13,950 61 421 -2752
2018-12-03 17:30:59 GMT 47.867294 1.356400 14,300 66 429 -2944
2018-12-03 17:30:47 GMT 47.859192 1.325895 14,875 73 437 -3008
2018-12-03 17:30:43 GMT 47.857330 1.316740 15,050 76 440 -2944
2018-12-03 17:30:38 GMT 47.854614 1.298172 15,375 82 444 -3136
2018-12-03 17:30:34 GMT 47.853745 1.288781 15,550 84 446 -3200
2018-12-03 17:30:27 GMT 47.853046 1.266738 15,925 91 450 -3136
2018-12-03 17:30:23 GMT 47.853333 1.256493 16,100 94 452 -3072
2018-12-03 17:30:17 GMT 47.855209 1.234863 16,475 102 456 -3200
2018-12-03 17:30:13 GMT 47.856678 1.224764 17,150 113 460 -2944
2018-12-03 17:30:09 GMT 47.859612 1.209623 16,900 120 462 -3072
2018-12-03 17:30:06 GMT 47.861389 1.202179 17,075 112 460 -2944
2018-12-03 17:30:03 GMT 47.863312 1.195107 17,150 114 460 -2880
2018-12-03 17:29:59 GMT 47.867111 1.182953 17,350 119 462 -3008
2018-12-03 17:29:56 GMT 47.871460 1.171280 17,575 121 463 -3072
2018-12-03 17:29:52 GMT 47.874832 1.163424 17,725 125 464 -3072
2018-12-03 17:29:45 GMT 47.884983 1.143564 18,100 133 464 -3072
2018-12-03 17:29:41 GMT 47.889359 1.136381 18,275 136 463 -3072
2018-12-03 17:29:35 GMT 47.900112 1.121521 18,500 140 464 -3008
2018-12-03 17:29:32 GMT 47.903641 1.117241 18,650 143 464 -3008
2018-12-03 17:29:26 GMT 47.915150 1.105323 19,025 149 464 -3136
2018-12-03 17:29:22 GMT 47.923016 1.098562 19,175 153 462 -3200
2018-12-03 17:29:15 GMT 47.934906 1.090324 19,675 162 460 -3200
2018-12-03 17:29:12 GMT 47.942551 1.086067 19,725 161 460 -3136
2018-12-03 17:29:05 GMT 47.956764 1.080322 20,125 169 456 -3392
2018-12-03 17:29:02 GMT 47.963242 1.078514 20,300 173 454 -3456
2018-12-03 17:28:55 GMT 47.977715 1.076378 20,850 184 447 -3520
2018-12-03 17:28:52 GMT 47.985077 1.076248 20,850 184 447 -3520
2018-12-03 17:28:49 GMT 47.990234 1.076590 21,050 193 441 -3584
2018-12-03 17:28:45 GMT 47.998718 1.077827 21,300 191 442 -3648
2018-12-03 17:28:41 GMT 48.016911 1.083632 21,850 198 437 -3520
2018-12-03 17:28:33 GMT 48.024174 1.087294 22,025 204 432 -3520
2018-12-03 17:28:30 GMT 48.028690 1.089900 22,200 204 432 -3520
2018-12-03 17:28:22 GMT 48.041817 1.099689 22,600 213 425 -3584
2018-12-03 17:28:19 GMT 48.049210 1.106804 22,900 223 416 -3328
2018-12-03 17:28:14 GMT 48.054794 1.113052 23,125 222 417 -3392
2018-12-03 17:28:11 GMT 48.060104 1.119850 23,325 224 415 -3328
2018-12-03 17:28:08 GMT 48.064453 1.126236 23,500 228 412 -3392
2018-12-03 17:28:03 GMT 48.069305 1.134201 23,725 233 409 -3584
2018-12-03 17:28:00 GMT 48.073097 1.141592 23,850 236 406 -3776
2018-12-03 17:27:56 GMT 48.076916 1.149902 24,025 238 405 -3648
2018-12-03 17:27:53 GMT 48.079651 1.156792 24,300 243 402 -3072
2018-12-03 17:27:49 GMT 48.083954 1.169632 24,650 262 382 -5824
2018-12-03 17:27:43 GMT 48.087158 1.182720 24,950 255 391 -5056
2018-12-03 17:27:40 GMT 48.088696 1.191594 25,275 259 385 -5696
2018-12-03 17:27:37 GMT 48.089493 1.197578 25,475 266 375 -5760
2018-12-03 17:27:31 GMT 48.090694 1.217018 26,300 272 369 -5440
2018-12-03 17:27:28 GMT 48.090637 1.223396 26,875 278 363 -5248
2018-12-03 17:27:23 GMT 48.089951 1.235001 26,875 279 362 -5184
2018-12-03 17:27:19 GMT 48.088974 1.243638 27,175 284 358 -4864
2018-12-03 17:27:16 GMT 48.087067 1.254364 27,550 289 360 -4992
2018-12-03 17:27:13 GMT 48.085808 1.259766 27,725 293 359 -4864
2018-12-03 17:27:10 GMT 48.083714 1.267442 28,000 297 357 -4864
2018-12-03 17:27:07 GMT 48.081711 1.273384 28,200 302 351 -4352
2018-12-03 17:27:03 GMT 48.077755 1.283147 28,550 305 352 -4160
2018-12-03 17:27:00 GMT 48.075989 1.286980 28,700 308 351 -4032
2018-12-03 17:26:57 GMT 48.073059 1.292816 28,900 310 352 -4032
2018-12-03 17:26:52 GMT 48.067657 1.302635 29,250 312 351 -3904
2018-12-03 17:26:48 GMT 48.063034 1.310188 29,625 318 353 -3648
2018-12-03 17:26:44 GMT 48.059601 1.315338 29,725 318 353 -3648
2018-12-03 17:26:41 GMT 48.051128 1.326599 30,125 321 354 -3520
2018-12-03 17:26:35 GMT 48.046986 1.331458 30,500 325 355 -3712
2018-12-03 17:26:31 GMT 48.042343 1.336555 30,600 327 356 -3904
2018-12-03 17:26:28 GMT 48.031807 1.346389 31,125 330 356 -3328
2018-12-03 17:26:24 GMT 48.031807 1.346389 31,050 336 359 -3200
2018-12-03 17:26:20 GMT 48.027557 1.349808 31,300 335 359 -3264
2018-12-03 17:26:15 GMT 48.017807 1.356468 31,675 340 363 -2880
2018-12-03 17:26:10 GMT 48.010441 1.360685 31,825 342 364 -2688
2018-12-03 17:26:06 GMT 48.004295 1.363572 32,050 348 370 -2240
2018-12-03 17:26:03 GMT 48.000992 1.364981 32,200 348 370 -2240
2018-12-03 17:26:00 GMT 47.995682 1.366953 32,325 349 371 -2240
2018-12-03 17:25:57 GMT 47.990608 1.368502 32,450 351 373 -2240
2018-12-03 17:25:53 GMT 47.982422 1.370544 32,500 353 375 -2048
2018-12-03 17:25:50 GMT 47.978073 1.371368 32,650 357 379 -1792
2018-12-03 17:25:47 GMT 47.972122 1.372192 32,700 358 382 -1728
2018-12-03 17:25:44 GMT 47.961823 1.372810 32,850 1 389 -1600
2018-12-03 17:25:37 GMT 47.943916 1.371601 33,550 4 394 -1536
2018-12-03 17:25:32 GMT 47.943916 1.371601 33,275 7 399 -1664
2018-12-03 17:25:27 GMT 47.929413 1.368622 33,400 10 406 -1856
2018-12-03 17:25:24 GMT 47.929413 1.368622 33,400 10 406 -1856
2018-12-03 17:25:17 GMT 47.917431 1.365263 33,575 10 406 -1920
2018-12-03 17:25:14 GMT 47.912636 1.363924 33,675 11 406 -1856
2018-12-03 17:25:11 GMT 47.906204 1.362030 33,775 11 406 -1792
2018-12-03 17:25:08 GMT 47.901600 1.360685 33,800 11 406 -1792
2018-12-03 17:25:05 GMT 47.896225 1.359146 33,950 11 407 -1728
2018-12-03 17:25:02 GMT 47.888123 1.356743 34,375 11 407 -1664
2018-12-03 17:24:59 GMT 47.884235 1.355544 34,275 11 407 -1728
2018-12-03 17:24:56 GMT 47.878696 1.353924 34,225 11 408 -1664
2018-12-03 17:24:53 GMT 47.872971 1.352280 34,300 11 408 -1600
2018-12-03 17:24:48 GMT 47.864822 1.349876 34,475 10 409 -1472
2018-12-03 17:24:44 GMT 47.857407 1.347748 34,525 10 409 -1408
2018-12-03 17:24:41 GMT 47.851276 1.345966 34,950 10 414 -1216
2018-12-03 17:24:38 GMT 47.844772 1.344109 34,675 10 411 -1216
2018-12-03 17:24:34 GMT 47.826653 1.338994 34,950 10 414 -1216
2018-12-03 17:24:28 GMT 47.826653 1.338994 34,900 10 414 -1216
2018-12-03 17:24:25 GMT 47.821976 1.337654 34,925 10 414 -1216
2018-12-03 17:24:21 GMT 47.814640 1.335614 35,000 10 414 -1408
2018-12-03 17:24:18 GMT 47.808060 1.333809 35,050 10 415 -1472
2018-12-03 17:24:15 GMT 47.802383 1.332298 35,175 10 416 -1664
2018-12-03 17:24:11 GMT 47.795788 1.330473 35,275 10 415 -2816
2018-12-03 17:24:08 GMT 47.789318 1.328712 35,450 10 416 -2432
2018-12-03 17:24:05 GMT 47.783478 1.327080 35,550 10 416 -2944
2018-12-03 17:24:01 GMT 47.775513 1.324883 35,900 10 415 -1856
2018-12-03 17:23:58 GMT 47.770836 1.323571 35,900 10 415 -1856
2018-12-03 17:23:54 GMT 47.763294 1.321529 35,975 10 417 0
2018-12-03 17:23:51 GMT 47.755333 1.319345 35,975 10 417 0
2018-12-03 17:23:47 GMT 47.749653 1.317726 35,975 10 418 0
2018-12-03 17:23:44 GMT 47.742645 1.315750 35,975 10 420 0
2018-12-03 17:23:40 GMT 47.735779 1.313828 35,975 10 421 0
2018-12-03 17:23:37 GMT 47.730057 1.312180 35,975 10 423 0
2018-12-03 17:23:34 GMT 47.725067 1.310806 35,975 10 423 0
2018-12-03 17:23:31 GMT 47.710831 1.306824 35,975 10 424 0
2018-12-03 17:23:27 GMT 47.710831 1.306824 35,975 10 423 0
2018-12-03 17:23:21 GMT 47.691792 1.301528 35,975 10 424 0
2018-12-03 17:23:18 GMT 47.691792 1.301528 35,975 10 424 -64
2018-12-03 17:23:15 GMT 47.688717 1.300683 35,975 10 424 -64
2018-12-03 17:23:11 GMT 47.676010 1.297091 36,000 10 423 -64
2018-12-03 17:23:08 GMT 47.676010 1.297091 36,000 10 423 0
2018-12-03 17:23:04 GMT 47.668121 1.294876 36,000 10 423 0
2018-12-03 17:23:01 GMT 47.655666 1.291387 36,000 10 422 0
2018-12-03 17:22:58 GMT 47.655666 1.291387 36,000 10 422 0
2018-12-03 17:22:55 GMT 47.642632 1.287724 36,000 10 422 0
2018-12-03 17:22:51 GMT 47.642632 1.287724 36,000 10 422 -64
2018-12-03 17:22:45 GMT 47.626152 1.283076 36,000 10 421 0
2018-12-03 17:22:39 GMT 47.618889 1.281034 36,000 10 420 0
2018-12-03 17:22:34 GMT 47.608795 1.278191 36,000 10 420 0
2018-12-03 17:22:28 GMT 47.598312 1.275259 35,975 10 421 0
2018-12-03 17:22:25 GMT 47.591629 1.273384 35,975 10 422 0
2018-12-03 17:22:21 GMT 47.586071 1.271808 35,975 10 422 0
2018-12-03 17:22:17 GMT 47.578171 1.269608 36,000 10 423 0
2018-12-03 17:22:12 GMT 47.567215 1.266526 36,000 11 424 0
2018-12-03 17:22:08 GMT 47.560699 1.264625 36,000 12 425 0
2018-12-03 17:22:01 GMT 47.547043 1.260269 36,000 14 427 64
2018-12-03 17:21:55 GMT 47.535374 1.255399 36,000 17 432 64
2018-12-03 17:21:51 GMT 47.527954 1.251686 36,000 20 436 64
2018-12-03 17:21:48 GMT 47.520401 1.247566 36,000 20 437 0
2018-12-03 17:21:42 GMT 47.510559 1.242073 36,000 20 437 0
2018-12-03 17:21:39 GMT 47.504883 1.238846 35,975 20 437 0
2018-12-03 17:21:36 GMT 47.499573 1.235893 36,000 20 436 0
2018-12-03 17:21:30 GMT 47.479980 1.224838 36,000 20 436 0
2018-12-03 17:21:26 GMT 47.479980 1.224838 36,000 20 436 0
2018-12-03 17:21:22 GMT 47.472061 1.220375 36,000 20 435 0
2018-12-03 17:21:19 GMT 47.460983 1.214130 36,000 20 435 0
2018-12-03 17:21:16 GMT 47.460983 1.214130 36,000 20 435 0
2018-12-03 17:21:13 GMT 47.455353 1.210961 36,000 21 434 0
2018-12-03 17:21:10 GMT 47.450462 1.208144 36,000 21 434 0
2018-12-03 17:21:05 GMT 47.440521 1.202522 36,000 21 434 0
2018-12-03 17:21:02 GMT 47.434158 1.198952 36,000 21 434 0
2018-12-03 17:20:55 GMT 47.423092 1.192721 35,975 20 433 0
2018-12-03 17:20:52 GMT 47.415970 1.188707 35,975 20 433 0
2018-12-03 17:20:49 GMT 47.410172 1.185425 35,975 20 431 0
2018-12-03 17:20:42 GMT 47.398178 1.178696 35,975 20 433 0
2018-12-03 17:20:38 GMT 47.389759 1.173988 35,975 20 431 0
2018-12-03 17:20:33 GMT 47.380447 1.168776 35,975 20 432 -64
2018-12-03 17:20:28 GMT 47.371838 1.163987 36,000 20 432 0
2018-12-03 17:20:22 GMT 47.361408 1.158142 36,000 20 432 0
2018-12-03 17:20:18 GMT 47.351681 1.152790 35,975 20 431 0
2018-12-03 17:20:12 GMT 47.341827 1.147316 35,975 20 430 0
2018-12-03 17:20:09 GMT 47.337154 1.144761 35,975 20 430 0
2018-12-03 17:20:05 GMT 47.327637 1.139488 35,975 20 431 0
2018-12-03 17:20:01 GMT 47.321884 1.136240 35,975 20 431 0
2018-12-03 17:19:58 GMT 47.315735 1.132828 36,000 20 431 0
2018-12-03 17:19:52 GMT 47.304707 1.126732 35,975 20 432 0
2018-12-03 17:19:48 GMT 47.297058 1.122528 35,975 20 432 0
2018-12-03 17:19:45 GMT 47.292206 1.119781 35,975 20 432 0
2018-12-03 17:19:42 GMT 47.286209 1.116486 35,975 20 434 0
2018-12-03 17:19:39 GMT 47.280037 1.113070 35,975 20 434 0
2018-12-03 17:19:36 GMT 47.261078 1.102547 36,000 20 434 0
2018-12-03 17:19:29 GMT 47.261078 1.102547 36,000 20 435 0
2018-12-03 17:19:25 GMT 47.252289 1.097576 36,000 20 435 0
2018-12-03 17:19:21 GMT 47.247402 1.094830 36,000 20 435 0
2018-12-03 17:19:18 GMT 47.241722 1.091731 36,000 20 436 0
2018-12-03 17:19:14 GMT 47.232880 1.086754 36,000 20 436 0
2018-12-03 17:19:08 GMT 47.221752 1.080534 36,000 20 437 0
2018-12-03 17:19:03 GMT 47.213242 1.075768 36,000 20 439 0
2018-12-03 17:18:59 GMT 47.205879 1.071590 36,000 20 439 0
2018-12-03 17:18:56 GMT 47.200199 1.068420 36,000 20 439 0
2018-12-03 17:18:52 GMT 47.192612 1.064195 36,000 20 439 0
2018-12-03 17:18:48 GMT 47.183113 1.058843 36,000 20 439 0
2018-12-03 17:18:44 GMT 47.175900 1.054828 36,000 21 440 0
2018-12-03 17:18:41 GMT 47.169250 1.051048 36,000 21 440 0
2018-12-03 17:18:38 GMT 47.164864 1.048631 36,000 21 440 0
2018-12-03 17:18:32 GMT 47.153877 1.042434 36,000 21 440 0
2018-12-03 17:18:29 GMT 47.147408 1.038771 35,975 21 441 0
2018-12-03 17:18:26 GMT 47.142845 1.036166 35,975 21 441 0
2018-12-03 17:18:21 GMT 47.133350 1.030813 35,975 21 441 -64
2018-12-03 17:18:18 GMT 47.127457 1.027496 36,000 21 441 -64
2018-12-03 17:18:15 GMT 47.122147 1.024475 36,000 20 441 -64
2018-12-03 17:18:12 GMT 47.114311 1.020179 36,000 17 435 -64
2018-12-03 17:18:09 GMT 47.108780 1.017403 36,000 17 435 -64
2018-12-03 17:18:06 GMT 47.103424 1.014931 36,000 14 432 -64
2018-12-03 17:18:03 GMT 47.098202 1.012714 36,000 14 432 -64
2018-12-03 17:18:00 GMT 47.092621 1.010605 36,000 12 428 -64
2018-12-03 17:17:57 GMT 47.086853 1.008614 36,000 11 426 -128
2018-12-03 17:17:54 GMT 47.082050 1.007151 36,000 9 424 -64
2018-12-03 17:17:51 GMT 47.072617 1.004837 36,000 7 420 -64
2018-12-03 17:17:46 GMT 47.066689 1.003629 36,000 5 418 -64
2018-12-03 17:17:43 GMT 47.060913 1.002784 36,000 2 413 -64
2018-12-03 17:17:40 GMT 47.052750 1.001953 36,000 0 409 -64
2018-12-03 17:17:36 GMT 47.046112 1.001657 36,000 0 409 -64
2018-12-03 17:17:33 GMT 47.041965 1.001587 36,000 0 408 -64
2018-12-03 17:17:29 GMT 47.031864 1.002080 36,000 356 402 -64
2018-12-03 17:17:24 GMT 47.023956 1.002983 36,000 356 400 0
2018-12-03 17:17:20 GMT 47.016953 1.003807 36,000 356 399 0
2018-12-03 17:17:17 GMT 47.011242 1.004474 36,000 356 399 0
2018-12-03 17:17:14 GMT 47.005329 1.005179 36,000 356 399 0
2018-12-03 17:17:11 GMT 47.001480 1.005592 36,000 356 399 0
2018-12-03 17:17:08 GMT 46.993378 1.006554 36,000 356 398 0
2018-12-03 17:17:05 GMT 46.989552 1.007010 36,000 356 398 0
2018-12-03 17:17:02 GMT 46.983311 1.007784 36,000 356 398 0
2018-12-03 17:16:57 GMT 46.973396 1.008911 35,975 356 397 0
2018-12-03 17:16:54 GMT 46.969765 1.009334 35,975 356 397 0
2018-12-03 17:16:51 GMT 46.958035 1.010672 36,000 356 396 0
2018-12-03 17:16:48 GMT 46.958035 1.010672 36,000 356 397 0
2018-12-03 17:16:44 GMT 46.949284 1.011728 36,000 356 396 0
2018-12-03 17:16:41 GMT 46.945278 1.012151 36,000 356 395 0
2018-12-03 17:16:37 GMT 46.937439 1.013077 36,000 356 395 0
2018-12-03 17:16:34 GMT 46.932522 1.013630 36,000 356 394 0
2018-12-03 17:16:31 GMT 46.928009 1.014175 36,000 356 394 0
2018-12-03 17:16:27 GMT 46.921097 1.014999 36,000 356 393 0
2018-12-03 17:16:24 GMT 46.914230 1.015755 36,000 356 393 0
2018-12-03 17:16:21 GMT 46.910248 1.016235 36,000 356 392 0
2018-12-03 17:16:17 GMT 46.902122 1.017151 36,000 356 392 0
2018-12-03 17:16:14 GMT 46.895981 1.017926 36,000 356 392 0
2018-12-03 17:16:11 GMT 46.892166 1.018364 36,000 356 391 0
2018-12-03 17:16:05 GMT 46.879211 1.019875 36,000 356 390 0
2018-12-03 17:16:02 GMT 46.873959 1.020461 36,000 356 391 0
2018-12-03 17:15:52 GMT 46.855618 1.022552 36,000 356 391 0
2018-12-03 17:15:44 GMT 46.841034 1.024274 35,975 356 390 0
2018-12-03 17:15:40 GMT 46.834019 1.025024 35,975 356 390 0
2018-12-03 17:15:34 GMT 46.824509 1.026150 35,975 356 390 0
2018-12-03 17:15:31 GMT 46.819107 1.026753 35,975 356 390 0
2018-12-03 17:15:28 GMT 46.812607 1.027490 35,975 356 390 0
2018-12-03 17:15:21 GMT 46.801292 1.028732 35,975 356 390 0
2018-12-03 17:15:18 GMT 46.795715 1.029365 35,975 356 390 0
2018-12-03 17:15:15 GMT 46.790165 1.030037 35,975 356 390 0
2018-12-03 17:15:11 GMT 46.782623 1.030861 35,975 356 389 0
2018-12-03 17:15:07 GMT 46.776527 1.031616 35,975 356 389 0
2018-12-03 17:15:04 GMT 46.771870 1.032166 36,000 356 389 0
2018-12-03 17:15:00 GMT 46.764496 1.032983 36,000 356 389 0
2018-12-03 17:14:57 GMT 46.758930 1.033607 36,000 356 389 0
2018-12-03 17:14:54 GMT 46.752319 1.034390 36,000 356 389 0
2018-12-03 17:14:51 GMT 46.740509 1.035796 36,000 356 388 0
2018-12-03 17:14:43 GMT 46.732441 1.036766 36,000 356 388 0
2018-12-03 17:14:39 GMT 46.726017 1.037521 36,000 356 388 0
2018-12-03 17:14:33 GMT 46.715309 1.038757 36,000 356 388 0
2018-12-03 17:14:29 GMT 46.707230 1.039682 36,000 356 387 0
2018-12-03 17:14:25 GMT 46.701187 1.040419 36,000 356 387 0
2018-12-03 17:14:19 GMT 46.689423 1.041758 36,000 356 387 0
2018-12-03 17:14:14 GMT 46.681747 1.042671 36,000 356 387 0
2018-12-03 17:14:09 GMT 46.672668 1.043701 36,000 356 386 0
2018-12-03 17:14:02 GMT 46.659851 1.045108 36,000 356 386 0
2018-12-03 17:13:59 GMT 46.653076 1.045845 36,000 356 386 0
2018-12-03 17:13:56 GMT 46.640671 1.047252 36,000 356 385 0
2018-12-03 17:13:51 GMT 46.640671 1.047252 36,000 356 385 0
2018-12-03 17:13:48 GMT 46.634075 1.047958 36,000 356 385 0
2018-12-03 17:13:41 GMT 46.622589 1.049261 36,000 356 385 0
2018-12-03 17:13:37 GMT 46.614944 1.050087 36,000 356 384 0
2018-12-03 17:13:30 GMT 46.603630 1.051392 36,000 356 384 0
2018-12-03 17:13:26 GMT 46.596882 1.052147 36,000 356 384 0
2018-12-03 17:13:23 GMT 46.591248 1.052765 36,000 356 383 0
2018-12-03 17:13:16 GMT 46.578323 1.054286 36,000 356 383 0
2018-12-03 17:13:11 GMT 46.570393 1.055168 35,975 356 383 0
2018-12-03 17:13:06 GMT 46.559280 1.056362 36,000 356 383 0
2018-12-03 17:12:55 GMT 46.541439 1.058395 36,000 356 382 0
2018-12-03 17:12:48 GMT 46.529846 1.059769 36,000 356 382 0
2018-12-03 17:12:45 GMT 46.522816 1.060593 36,000 356 381 0
2018-12-03 17:12:42 GMT 46.519455 1.060985 36,000 356 381 0
2018-12-03 17:12:36 GMT 46.501354 1.063065 36,000 356 381 0
2018-12-03 17:12:32 GMT 46.488556 1.064535 36,000 356 381 0
2018-12-03 17:12:25 GMT 46.482410 1.065262 36,000 356 381 0
2018-12-03 17:12:21 GMT 46.482410 1.065262 36,000 356 381 0
2018-12-03 17:12:14 GMT 46.468552 1.066813 36,000 356 381 0
2018-12-03 17:12:11 GMT 46.463974 1.067349 36,000 356 380 0
2018-12-03 17:12:04 GMT 46.447357 1.069244 36,000 356 380 0
2018-12-03 17:12:01 GMT 46.447357 1.069244 36,000 356 380 0
2018-12-03 17:11:55 GMT 46.435272 1.070631 36,000 356 380 0
2018-12-03 17:11:52 GMT 46.425476 1.071703 36,000 356 380 0
2018-12-03 17:11:44 GMT 46.416000 1.072775 36,000 356 380 0
2018-12-03 17:11:41 GMT 46.411102 1.073311 35,975 356 380 0
2018-12-03 17:11:38 GMT 46.406017 1.073914 36,000 356 381 0
2018-12-03 17:11:33 GMT 46.397461 1.074851 36,000 356 380 0
2018-12-03 17:11:30 GMT 46.392197 1.075454 35,975 356 380 0
2018-12-03 17:11:27 GMT 46.378555 1.076928 36,000 356 380 0
2018-12-03 17:11:22 GMT 46.372559 1.077598 35,975 356 380 0
2018-12-03 17:11:19 GMT 46.372559 1.077598 35,975 356 380 0
2018-12-03 17:11:15 GMT 46.366776 1.078239 35,975 356 380 0
2018-12-03 17:11:10 GMT 46.349075 1.080211 35,975 356 381 0
2018-12-03 17:11:05 GMT 46.349075 1.080211 35,975 356 381 0
2018-12-03 17:11:02 GMT 46.341915 1.080986 35,975 356 381 0
2018-12-03 17:10:58 GMT 46.335068 1.081751 35,975 356 381 0
2018-12-03 17:10:55 GMT 46.330490 1.082287 35,975 356 380 0
2018-12-03 17:10:50 GMT 46.321945 1.083252 35,975 356 380 0
2018-12-03 17:10:47 GMT 46.318268 1.083627 36,000 356 380 0
2018-12-03 17:10:44 GMT 46.311264 1.084431 36,000 356 380 0
2018-12-03 17:10:39 GMT 46.302841 1.085436 36,000 356 380 0
2018-12-03 17:10:33 GMT 46.291824 1.086685 36,000 356 379 0
2018-12-03 17:10:30 GMT 46.286774 1.087245 36,000 356 379 0
2018-12-03 17:10:27 GMT 46.274872 1.088651 36,000 356 378 0
2018-12-03 17:10:23 GMT 46.274872 1.088651 36,000 356 378 0
2018-12-03 17:10:18 GMT 46.265987 1.089706 36,000 356 378 0
2018-12-03 17:10:13 GMT 46.257282 1.090736 36,000 356 377 0
2018-12-03 17:10:10 GMT 46.252258 1.091331 36,000 356 377 0
2018-12-03 17:10:07 GMT 46.247726 1.091867 36,000 356 377 0
2018-12-03 17:10:01 GMT 46.236969 1.093073 36,000 356 377 0
2018-12-03 17:09:58 GMT 46.231586 1.093689 36,000 356 378 0
2018-12-03 17:09:54 GMT 46.224976 1.094444 36,000 356 377 0
2018-12-03 17:09:51 GMT 46.213848 1.095749 36,000 356 377 0
2018-12-03 17:09:48 GMT 46.213848 1.095749 35,975 356 378 0
2018-12-03 17:09:43 GMT 46.207077 1.096489 35,975 356 377 0
2018-12-03 17:09:39 GMT 46.190945 1.098289 35,975 356 378 0
2018-12-03 17:09:35 GMT 46.190945 1.098289 35,975 356 377 0
2018-12-03 17:09:31 GMT 46.177353 1.099869 35,975 356 378 0
2018-12-03 17:09:28 GMT 46.177353 1.099869 35,975 356 378 0
2018-12-03 17:09:22 GMT 46.161339 1.101654 35,975 356 378 0
2018-12-03 17:09:18 GMT 46.161339 1.101654 35,975 356 378 0
2018-12-03 17:09:13 GMT 46.153519 1.102518 35,975 356 378 0
2018-12-03 17:09:10 GMT 46.140289 1.103992 35,975 356 378 0
2018-12-03 17:09:06 GMT 46.140289 1.103992 36,000 356 375 0
2018-12-03 17:09:03 GMT 46.135967 1.104469 35,975 356 377 0
2018-12-03 17:08:59 GMT 46.128986 1.105293 36,000 356 377 0
2018-12-03 17:08:55 GMT 46.119953 1.106255 36,000 356 377 0
2018-12-03 17:08:50 GMT 46.104172 1.108078 35,975 356 376 0
2018-12-03 17:08:45 GMT 46.104172 1.108078 35,975 356 376 0
2018-12-03 17:08:42 GMT 46.099472 1.108589 35,975 356 376 0
2018-12-03 17:08:37 GMT 46.090302 1.109619 35,975 356 376 0
2018-12-03 17:08:34 GMT 46.085972 1.110100 35,975 356 376 0
2018-12-03 17:08:31 GMT 46.080276 1.110691 35,975 356 376 0
2018-12-03 17:08:24 GMT 46.067825 1.112098 36,000 356 375 0
2018-12-03 17:08:21 GMT 46.063484 1.112572 36,000 356 375 0
2018-12-03 17:08:18 GMT 46.057434 1.113237 36,000 356 375 0
2018-12-03 17:08:14 GMT 46.051895 1.113839 36,000 356 375 0
2018-12-03 17:08:11 GMT 46.043610 1.114777 35,975 356 375 0
2018-12-03 17:08:04 GMT 46.033459 1.115936 35,975 356 373 0
2018-12-03 17:08:01 GMT 46.028618 1.116486 35,975 356 375 0
2018-12-03 17:07:57 GMT 46.022053 1.117241 35,975 356 375 0
2018-12-03 17:07:54 GMT 46.016888 1.117790 35,975 356 375 -64
2018-12-03 17:07:50 GMT 46.008408 1.118797 35,975 356 375 0
2018-12-03 17:07:43 GMT 45.997196 1.120056 35,975 356 375 -64
2018-12-03 17:07:36 GMT 45.985977 1.121275 36,000 356 374 0
2018-12-03 17:07:32 GMT 45.978901 1.122047 36,000 356 373 0
2018-12-03 17:07:29 GMT 45.969265 1.123146 35,975 356 374 0
2018-12-03 17:07:21 GMT 45.959908 1.124107 36,000 356 374 0
2018-12-03 17:07:15 GMT 45.948029 1.125429 36,000 356 374 0
2018-12-03 17:07:12 GMT 45.944778 1.125824 35,975 356 374 0
2018-12-03 17:07:08 GMT 45.935989 1.126769 36,000 356 373 0
2018-12-03 17:07:05 GMT 45.931698 1.127266 36,000 356 373 0
2018-12-03 17:07:00 GMT 45.923084 1.128227 36,000 356 373 0
2018-12-03 17:06:57 GMT 45.917591 1.128914 36,000 356 373 0
2018-12-03 17:06:54 GMT 45.914146 1.129257 36,000 356 373 0
2018-12-03 17:06:50 GMT 45.906052 1.130185 36,000 356 373 0
2018-12-03 17:06:47 GMT 45.900558 1.130788 36,000 356 373 0
2018-12-03 17:06:44 GMT 45.894547 1.131454 36,000 356 373 0
2018-12-03 17:06:41 GMT 45.890259 1.131860 36,000 356 373 0
2018-12-03 17:06:36 GMT 45.881653 1.132798 36,000 356 373 0
2018-12-03 17:06:28 GMT 45.869247 1.134137 35,975 356 373 0
2018-12-03 17:06:25 GMT 45.862568 1.134819 35,975 356 372 0
2018-12-03 17:06:20 GMT 45.854328 1.135712 36,000 356 372 0
2018-12-03 17:06:15 GMT 45.845715 1.136604 36,000 356 372 0
2018-12-03 17:06:09 GMT 45.835602 1.137621 36,000 356 371 -64
2018-12-03 17:06:04 GMT 45.824936 1.138827 35,975 356 372 0
2018-12-03 17:05:59 GMT 45.816376 1.139765 36,000 356 371 -64
2018-12-03 17:05:54 GMT 45.809357 1.140587 36,000 356 371 -64
2018-12-03 17:05:47 GMT 45.797394 1.141960 36,000 356 371 0
2018-12-03 17:05:42 GMT 45.777420 1.144253 35,975 356 370 0
2018-12-03 17:05:36 GMT 45.777420 1.144253 36,000 356 370 0
2018-12-03 17:05:32 GMT 45.772980 1.144789 35,975 356 370 0
2018-12-03 17:05:25 GMT 45.759872 1.146286 36,000 356 370 0
2018-12-03 17:05:22 GMT 45.755451 1.146835 36,000 356 370 -64
2018-12-03 17:05:15 GMT 45.743160 1.148277 36,000 356 369 0
2018-12-03 17:05:12 GMT 45.736221 1.149076 36,000 356 369 0
2018-12-03 17:05:05 GMT 45.727192 1.150063 35,975 356 369 0
2018-12-03 17:05:00 GMT 45.716812 1.151287 36,000 356 369 0
2018-12-03 17:04:55 GMT 45.709991 1.152024 36,000 356 371 0
2018-12-03 17:04:49 GMT 45.699959 1.153152 36,000 356 369 0
2018-12-03 17:04:43 GMT 45.689896 1.154234 35,975 356 371 0
2018-12-03 17:04:39 GMT 45.681896 1.155144 35,975 356 370 0
2018-12-03 17:04:33 GMT 45.671658 1.156242 35,975 356 371 0
2018-12-03 17:04:29 GMT 45.664860 1.156998 35,975 356 371 0
2018-12-03 17:04:21 GMT 45.651352 1.158455 35,975 356 371 0
2018-12-03 17:04:17 GMT 45.644485 1.159192 35,975 356 372 0
2018-12-03 17:04:12 GMT 45.636787 1.160019 35,975 356 386 0
2018-12-03 17:04:07 GMT 45.626999 1.161067 35,975 356 373 0
2018-12-03 17:04:02 GMT 45.618587 1.161942 35,975 356 374 -64
2018-12-03 17:03:57 GMT 45.609974 1.162903 36,000 356 375 0
2018-12-03 17:03:51 GMT 45.600815 1.163881 36,000 356 375 0
2018-12-03 17:03:47 GMT 45.591476 1.164953 35,975 356 376 0
2018-12-03 17:03:41 GMT 45.583145 1.165824 35,975 356 377 0
2018-12-03 17:03:34 GMT 45.570328 1.167297 35,975 356 378 0
2018-12-03 17:03:31 GMT 45.564911 1.167915 36,000 356 379 0
2018-12-03 17:03:25 GMT 45.554947 1.169039 35,975 356 380 0
2018-12-03 17:03:21 GMT 45.548477 1.169769 35,975 356 380 0
2018-12-03 17:03:15 GMT 45.537094 1.171025 35,975 356 382 0
2018-12-03 17:03:11 GMT 45.530231 1.171786 35,975 356 386 0
2018-12-03 17:03:04 GMT 45.517895 1.173192 35,975 356 383 0
2018-12-03 17:03:00 GMT 45.511688 1.173837 36,000 356 386 0
2018-12-03 17:02:53 GMT 45.497364 1.175403 36,000 356 385 0
2018-12-03 17:02:50 GMT 45.493286 1.175864 36,000 356 385 0
2018-12-03 17:02:43 GMT 45.479954 1.177279 35,975 356 386 -192
2018-12-03 17:02:35 GMT 45.466644 1.178741 36,000 356 385 -128
2018-12-03 17:02:32 GMT 45.461147 1.179356 36,000 356 386 0
2018-12-03 17:02:29 GMT 45.456539 1.179824 36,000 356 386 0
2018-12-03 17:02:21 GMT 45.441788 1.181423 36,000 356 386 0
2018-12-03 17:02:17 GMT 45.435379 1.182077 36,000 356 386 0
2018-12-03 17:02:10 GMT 45.417206 1.184038 36,000 356 386 -64
2018-12-03 17:02:00 GMT 45.404755 1.185346 36,000 356 386 0
2018-12-03 17:01:57 GMT 45.398209 1.185988 36,000 356 386 0
2018-12-03 17:01:49 GMT 45.384476 1.187439 36,000 356 386 0
2018-12-03 17:01:46 GMT 45.380051 1.187930 35,975 356 386 0
2018-12-03 17:01:36 GMT 45.361038 1.189989 35,975 356 386 0
2018-12-03 17:01:29 GMT 45.348396 1.191414 35,975 356 386 0
2018-12-03 17:01:26 GMT 45.343044 1.191950 36,000 356 387 0
2018-12-03 17:01:18 GMT 45.328796 1.193557 35,975 356 387 0
2018-12-03 17:01:14 GMT 45.322906 1.194175 35,975 356 387 0
2018-12-03 17:01:07 GMT 45.309723 1.195613 35,975 356 387 -64
2018-12-03 17:00:56 GMT 45.290451 1.197771 36,000 356 387 0
2018-12-03 17:00:53 GMT 45.284409 1.198425 36,000 356 386 0
2018-12-03 17:00:45 GMT 45.265869 1.200583 36,000 356 386 0
2018-12-03 17:00:34 GMT 45.250729 1.202266 36,000 356 386 0
2018-12-03 17:00:24 GMT 45.233459 1.204180 36,000 356 387 0
2018-12-03 17:00:14 GMT 45.214920 1.206273 36,000 356 387 0
2018-12-03 17:00:04 GMT 45.197113 1.208235 35,975 356 388 0
2018-12-03 16:59:52 GMT 45.175781 1.210506 35,975 356 389 0
2018-12-03 16:59:41 GMT 45.139889 1.214257 36,000 356 390 0
2018-12-03 16:59:32 GMT 45.139889 1.214257 35,975 356 390 0
2018-12-03 16:59:26 GMT 45.130207 1.215262 35,975 356 390 -64
2018-12-03 16:59:22 GMT 45.122086 1.216147 36,000 356 390 0
2018-12-03 16:59:19 GMT 45.116318 1.216736 36,000 356 390 0
2018-12-03 16:59:15 GMT 45.102135 1.218277 36,000 356 389 0
2018-12-03 16:59:12 GMT 45.102135 1.218277 36,000 356 390 0
2018-12-03 16:59:08 GMT 45.097805 1.218746 36,000 356 390 0
2018-12-03 16:59:01 GMT 45.083954 1.220267 36,000 356 390 0
2018-12-03 16:58:58 GMT 45.078396 1.220889 36,000 356 390 0
2018-12-03 16:58:50 GMT 45.059509 1.222948 35,975 356 391 0
2018-12-03 16:58:40 GMT 45.045822 1.224387 35,975 356 391 0
2018-12-03 16:58:35 GMT 45.038269 1.225237 35,975 356 390 0
2018-12-03 16:58:29 GMT 45.027279 1.226382 36,000 356 390 0
2018-12-03 16:58:22 GMT 45.014877 1.227722 36,000 356 390 0
2018-12-03 16:58:17 GMT 45.004486 1.228834 35,975 356 390 0
2018-12-03 16:58:13 GMT 44.998184 1.229531 36,000 356 389 0
2018-12-03 16:58:07 GMT 44.988129 1.230670 36,000 356 389 0
2018-12-03 16:58:03 GMT 44.980087 1.231515 36,000 356 389 0
2018-12-03 16:57:58 GMT 44.960526 1.233617 36,000 356 389 0
2018-12-03 16:57:52 GMT 44.960526 1.233617 36,000 356 389 -64
2018-12-03 16:57:48 GMT 44.952850 1.234458 36,000 356 389 0
2018-12-03 16:57:44 GMT 44.945663 1.235243 36,000 356 389 0
2018-12-03 16:57:41 GMT 44.940674 1.235766 36,000 356 388 0
2018-12-03 16:57:35 GMT 44.929184 1.237008 36,000 356 388 64
2018-12-03 16:57:30 GMT 44.921310 1.237793 35,975 356 388 0
2018-12-03 16:57:26 GMT 44.914902 1.238512 35,975 356 388 0
2018-12-03 16:57:18 GMT 44.900574 1.240016 35,975 356 388 0
2018-12-03 16:57:15 GMT 44.894485 1.240670 36,000 356 388 -64
2018-12-03 16:57:09 GMT 44.883572 1.241857 36,000 356 388 0
2018-12-03 16:57:06 GMT 44.876587 1.242567 35,975 356 388 0
2018-12-03 16:56:58 GMT 44.863724 1.244005 35,975 356 388 0
2018-12-03 16:56:55 GMT 44.857830 1.244671 35,975 356 389 0
2018-12-03 16:56:45 GMT 44.839348 1.246680 36,000 356 389 0
2018-12-03 16:56:36 GMT 44.824032 1.248355 36,000 356 389 0
2018-12-03 16:56:33 GMT 44.819798 1.248824 36,000 356 389 0
2018-12-03 16:56:23 GMT 44.799911 1.250937 35,975 356 390 0
2018-12-03 16:56:12 GMT 44.780869 1.252965 36,000 356 390 0
2018-12-03 16:56:04 GMT 44.767227 1.254403 36,000 356 390 0
2018-12-03 16:55:56 GMT 44.751270 1.256126 35,975 356 389 0
2018-12-03 16:55:51 GMT 44.743881 1.256954 36,000 356 390 0
2018-12-03 16:55:41 GMT 44.726460 1.258805 36,000 356 391 0
2018-12-03 16:55:38 GMT 44.721222 1.259373 36,000 356 391 0
2018-12-03 16:55:35 GMT 44.715660 1.259944 35,975 356 391 0
2018-12-03 16:55:31 GMT 44.707001 1.260882 35,975 356 391 0
2018-12-03 16:55:22 GMT 44.690964 1.262578 35,975 356 391 0
2018-12-03 16:55:18 GMT 44.669899 1.264835 35,975 356 390 0
2018-12-03 16:55:10 GMT 44.669899 1.264835 35,975 356 391 0
2018-12-03 16:55:00 GMT 44.631866 1.268921 36,000 356 389 0
2018-12-03 16:54:49 GMT 44.631866 1.268921 36,000 356 390 0
2018-12-03 16:54:45 GMT 44.617294 1.270462 36,000 356 390 0
2018-12-03 16:54:36 GMT 44.608109 1.271406 36,000 356 390 0
2018-12-03 16:54:28 GMT 44.593414 1.272910 36,000 356 389 0
2018-12-03 16:54:24 GMT 44.587826 1.273543 36,000 356 389 0
2018-12-03 16:54:18 GMT 44.574932 1.274883 36,000 356 389 0
2018-12-03 16:54:07 GMT 44.556107 1.276834 35,975 356 389 0
2018-12-03 16:54:00 GMT 44.543041 1.278165 36,000 356 389 0
2018-12-03 16:53:52 GMT 44.529079 1.279639 36,000 356 389 0
2018-12-03 16:53:45 GMT 44.516880 1.280845 36,000 356 389 0
2018-12-03 16:53:34 GMT 44.497696 1.282850 36,000 356 388 0
2018-12-03 16:53:31 GMT 44.492706 1.283373 36,000 356 388 0
2018-12-03 16:53:23 GMT 44.478378 1.284877 36,000 356 388 0
2018-12-03 16:53:12 GMT 44.458374 1.287101 36,000 356 387 0
2018-12-03 16:53:05 GMT 44.443188 1.288750 35,975 356 388 0
2018-12-03 16:53:01 GMT 44.438736 1.289193 35,975 356 388 0
2018-12-03 16:52:54 GMT 44.425686 1.290559 35,975 356 388 0
2018-12-03 16:52:50 GMT 44.419418 1.291221 35,975 356 388 0
2018-12-03 16:52:44 GMT 44.407810 1.292434 35,975 356 388 0
2018-12-03 16:52:40 GMT 44.400513 1.293248 36,000 356 387 0
2018-12-03 16:52:33 GMT 44.388336 1.294556 35,975 356 387 0
2018-12-03 16:52:30 GMT 44.383183 1.295047 35,975 356 387 0
2018-12-03 16:52:18 GMT 44.361557 1.297368 35,975 356 387 0
2018-12-03 16:52:14 GMT 44.352997 1.298283 35,975 356 387 0
2018-12-03 16:52:07 GMT 44.341919 1.299460 36,000 356 388 0
2018-12-03 16:52:02 GMT 44.332485 1.300473 35,975 356 388 0
2018-12-03 16:51:59 GMT 44.327087 1.301076 35,975 356 388 0
2018-12-03 16:51:56 GMT 44.321915 1.301618 35,975 356 388 0
2018-12-03 16:51:51 GMT 44.313721 1.302534 35,975 356 388 0
2018-12-03 16:51:48 GMT 44.309052 1.302992 35,975 356 388 0
2018-12-03 16:51:45 GMT 44.303162 1.303622 36,000 356 388 0
2018-12-03 16:51:41 GMT 44.295456 1.304430 36,000 356 388 0
2018-12-03 16:51:38 GMT 44.289890 1.305028 36,000 356 388 0
2018-12-03 16:51:34 GMT 44.283646 1.305738 36,000 356 388 0
2018-12-03 16:51:29 GMT 44.271835 1.306981 36,000 356 388 -64
2018-12-03 16:51:23 GMT 44.263962 1.307765 36,000 356 388 -64
2018-12-03 16:51:19 GMT 44.257141 1.308485 36,000 356 388 -64
2018-12-03 16:51:16 GMT 44.251785 1.309073 36,000 356 388 0
2018-12-03 16:51:09 GMT 44.239056 1.310388 36,000 356 388 0
2018-12-03 16:51:06 GMT 44.231049 1.311231 36,000 356 388 0
2018-12-03 16:50:58 GMT 44.218140 1.312605 35,975 356 388 0
2018-12-03 16:50:54 GMT 44.212051 1.313193 35,975 356 388 0
2018-12-03 16:50:50 GMT 44.205074 1.313938 35,975 356 389 0
2018-12-03 16:50:46 GMT 44.196461 1.314876 35,975 356 389 0
2018-12-03 16:50:39 GMT 44.184494 1.316124 36,000 356 389 0
2018-12-03 16:50:34 GMT 44.173885 1.317182 35,975 356 389 0
2018-12-03 16:50:29 GMT 44.164898 1.318098 35,975 356 390 0
2018-12-03 16:50:23 GMT 44.156113 1.318998 35,975 356 390 0
2018-12-03 16:50:17 GMT 44.145721 1.320084 35,975 356 390 0
2018-12-03 16:50:13 GMT 44.138168 1.320914 35,975 356 390 0
2018-12-03 16:50:08 GMT 44.129379 1.321825 35,975 356 390 0
2018-12-03 16:50:05 GMT 44.122330 1.322511 36,000 356 390 0
2018-12-03 16:50:02 GMT 44.108150 1.323983 36,000 356 390 0
2018-12-03 16:49:56 GMT 44.108150 1.323983 35,975 356 390 0
2018-12-03 16:49:52 GMT 44.099911 1.324833 36,000 356 390 -64
2018-12-03 16:49:43 GMT 44.078686 1.327122 36,000 356 389 0
2018-12-03 16:49:40 GMT 44.078686 1.327122 36,000 356 389 0
2018-12-03 16:49:35 GMT 44.069748 1.328038 36,000 356 389 0
2018-12-03 16:49:32 GMT 44.064194 1.328643 36,000 356 389 -64
2018-12-03 16:49:25 GMT 44.052338 1.329921 36,000 356 389 0
2018-12-03 16:49:19 GMT 44.041767 1.331046 36,000 356 389 0
2018-12-03 16:49:14 GMT 44.032288 1.332092 36,000 356 388 0
2018-12-03 16:49:10 GMT 44.024590 1.332942 36,000 356 388 0
2018-12-03 16:49:03 GMT 44.012604 1.334200 36,000 356 388 0
2018-12-03 16:49:00 GMT 44.006882 1.334839 36,000 356 388 0
2018-12-03 16:48:54 GMT 43.995758 1.336052 36,000 356 388 0
2018-12-03 16:48:48 GMT 43.972313 1.338566 36,000 356 389 0
2018-12-03 16:48:41 GMT 43.972313 1.338566 35,975 356 389 0
2018-12-03 16:48:37 GMT 43.963898 1.339438 35,975 356 389 0
2018-12-03 16:48:32 GMT 43.956905 1.340201 35,975 356 389 0
2018-12-03 16:48:26 GMT 43.945953 1.341354 35,975 356 389 0
2018-12-03 16:48:22 GMT 43.938610 1.342163 35,975 356 389 0
2018-12-03 16:48:18 GMT 43.929672 1.343079 36,000 356 389 0
2018-12-03 16:48:11 GMT 43.919037 1.344228 36,000 356 389 0
2018-12-03 16:48:07 GMT 43.911701 1.344975 36,000 356 390 0
2018-12-03 16:48:01 GMT 43.900406 1.346145 36,000 356 390 0
2018-12-03 16:47:55 GMT 43.891220 1.347068 36,000 356 390 0
2018-12-03 16:47:50 GMT 43.882233 1.347983 36,000 356 390 0
2018-12-03 16:47:43 GMT 43.869663 1.349226 35,975 356 390 0
2018-12-03 16:47:40 GMT 43.863007 1.349913 35,975 357 389 0
2018-12-03 16:47:33 GMT 43.849686 1.351191 36,000 357 389 0
2018-12-03 16:47:29 GMT 43.843231 1.351829 36,000 357 389 0
2018-12-03 16:47:24 GMT 43.834946 1.352660 36,000 357 388 -64
2018-12-03 16:47:21 GMT 43.829769 1.353149 36,000 357 388 0
2018-12-03 16:47:16 GMT 43.820618 1.354001 36,000 356 389 0
2018-12-03 16:47:13 GMT 43.814362 1.354653 35,975 356 388 -64
2018-12-03 16:47:09 GMT 43.807892 1.355307 35,975 356 388 -64
2018-12-03 16:47:06 GMT 43.802719 1.355853 35,975 356 388 0
2018-12-03 16:47:01 GMT 43.792854 1.356877 35,975 356 388 -64
2018-12-03 16:46:56 GMT 43.784660 1.357792 36,000 356 387 0
2018-12-03 16:46:52 GMT 43.777313 1.358600 36,000 356 387 0
2018-12-03 16:46:49 GMT 43.772137 1.359166 36,000 356 387 0
2018-12-03 16:46:40 GMT 43.754105 1.361027 36,000 356 387 -64
2018-12-03 16:46:31 GMT 43.740017 1.362435 36,000 356 387 0
2018-12-03 16:46:28 GMT 43.734467 1.363007 36,000 356 387 0
2018-12-03 16:46:17 GMT 43.715389 1.364986 36,000 356 388 0
2018-12-03 16:46:08 GMT 43.699814 1.366520 35,975 356 388 0
2018-12-03 16:45:58 GMT 43.681732 1.368321 35,975 356 389 0
2018-12-03 16:45:53 GMT 43.672005 1.369367 36,000 356 390 0
2018-12-03 16:45:50 GMT 43.663925 1.370161 35,975 356 390 0
2018-12-03 16:45:47 GMT 43.643784 1.372205 35,975 356 391 -64
2018-12-03 16:45:37 GMT 43.643784 1.372205 35,975 356 391 -64
2018-12-03 16:45:29 GMT 43.623642 1.374313 35,975 356 392 0
2018-12-03 16:45:16 GMT 43.606339 1.376101 35,975 356 392 0
2018-12-03 16:45:06 GMT 43.586792 1.378018 35,975 356 392 0
2018-12-03 16:44:56 GMT 43.566925 1.379998 35,975 356 392 0
2018-12-03 16:44:49 GMT 43.554413 1.381269 36,000 356 392 0
2018-12-03 16:44:45 GMT 43.548798 1.381850 36,000 356 393 0
2018-12-03 16:44:35 GMT 43.531231 1.383689 36,000 356 393 0
2018-12-03 16:44:32 GMT 43.525635 1.384277 36,000 356 393 0
2018-12-03 16:44:25 GMT 43.512222 1.385746 36,000 356 393 0
2018-12-03 16:44:22 GMT 43.507347 1.386239 36,000 356 393 0
2018-12-03 16:44:15 GMT 43.493729 1.387663 35,975 356 394 0
2018-12-03 16:44:11 GMT 43.487377 1.388266 36,000 356 398 0
2018-12-03 16:44:02 GMT 43.472111 1.389836 35,975 356 395 0
2018-12-03 16:43:54 GMT 43.455505 1.391495 35,975 356 396 0
2018-12-03 16:43:42 GMT 43.434029 1.393563 35,975 356 397 0
2018-12-03 16:43:32 GMT 43.416477 1.395198 36,000 356 397 0
2018-12-03 16:43:22 GMT 43.397552 1.397116 36,000 356 399 0
2018-12-03 16:43:12 GMT 43.378632 1.399057 36,000 356 398 0
2018-12-03 16:43:03 GMT 43.362305 1.400821 35,975 356 399 0
2018-12-03 16:42:53 GMT 43.343903 1.402801 36,000 356 399 0
2018-12-03 16:42:49 GMT 43.338364 1.403376 36,000 356 399 0
2018-12-03 16:42:41 GMT 43.316299 1.405675 36,000 356 399 0
2018-12-03 16:42:30 GMT 43.302338 1.407144 36,000 356 399 0
2018-12-03 16:42:26 GMT 43.292358 1.408230 36,000 356 399 0
2018-12-03 16:42:21 GMT 43.286499 1.408869 36,000 356 399 0
2018-12-03 16:42:17 GMT 43.278545 1.409651 36,000 356 399 0
2018-12-03 16:42:09 GMT 43.263290 1.411296 36,000 356 400 0
2018-12-03 16:42:06 GMT 43.258118 1.411807 36,000 356 400 0
2018-12-03 16:42:01 GMT 43.248917 1.412765 36,000 356 400 0
2018-12-03 16:41:58 GMT 43.243538 1.413247 36,000 356 400 -64
2018-12-03 16:41:55 GMT 43.238937 1.413723 36,000 356 400 0
2018-12-03 16:41:51 GMT 43.230270 1.414621 36,000 356 400 0
2018-12-03 16:41:48 GMT 43.224731 1.415144 36,000 356 401 0
2018-12-03 16:41:44 GMT 43.218246 1.415831 36,000 356 401 0
2018-12-03 16:41:40 GMT 43.210876 1.416534 35,975 356 401 0
2018-12-03 16:41:35 GMT 43.198521 1.417825 36,000 356 401 0
2018-12-03 16:41:30 GMT 43.191650 1.418514 36,000 356 401 0
2018-12-03 16:41:25 GMT 43.182602 1.419394 36,000 356 401 0
2018-12-03 16:41:19 GMT 43.172058 1.420430 36,000 356 402 0
2018-12-03 16:41:15 GMT 43.163326 1.421356 35,975 356 402 0
2018-12-03 16:41:09 GMT 43.152992 1.422403 35,975 356 402 0
2018-12-03 16:41:05 GMT 43.144894 1.423187 36,000 356 402 0
2018-12-03 16:40:59 GMT 43.134048 1.424299 36,000 356 402 0
2018-12-03 16:40:54 GMT 43.125320 1.425157 36,000 356 403 0
2018-12-03 16:40:51 GMT 43.120514 1.425668 36,000 356 403 0
2018-12-03 16:40:48 GMT 43.114197 1.426306 36,000 356 403 0
2018-12-03 16:40:41 GMT 43.101562 1.427584 35,975 356 403 0
2018-12-03 16:40:38 GMT 43.095825 1.428157 35,975 356 403 0
2018-12-03 16:40:33 GMT 43.086319 1.429117 35,975 356 403 0
2018-12-03 16:40:28 GMT 43.077026 1.430075 35,975 356 403 0
2018-12-03 16:40:22 GMT 43.066635 1.431161 36,000 356 404 0
2018-12-03 16:40:18 GMT 43.056026 1.432212 35,975 356 404 0
2018-12-03 16:40:13 GMT 43.047638 1.433077 35,975 356 404 -64
2018-12-03 16:40:09 GMT 43.040176 1.433844 36,000 356 403 -64
2018-12-03 16:40:06 GMT 43.036659 1.434239 36,000 356 403 0
2018-12-03 16:40:02 GMT 43.027542 1.435185 36,000 356 403 0
2018-12-03 16:39:57 GMT 43.018456 1.436135 36,000 356 403 0
2018-12-03 16:39:49 GMT 43.005249 1.437484 36,000 356 403 0
2018-12-03 16:39:46 GMT 42.998932 1.438187 35,975 356 403 0
2018-12-03 16:39:38 GMT 42.983322 1.439784 35,975 356 403 0
2018-12-03 16:39:30 GMT 42.969177 1.441253 36,000 356 403 0
2018-12-03 16:39:25 GMT 42.960129 1.442217 36,000 356 402 0
2018-12-03 16:39:19 GMT 42.948769 1.443394 36,000 356 402 0
2018-12-03 16:39:15 GMT 42.940430 1.444255 36,000 356 402 0
2018-12-03 16:39:09 GMT 42.929810 1.445341 36,000 356 402 0
2018-12-03 16:39:05 GMT 42.921890 1.446107 36,000 356 402 0
2018-12-03 16:38:57 GMT 42.906498 1.447645 36,000 356 402 0
2018-12-03 16:38:54 GMT 42.902618 1.448024 36,000 356 402 0
2018-12-03 16:38:46 GMT 42.888111 1.449411 36,000 357 401 0
2018-12-03 16:38:43 GMT 42.882111 1.450004 36,000 357 401 0
2018-12-03 16:38:40 GMT 42.875839 1.450579 36,000 357 400 0
2018-12-03 16:38:36 GMT 42.868233 1.451307 36,000 357 400 0
2018-12-03 16:38:33 GMT 42.862740 1.451765 36,000 357 400 0
2018-12-03 16:38:29 GMT 42.855991 1.452419 36,000 357 400 0
2018-12-03 16:38:26 GMT 42.845238 1.453334 36,000 357 399 0
2018-12-03 16:38:19 GMT 42.837616 1.453964 36,000 357 399 0
2018-12-03 16:38:15 GMT 42.829742 1.454666 36,000 357 399 0
2018-12-03 16:38:12 GMT 42.824566 1.455100 36,000 357 398 0
2018-12-03 16:38:09 GMT 42.818115 1.455625 36,000 357 398 0
2018-12-03 16:38:05 GMT 42.810379 1.456199 36,000 357 398 0
2018-12-03 16:38:01 GMT 42.803944 1.456774 36,000 357 397 0
2018-12-03 16:37:55 GMT 42.792538 1.457732 36,000 357 396 0
2018-12-03 16:37:50 GMT 42.784065 1.458435 36,000 357 395 0
2018-12-03 16:37:44 GMT 42.773392 1.459434 36,000 356 394 0
2018-12-03 16:37:41 GMT 42.760883 1.460798 36,000 356 393 -64
2018-12-03 16:37:37 GMT 42.760883 1.460798 36,000 355 392 -64
2018-12-03 16:37:33 GMT 42.753479 1.461681 36,000 354 390 -128
2018-12-03 16:37:30 GMT 42.747246 1.462587 36,000 354 388 -64
2018-12-03 16:37:27 GMT 42.742588 1.463353 36,000 354 387 0
2018-12-03 16:37:24 GMT 42.730717 1.465206 36,000 354 387 0
2018-12-03 16:37:20 GMT 42.730717 1.465206 36,000 354 386 0
2018-12-03 16:37:17 GMT 42.725506 1.466036 36,000 354 386 0
2018-12-03 16:37:13 GMT 42.716995 1.467424 35,975 354 387 0
2018-12-03 16:37:10 GMT 42.711868 1.468235 36,000 354 386 0
2018-12-03 16:37:07 GMT 42.707245 1.468922 35,975 354 387 0
2018-12-03 16:37:03 GMT 42.697998 1.470420 35,975 354 387 0
2018-12-03 16:36:59 GMT 42.693432 1.471082 35,975 354 387 0
2018-12-03 16:36:56 GMT 42.688385 1.471918 35,975 354 388 0
2018-12-03 16:36:52 GMT 42.679977 1.473190 35,975 354 389 0
2018-12-03 16:36:49 GMT 42.674469 1.474041 35,975 354 389 0
2018-12-03 16:36:46 GMT 42.670341 1.474723 35,975 354 389 0
2018-12-03 16:36:42 GMT 42.660919 1.476163 35,975 354 389 -64
2018-12-03 16:36:39 GMT 42.656189 1.476895 35,975 354 389 -64
2018-12-03 16:36:35 GMT 42.650482 1.477848 35,975 354 389 -64
2018-12-03 16:36:31 GMT 42.642082 1.479194 36,000 354 389 0
2018-12-03 16:36:26 GMT 42.632771 1.480535 36,000 356 391 128
2018-12-03 16:36:23 GMT 42.626999 1.481238 36,000 357 393 128
2018-12-03 16:36:18 GMT 42.618759 1.481906 36,000 358 396 128
2018-12-03 16:36:14 GMT 42.611217 1.482260 36,000 0 399 128
2018-12-03 16:36:10 GMT 42.603863 1.482388 36,000 2 405 0
2018-12-03 16:36:05 GMT 42.594925 1.482196 35,975 2 404 0
2018-12-03 16:36:02 GMT 42.588684 1.481843 35,975 2 405 0
2018-12-03 16:35:59 GMT 42.584290 1.481594 35,975 2 405 0
2018-12-03 16:35:55 GMT 42.573441 1.480970 36,000 2 405 0
2018-12-03 16:35:52 GMT 42.569836 1.480791 36,000 2 404 -64
2018-12-03 16:35:49 GMT 42.564514 1.480470 36,000 2 404 0
2018-12-03 16:35:46 GMT 42.560532 1.480283 36,000 2 404 0
2018-12-03 16:35:42 GMT 42.550644 1.479721 36,000 2 403 0
2018-12-03 16:35:38 GMT 42.543961 1.479347 36,000 2 403 0
2018-12-03 16:35:35 GMT 42.540161 1.479159 36,000 2 402 0
2018-12-03 16:35:31 GMT 42.532059 1.478722 36,000 2 402 0
2018-12-03 16:35:25 GMT 42.521091 1.478108 36,000 2 401 0
2018-12-03 16:35:21 GMT 42.512741 1.477661 36,000 2 401 0
2018-12-03 16:35:18 GMT 42.506245 1.477278 36,000 2 401 0
2018-12-03 16:35:13 GMT 42.496811 1.476725 36,000 2 402 0
2018-12-03 16:35:10 GMT 42.492882 1.476511 36,000 2 402 0
2018-12-03 16:35:07 GMT 42.486420 1.476163 35,975 2 402 0
2018-12-03 16:35:04 GMT 42.482407 1.475937 35,975 2 402 0
2018-12-03 16:35:01 GMT 42.474518 1.475476 35,975 2 402 0
2018-12-03 16:34:54 GMT 42.463211 1.474852 35,975 2 403 0
2018-12-03 16:34:49 GMT 42.454384 1.474404 35,975 2 403 0
2018-12-03 16:34:42 GMT 42.438000 1.473445 35,975 2 403 0
2018-12-03 16:34:38 GMT 42.434135 1.473254 35,975 2 404 0
2018-12-03 16:34:33 GMT 42.424759 1.472730 36,000 2 404 0
2018-12-03 16:34:28 GMT 42.414505 1.472168 36,000 2 404 0
2018-12-03 16:34:23 GMT 42.405411 1.471657 36,000 2 405 0
2018-12-03 16:34:20 GMT 42.400383 1.471401 36,000 2 405 0
2018-12-03 16:34:17 GMT 42.394520 1.471082 36,000 2 405 0
2018-12-03 16:34:13 GMT 42.386326 1.470635 36,000 2 405 0
2018-12-03 16:34:10 GMT 42.381088 1.470295 36,000 2 405 0
2018-12-03 16:34:06 GMT 42.374126 1.469932 35,975 2 407 0
2018-12-03 16:34:00 GMT 42.362000 1.469234 35,975 2 406 0
2018-12-03 16:33:56 GMT 42.354218 1.468797 35,975 2 406 0
2018-12-03 16:33:49 GMT 42.342335 1.468144 35,975 2 407 0
2018-12-03 16:33:43 GMT 42.330601 1.467569 35,975 2 407 0
2018-12-03 16:33:39 GMT 42.323364 1.467112 35,975 2 407 0
2018-12-03 16:33:34 GMT 42.314121 1.466611 36,000 2 408 0
2018-12-03 16:33:29 GMT 42.293930 1.465489 35,975 2 408 0
2018-12-03 16:33:24 GMT 42.293930 1.465489 35,975 2 408 0
2018-12-03 16:33:20 GMT 42.287773 1.465142 35,975 2 408 0
2018-12-03 16:33:16 GMT 42.278870 1.464677 35,975 2 408 0
2018-12-03 16:33:13 GMT 42.274338 1.464428 35,975 2 408 0
2018-12-03 16:33:10 GMT 42.267929 1.464053 35,975 2 408 0
2018-12-03 16:33:07 GMT 42.262253 1.463741 35,975 2 409 0
2018-12-03 16:33:00 GMT 42.248436 1.462970 35,975 2 409 0
2018-12-03 16:32:57 GMT 42.242798 1.462680 35,975 2 409 0
2018-12-03 16:32:52 GMT 42.233353 1.462140 35,975 2 409 0
2018-12-03 16:32:47 GMT 42.224350 1.461681 35,975 2 409 0
2018-12-03 16:32:41 GMT 42.213711 1.461054 35,975 2 409 0
2018-12-03 16:32:37 GMT 42.204445 1.460543 36,000 2 409 0
2018-12-03 16:32:32 GMT 42.195328 1.460058 36,000 2 409 0
2018-12-03 16:32:29 GMT 42.188278 1.459684 36,000 2 409 0
2018-12-03 16:32:26 GMT 42.185028 1.459434 36,000 2 409 0
2018-12-03 16:32:20 GMT 42.172508 1.458754 36,000 2 410 0
2018-12-03 16:32:16 GMT 42.164921 1.458307 36,000 2 410 0
2018-12-03 16:32:11 GMT 42.155640 1.457811 36,000 2 412 0
2018-12-03 16:32:06 GMT 42.145370 1.457221 35,975 2 411 0
2018-12-03 16:31:59 GMT 42.133392 1.456500 35,975 2 413 0
2018-12-03 16:31:55 GMT 42.125168 1.456008 35,975 2 413 0
2018-12-03 16:31:47 GMT 42.110317 1.455177 35,975 2 414 0
2018-12-03 16:31:44 GMT 42.105289 1.454858 35,975 2 414 0
2018-12-03 16:31:37 GMT 42.090904 1.454028 36,000 2 415 0
2018-12-03 16:31:25 GMT 42.066696 1.452623 36,000 2 416 0
2018-12-03 16:31:14 GMT 42.046463 1.451569 36,000 2 416 0
2018-12-03 16:31:06 GMT 42.031082 1.450695 35,975 2 416 0
2018-12-03 16:31:02 GMT 42.021652 1.450258 35,975 2 416 0
2018-12-03 16:30:54 GMT 42.008560 1.449509 36,000 2 416 -64
2018-12-03 16:30:48 GMT 41.996429 1.448884 36,000 2 416 -64
2018-12-03 16:30:43 GMT 41.986908 1.448323 36,000 2 416 0
2018-12-03 16:30:33 GMT 41.965530 1.447199 36,000 2 416 0
2018-12-03 16:30:24 GMT 41.952026 1.446450 35,975 2 416 0
2018-12-03 16:30:21 GMT 41.942780 1.445951 36,000 2 416 0
2018-12-03 16:30:15 GMT 41.931881 1.445341 36,000 2 416 0
2018-12-03 16:30:12 GMT 41.927811 1.445077 36,000 2 416 0
2018-12-03 16:30:00 GMT 41.905243 1.443828 35,975 2 416 0
2018-12-03 16:29:55 GMT 41.894577 1.443266 36,000 2 415 0
2018-12-03 16:29:52 GMT 41.887844 1.442914 35,975 2 415 0
2018-12-03 16:29:48 GMT 41.882771 1.442594 36,000 2 415 0
2018-12-03 16:29:43 GMT 41.871735 1.442018 36,000 2 415 0
2018-12-03 16:29:39 GMT 41.864731 1.441643 36,000 2 415 0
2018-12-03 16:29:34 GMT 41.854660 1.441082 36,000 2 416 0
2018-12-03 16:29:31 GMT 41.848709 1.440832 35,975 2 415 0
2018-12-03 16:29:28 GMT 41.843399 1.440520 35,975 2 415 0
2018-12-03 16:29:23 GMT 41.827698 1.439656 35,975 2 415 0
2018-12-03 16:29:20 GMT 41.827698 1.439656 35,975 2 415 0
2018-12-03 16:29:17 GMT 41.820786 1.439271 35,975 2 415 0
2018-12-03 16:29:14 GMT 41.814941 1.438953 35,975 2 416 0
2018-12-03 16:29:10 GMT 41.808891 1.438634 35,975 2 416 0
2018-12-03 16:29:07 GMT 41.802837 1.438315 35,975 2 416 0
2018-12-03 16:29:03 GMT 41.795761 1.437932 35,975 2 417 0
2018-12-03 16:29:00 GMT 41.789474 1.437586 35,975 2 417 0
2018-12-03 16:28:56 GMT 41.782215 1.437165 35,975 2 417 0
2018-12-03 16:28:53 GMT 41.775650 1.436775 35,975 2 419 0
2018-12-03 16:28:49 GMT 41.768921 1.436400 35,975 2 420 0
2018-12-03 16:28:45 GMT 41.761642 1.435963 35,975 2 420 0
2018-12-03 16:28:42 GMT 41.754684 1.435588 35,975 2 422 -64
2018-12-03 16:28:39 GMT 41.748745 1.435249 36,000 2 423 0
2018-12-03 16:28:35 GMT 41.740459 1.434802 36,000 2 423 0
2018-12-03 16:28:32 GMT 41.734592 1.434482 36,000 2 423 0
2018-12-03 16:28:29 GMT 41.728680 1.434163 36,000 2 423 0
2018-12-03 16:28:25 GMT 41.721790 1.433780 36,000 2 423 0
2018-12-03 16:28:22 GMT 41.715366 1.433460 36,000 2 423 0
2018-12-03 16:28:19 GMT 41.709000 1.433092 36,000 2 423 0
2018-12-03 16:28:14 GMT 41.694077 1.432280 36,000 2 422 0
2018-12-03 16:28:11 GMT 41.694077 1.432280 36,000 2 422 0
2018-12-03 16:28:08 GMT 41.688950 1.432030 36,000 2 422 0
2018-12-03 16:28:03 GMT 41.677986 1.431416 36,000 2 421 0
2018-12-03 16:27:58 GMT 41.668488 1.430907 36,000 2 421 0
2018-12-03 16:27:52 GMT 41.657784 1.430330 36,000 2 421 0
2018-12-03 16:27:48 GMT 41.648098 1.429756 36,000 2 421 0
2018-12-03 16:27:41 GMT 41.627609 1.428660 35,975 2 420 0
2018-12-03 16:27:37 GMT 41.627609 1.428660 35,975 2 420 0
2018-12-03 16:27:31 GMT 41.615791 1.427967 35,975 2 420 0
2018-12-03 16:27:27 GMT 41.608017 1.427584 35,975 2 420 0
2018-12-03 16:27:21 GMT 41.594971 1.426787 35,975 2 420 0
2018-12-03 16:27:18 GMT 41.590988 1.426600 35,975 2 420 0
2018-12-03 16:27:15 GMT 41.586136 1.426288 35,975 2 420 0
2018-12-03 16:27:11 GMT 41.571167 1.425414 35,975 2 420 0
2018-12-03 16:27:08 GMT 41.571167 1.425414 35,975 2 420 0
2018-12-03 16:27:05 GMT 41.565399 1.425102 35,975 2 420 0
2018-12-03 16:27:01 GMT 41.558212 1.424665 36,000 2 420 0
2018-12-03 16:26:58 GMT 41.550842 1.424290 36,000 2 419 0
2018-12-03 16:26:55 GMT 41.545918 1.424007 36,000 2 419 0
2018-12-03 16:26:48 GMT 41.525620 1.422921 36,000 2 419 0
2018-12-03 16:26:45 GMT 41.525620 1.422921 36,000 2 419 0
2018-12-03 16:26:37 GMT 41.510788 1.422105 36,000 2 418 0
2018-12-03 16:26:34 GMT 41.505928 1.421835 36,000 2 418 0
2018-12-03 16:26:29 GMT 41.495502 1.421260 36,000 2 418 0
2018-12-03 16:26:26 GMT 41.488358 1.420919 36,000 2 418 0
2018-12-03 16:26:23 GMT 41.485447 1.420749 36,000 2 418 0
2018-12-03 16:26:13 GMT 41.465008 1.419600 36,000 2 417 0
2018-12-03 16:26:06 GMT 41.451324 1.418797 36,000 2 411 0
2018-12-03 16:26:03 GMT 41.445923 1.418547 36,000 2 416 0
2018-12-03 16:25:58 GMT 41.434387 1.417923 35,975 2 416 0
2018-12-03 16:25:52 GMT 41.425766 1.417428 36,000 2 415 0
2018-12-03 16:25:45 GMT 41.410774 1.416534 36,000 2 414 64
2018-12-03 16:25:42 GMT 41.406006 1.416300 36,000 2 414 64
2018-12-03 16:25:36 GMT 41.391876 1.415512 35,975 2 412 0
2018-12-03 16:25:32 GMT 41.385956 1.415161 35,975 2 412 0
2018-12-03 16:25:25 GMT 41.373734 1.414490 35,975 2 411 0
2018-12-03 16:25:22 GMT 41.366913 1.414124 35,975 2 411 0
2018-12-03 16:25:17 GMT 41.359360 1.413696 35,975 2 411 0
2018-12-03 16:25:11 GMT 41.347324 1.412992 35,975 2 411 0
2018-12-03 16:25:01 GMT 41.327446 1.411930 35,975 2 410 0
2018-12-03 16:24:53 GMT 41.313065 1.411119 36,000 2 409 0
2018-12-03 16:24:50 GMT 41.307266 1.410828 36,000 2 409 0
2018-12-03 16:24:47 GMT 41.299423 1.410432 36,000 2 409 0
2018-12-03 16:24:40 GMT 41.288391 1.409870 36,000 2 409 0
2018-12-03 16:24:32 GMT 41.272980 1.409058 36,000 2 408 0
2018-12-03 16:24:29 GMT 41.268265 1.408813 36,000 2 408 0
2018-12-03 16:24:25 GMT 41.259762 1.408372 36,000 2 408 0
2018-12-03 16:24:20 GMT 41.248821 1.407873 36,000 2 408 0
2018-12-03 16:24:08 GMT 41.228432 1.406874 35,975 1 407 0
2018-12-03 16:24:00 GMT 41.211067 1.405688 35,975 7 413 192
2018-12-03 16:23:57 GMT 41.207390 1.405314 35,975 5 410 192
2018-12-03 16:23:53 GMT 41.198776 1.404053 36,000 10 418 192
2018-12-03 16:23:50 GMT 41.191910 1.402893 36,000 9 416 192
2018-12-03 16:23:47 GMT 41.187332 1.401978 36,000 9 416 192
2018-12-03 16:23:38 GMT 41.169960 1.397511 36,000 13 424 192
2018-12-03 16:23:28 GMT 41.150082 1.390644 35,975 15 428 0
2018-12-03 16:23:25 GMT 41.146919 1.389458 35,975 15 428 0
2018-12-03 16:23:21 GMT 41.138447 1.386337 35,975 15 428 0
2018-12-03 16:23:18 GMT 41.132584 1.384277 35,975 15 428 0
2018-12-03 16:23:15 GMT 41.126991 1.382280 35,975 15 428 0
2018-12-03 16:23:10 GMT 41.117111 1.378723 35,975 15 428 0
2018-12-03 16:23:06 GMT 41.101730 1.373169 35,975 15 428 0
2018-12-03 16:23:02 GMT 41.101730 1.373169 35,975 15 428 0
2018-12-03 16:22:56 GMT 41.090332 1.369019 35,975 15 428 0
2018-12-03 16:22:53 GMT 41.085377 1.367236 36,000 15 428 -64
2018-12-03 16:22:47 GMT 41.071503 1.362180 36,000 15 428 -64
2018-12-03 16:22:43 GMT 41.065453 1.360057 36,000 15 428 -64
2018-12-03 16:22:35 GMT 41.051022 1.354752 36,000 15 427 0
2018-12-03 16:22:31 GMT 41.042313 1.351685 36,000 15 427 0
2018-12-03 16:22:24 GMT 41.030136 1.347290 36,000 15 427 0
2018-12-03 16:22:19 GMT 41.017735 1.342767 36,000 15 425 0
2018-12-03 16:22:15 GMT 41.011639 1.340582 36,000 15 426 0
2018-12-03 16:22:08 GMT 40.998917 1.335999 36,000 15 425 0
2018-12-03 16:22:04 GMT 40.990906 1.333130 36,000 15 425 0
2018-12-03 16:21:59 GMT 40.981384 1.329651 36,000 15 425 0
2018-12-03 16:21:53 GMT 40.971130 1.325989 36,000 15 425 0
2018-12-03 16:21:50 GMT 40.964108 1.323478 35,975 15 426 0
2018-12-03 16:21:42 GMT 40.950211 1.318481 36,000 15 425 0
2018-12-03 16:21:36 GMT 40.938599 1.314302 36,000 15 426 0
2018-12-03 16:21:33 GMT 40.932125 1.311992 36,000 15 426 0
2018-12-03 16:21:27 GMT 40.920719 1.307872 36,000 15 426 0
2018-12-03 16:21:23 GMT 40.911224 1.304502 35,975 15 426 0
2018-12-03 16:21:15 GMT 40.899029 1.300132 35,975 15 426 0
2018-12-03 16:21:12 GMT 40.892349 1.297729 35,975 15 426 0
2018-12-03 16:21:09 GMT 40.886459 1.295638 35,975 15 426 0
2018-12-03 16:21:05 GMT 40.880127 1.293396 35,975 15 426 0
2018-12-03 16:21:02 GMT 40.873306 1.290894 35,975 15 426 0
2018-12-03 16:20:59 GMT 40.867001 1.288646 35,975 15 426 0
2018-12-03 16:20:55 GMT 40.859364 1.285900 36,000 15 427 0
2018-12-03 16:20:52 GMT 40.853870 1.283965 36,000 15 427 0
2018-12-03 16:20:48 GMT 40.846573 1.281311 36,000 15 426 0
2018-12-03 16:20:45 GMT 40.838562 1.278442 36,000 15 426 0
2018-12-03 16:20:42 GMT 40.833435 1.276599 36,000 15 426 0
2018-12-03 16:20:35 GMT 40.822308 1.272666 36,000 15 426 0
2018-12-03 16:20:32 GMT 40.814529 1.269836 36,000 15 426 0
2018-12-03 16:20:29 GMT 40.810364 1.268372 36,000 15 426 0
2018-12-03 16:20:23 GMT 40.799423 1.264404 36,000 15 426 0
2018-12-03 16:20:20 GMT 40.792694 1.262024 36,000 15 426 0
2018-12-03 16:20:16 GMT 40.785965 1.259583 36,000 15 426 0
2018-12-03 16:20:11 GMT 40.776077 1.256042 36,000 15 426 0
2018-12-03 16:20:08 GMT 40.765236 1.252192 36,000 23 438 128
2018-12-03 16:20:02 GMT 40.758720 1.249882 36,000 15 426 64
2018-12-03 16:19:59 GMT 40.751457 1.247198 36,000 16 428 128
2018-12-03 16:19:49 GMT 40.734650 1.240234 36,000 19 433 128
2018-12-03 16:19:46 GMT 40.728413 1.237335 35,975 20 434 128
2018-12-03 16:19:38 GMT 40.713135 1.229492 35,975 23 438 128
2018-12-03 16:19:35 GMT 40.708374 1.226685 36,000 32 455 0
2018-12-03 16:19:28 GMT 40.694229 1.218140 35,975 26 444 128
2018-12-03 16:19:25 GMT 40.689915 1.215300 36,000 28 448 64
2018-12-03 16:19:18 GMT 40.676086 1.205437 36,000 30 451 128
2018-12-03 16:19:14 GMT 40.657425 1.190430 36,000 31 454 0
2018-12-03 16:19:07 GMT 40.657425 1.190430 36,000 31 454 0
2018-12-03 16:19:03 GMT 40.650604 1.184875 36,000 31 455 0
2018-12-03 16:18:57 GMT 40.639267 1.175662 36,000 31 455 0
2018-12-03 16:18:53 GMT 40.631973 1.169678 36,000 32 455 0
2018-12-03 16:18:46 GMT 40.619797 1.159729 36,000 32 455 0
2018-12-03 16:18:42 GMT 40.613197 1.154251 36,000 32 456 0
2018-12-03 16:18:36 GMT 40.601212 1.144409 35,975 32 456 0
2018-12-03 16:18:33 GMT 40.596909 1.140869 35,975 31 457 0
2018-12-03 16:18:27 GMT 40.585098 1.131226 35,975 31 457 0
2018-12-03 16:18:23 GMT 40.578423 1.125787 35,975 31 457 0
2018-12-03 16:18:16 GMT 40.564590 1.114624 35,975 31 457 0
2018-12-03 16:18:13 GMT 40.559708 1.110680 35,975 31 457 0
2018-12-03 16:18:05 GMT 40.545650 1.099319 35,975 31 457 0
2018-12-03 16:18:02 GMT 40.540249 1.095012 35,975 31 457 0
2018-12-03 16:17:57 GMT 40.530846 1.087397 35,975 31 457 -64
2018-12-03 16:17:54 GMT 40.519672 1.078408 36,000 31 458 0
2018-12-03 16:17:43 GMT 40.505241 1.066735 36,000 31 458 0
2018-12-03 16:17:36 GMT 40.493546 1.057251 36,000 31 458 0
2018-12-03 16:17:33 GMT 40.488098 1.052856 36,000 31 458 0
2018-12-03 16:17:30 GMT 40.483597 1.049257 36,000 31 458 0
2018-12-03 16:17:26 GMT 40.475143 1.042358 35,975 31 459 0
2018-12-03 16:17:22 GMT 40.468277 1.036804 35,975 31 458 0
2018-12-03 16:17:19 GMT 40.461250 1.031092 35,975 31 458 0
2018-12-03 16:17:15 GMT 40.455803 1.026722 35,975 31 459 0
2018-12-03 16:17:12 GMT 40.449875 1.021912 35,975 31 459 0
2018-12-03 16:17:04 GMT 40.436298 1.010992 35,975 31 459 0
2018-12-03 16:17:01 GMT 40.431061 1.006775 36,000 31 459 0
2018-12-03 16:16:55 GMT 40.418236 0.996385 36,000 31 459 0
2018-12-03 16:16:51 GMT 40.410461 0.990112 35,975 31 459 0
2018-12-03 16:16:45 GMT 40.402496 0.983704 35,975 31 461 0
2018-12-03 16:16:42 GMT 40.393799 0.976685 35,975 31 461 0
2018-12-03 16:16:31 GMT 40.375992 0.962341 36,000 31 461 -128
2018-12-03 16:16:20 GMT 40.356880 0.947009 35,975 31 461 384
2018-12-03 16:16:08 GMT 40.333977 0.928657 35,900 31 461 832
2018-12-03 16:15:59 GMT 40.318130 0.915894 35,750 31 462 832
2018-12-03 16:15:56 GMT 40.312683 0.911499 35,700 31 462 768
2018-12-03 16:15:49 GMT 40.299545 0.901001 35,575 31 463 768
2018-12-03 16:15:46 GMT 40.295151 0.897461 35,575 31 463 768
2018-12-03 16:15:38 GMT 40.260086 0.869385 35,400 31 464 768
2018-12-03 16:15:27 GMT 40.260086 0.869385 35,325 31 464 768
2018-12-03 16:15:24 GMT 40.254791 0.865173 35,275 31 464 768
2018-12-03 16:15:16 GMT 40.240128 0.853438 35,150 31 465 896
2018-12-03 16:15:07 GMT 40.222111 0.839081 35,025 31 465 896
2018-12-03 16:14:56 GMT 40.203026 0.823850 34,850 31 466 896
2018-12-03 16:14:46 GMT 40.184635 0.809243 34,700 31 466 960
2018-12-03 16:14:40 GMT 40.172859 0.799880 34,600 31 466 1024
2018-12-03 16:14:37 GMT 40.166203 0.794636 34,525 31 467 1024
2018-12-03 16:14:25 GMT 40.145370 0.778076 34,325 31 467 1024
2018-12-03 16:14:15 GMT 40.127655 0.763977 34,150 31 468 1088
2018-12-03 16:14:04 GMT 40.107128 0.747695 33,950 31 469 1088
2018-12-03 16:13:53 GMT 40.087063 0.731777 33,725 31 470 1280
2018-12-03 16:13:42 GMT 40.056381 0.707275 33,500 31 472 1216
2018-12-03 16:13:34 GMT 40.049450 0.701814 33,300 31 474 1344
2018-12-03 16:13:28 GMT 40.039349 0.693762 33,000 31 476 1216
2018-12-03 16:13:22 GMT 40.028320 0.684937 33,050 31 475 1216
2018-12-03 16:13:12 GMT 39.999390 0.661865 32,875 31 476 1024
2018-12-03 16:13:02 GMT 39.990372 0.654663 32,675 31 476 896
2018-12-03 16:12:51 GMT 39.969891 0.638331 32,525 31 476 896
2018-12-03 16:12:44 GMT 39.956764 0.627844 32,425 31 476 832
2018-12-03 16:12:41 GMT 39.950958 0.623169 32,375 31 476 832
2018-12-03 16:12:33 GMT 39.935577 0.610962 32,225 31 474 704
2018-12-03 16:12:30 GMT 39.930882 0.607244 32,225 31 474 768
2018-12-03 16:12:23 GMT 39.916634 0.595947 32,100 31 473 768
2018-12-03 16:12:19 GMT 39.911224 0.591650 32,100 31 473 832
2018-12-03 16:12:12 GMT 39.890671 0.575469 31,875 31 471 832
2018-12-03 16:12:01 GMT 39.875748 0.563706 31,800 31 471 896
2018-12-03 16:11:58 GMT 39.872040 0.560780 31,775 31 471 896
2018-12-03 16:11:49 GMT 39.852859 0.545715 31,650 31 469 768
2018-12-03 16:11:37 GMT 39.832470 0.529602 31,500 31 467 1088
2018-12-03 16:11:33 GMT 39.824524 0.523284 31,425 31 467 1024
2018-12-03 16:11:27 GMT 39.813812 0.514805 31,300 31 467 960
2018-12-03 16:11:21 GMT 39.802212 0.505554 31,200 31 466 1088
2018-12-03 16:11:17 GMT 39.794678 0.499579 31,050 31 466 1344
2018-12-03 16:11:14 GMT 39.788040 0.494325 31,050 31 466 1216
2018-12-03 16:11:08 GMT 39.778473 0.486742 30,950 31 466 1408
2018-12-03 16:11:04 GMT 39.772369 0.481934 30,875 31 466 1600
2018-12-03 16:10:58 GMT 39.760757 0.472711 30,700 31 468 1472
2018-12-03 16:10:53 GMT 39.750629 0.464661 30,575 31 468 1472
2018-12-03 16:10:48 GMT 39.741737 0.457642 30,450 31 469 1408
2018-12-03 16:10:43 GMT 39.731731 0.449768 30,325 31 469 1536
2018-12-03 16:10:38 GMT 39.723358 0.443155 30,150 31 469 1536
2018-12-03 16:10:32 GMT 39.712364 0.434570 30,075 31 470 1600
2018-12-03 16:10:27 GMT 39.703217 0.427452 29,925 31 471 1536
2018-12-03 16:10:21 GMT 39.692368 0.418973 29,775 31 471 1600
2018-12-03 16:10:18 GMT 39.685085 0.413269 29,600 31 472 1600
2018-12-03 16:10:12 GMT 39.672703 0.403625 29,500 31 474 1792
2018-12-03 16:10:06 GMT 39.663895 0.396702 29,350 31 475 1792
2018-12-03 16:10:01 GMT 39.653893 0.388916 29,200 31 476 1728
2018-12-03 16:09:56 GMT 39.645237 0.382141 29,075 31 477 1728
2018-12-03 16:09:50 GMT 39.633682 0.373177 28,875 31 477 1792
2018-12-03 16:09:46 GMT 39.625763 0.366967 28,675 31 479 1856
2018-12-03 16:09:43 GMT 39.620819 0.363086 28,675 31 479 1856
2018-12-03 16:09:40 GMT 39.612076 0.356279 28,525 31 480 1920
2018-12-03 16:09:35 GMT 39.605255 0.350906 27,850 31 484 1920
2018-12-03 16:09:30 GMT 39.595146 0.343018 28,250 31 481 1856
2018-12-03 16:09:22 GMT 39.577969 0.329590 27,850 31 483 1856
2018-12-03 16:09:18 GMT 39.572021 0.324873 27,700 31 484 1856
2018-12-03 16:09:15 GMT 39.566299 0.320335 27,800 30 484 1536
2018-12-03 16:09:08 GMT 39.552921 0.310303 27,625 28 482 1024
2018-12-03 16:09:03 GMT 39.541351 0.302363 27,500 26 479 960
2018-12-03 16:08:58 GMT 39.531418 0.295974 27,400 24 477 832
2018-12-03 16:08:54 GMT 39.522995 0.291018 27,325 23 476 768
2018-12-03 16:08:49 GMT 39.515121 0.286621 27,200 21 472 1024
2018-12-03 16:08:44 GMT 39.504730 0.281226 27,175 21 470 896
2018-12-03 16:08:37 GMT 39.488308 0.272827 27,025 21 469 1024
2018-12-03 16:08:28 GMT 39.473366 0.265198 26,825 21 468 1088
2018-12-03 16:08:25 GMT 39.465866 0.261403 26,825 21 468 1088
2018-12-03 16:08:22 GMT 39.460648 0.258716 26,775 21 468 1152
2018-12-03 16:08:16 GMT 39.448151 0.252387 26,650 21 467 1024
2018-12-03 16:08:13 GMT 39.442108 0.249282 26,600 21 466 1024
2018-12-03 16:08:06 GMT 39.427231 0.241759 26,475 21 465 1024
2018-12-03 16:08:01 GMT 39.419220 0.237699 26,400 21 465 1088
2018-12-03 16:07:55 GMT 39.405624 0.230773 26,275 21 463 1152
2018-12-03 16:07:51 GMT 39.397247 0.226533 26,200 21 463 1152
2018-12-03 16:07:45 GMT 39.383698 0.219607 26,050 21 462 1216
2018-12-03 16:07:42 GMT 39.380127 0.217816 26,000 21 462 1216
2018-12-03 16:07:37 GMT 39.370766 0.213074 25,925 21 461 1152
2018-12-03 16:07:33 GMT 39.362057 0.208618 25,850 21 460 1280
2018-12-03 16:07:26 GMT 39.349594 0.202292 25,700 21 459 1280
2018-12-03 16:07:23 GMT 39.342865 0.198829 25,625 21 459 1152
2018-12-03 16:07:17 GMT 39.329819 0.192201 25,500 21 457 1536
2018-12-03 16:07:13 GMT 39.321373 0.187927 25,400 21 457 1344
2018-12-03 16:07:04 GMT 39.295815 0.174927 25,125 21 454 1600
2018-12-03 16:06:56 GMT 39.288784 0.171326 25,025 21 454 1472
2018-12-03 16:06:52 GMT 39.279755 0.166748 24,925 21 452 1536
2018-12-03 16:06:45 GMT 39.269028 0.161332 24,800 21 452 1408
2018-12-03 16:06:41 GMT 39.260056 0.156734 24,650 21 452 1984
2018-12-03 16:06:33 GMT 39.235107 0.144076 24,500 21 452 1856
2018-12-03 16:06:25 GMT 39.229294 0.141150 24,225 21 452 1600
2018-12-03 16:06:18 GMT 39.215466 0.134094 24,050 21 451 1536
2018-12-03 16:06:15 GMT 39.208649 0.130701 23,950 21 450 1408
2018-12-03 16:06:08 GMT 39.196243 0.124372 23,800 21 448 1408
2018-12-03 16:06:05 GMT 39.189651 0.121088 23,725 21 449 1472
2018-12-03 16:05:54 GMT 39.169380 0.110840 23,475 21 446 1408
2018-12-03 16:05:48 GMT 39.156143 0.104131 23,175 21 444 1472
2018-12-03 16:05:43 GMT 39.147499 0.099792 23,175 21 444 1536
2018-12-03 16:05:32 GMT 39.116364 0.084069 22,775 21 441 1600
2018-12-03 16:05:23 GMT 39.110275 0.081024 22,700 21 440 1664
2018-12-03 16:05:17 GMT 39.098511 0.075053 22,525 21 439 1664
2018-12-03 16:05:13 GMT 39.089962 0.070801 22,400 21 439 1664
2018-12-03 16:05:06 GMT 39.078461 0.064963 22,250 21 437 1600
2018-12-03 16:05:02 GMT 39.069942 0.060669 21,975 21 435 1472
2018-12-03 16:04:56 GMT 39.058632 0.054993 21,950 21 436 1536
2018-12-03 16:04:53 GMT 39.052628 0.051941 21,875 21 435 1472
2018-12-03 16:04:45 GMT 39.035614 0.043348 21,625 21 433 1600
2018-12-03 16:04:42 GMT 39.032421 0.041748 21,575 21 432 1664
2018-12-03 16:04:32 GMT 39.013229 0.032123 21,150 21 428 1664
2018-12-03 16:04:24 GMT 38.998997 0.024963 21,100 21 428 1856
2018-12-03 16:04:21 GMT 38.994202 0.022583 21,025 21 427 2048
2018-12-03 16:04:11 GMT 38.975769 0.013306 20,725 21 426 1536
2018-12-03 16:04:01 GMT 38.946068 -0.001648 20,175 21 425 2048
2018-12-03 16:03:51 GMT 38.938202 -0.005553 20,025 21 425 1984
2018-12-03 16:03:41 GMT 38.919346 -0.015015 19,675 21 423 1856
2018-12-03 16:03:29 GMT 38.889553 -0.029968 19,175 21 418 1664
2018-12-03 16:03:20 GMT 38.882339 -0.033569 19,075 21 417 1664
2018-12-03 16:03:10 GMT 38.863495 -0.043050 18,750 21 415 2048
2018-12-03 16:02:59 GMT 38.835297 -0.057141 18,225 21 411 1664
2018-12-03 16:02:49 GMT 38.827515 -0.061022 18,100 21 410 1664
2018-12-03 16:02:39 GMT 38.809525 -0.070038 17,825 21 406 1728
2018-12-03 16:02:29 GMT 38.791718 -0.078934 17,450 21 401 1984
2018-12-03 16:02:13 GMT 38.755096 -0.097145 16,800 21 397 1984
2018-12-03 16:02:06 GMT 38.750610 -0.099414 16,725 21 397 1984
2018-12-03 16:01:58 GMT 38.738117 -0.105591 16,125 21 392 2112
2018-12-03 16:01:48 GMT 38.720581 -0.114341 16,100 21 392 2176
2018-12-03 16:01:38 GMT 38.703323 -0.122939 15,725 21 390 2560
2018-12-03 16:01:27 GMT 38.676949 -0.136108 15,100 21 387 2304
2018-12-03 16:01:16 GMT 38.667755 -0.140673 14,875 21 385 2816
2018-12-03 16:01:07 GMT 38.651779 -0.148674 14,400 21 386 3136
2018-12-03 16:00:56 GMT 38.634262 -0.157349 13,275 21 384 2944
2018-12-03 16:00:47 GMT 38.617363 -0.165833 13,500 21 384 3136
2018-12-03 16:00:35 GMT 38.599915 -0.174587 12,975 21 385 2944
2018-12-03 16:00:25 GMT 38.582821 -0.183167 12,525 21 383 2176
2018-12-03 16:00:15 GMT 38.565491 -0.191843 12,150 21 379 2048
2018-12-03 16:00:04 GMT 38.548553 -0.200321 11,825 21 373 1792
2018-12-03 15:59:54 GMT 38.532406 -0.208435 11,575 21 365 896
2018-12-03 15:59:44 GMT 38.516098 -0.216562 11,400 21 352 832
2018-12-03 15:59:34 GMT 38.500763 -0.224145 11,250 21 340 832
2018-12-03 15:59:23 GMT 38.486038 -0.231323 11,075 20 328 896
2018-12-03 15:59:13 GMT 38.471748 -0.238220 10,925 20 316 896
2018-12-03 15:59:03 GMT 38.457966 -0.244812 10,725 20 304 832
2018-12-03 15:58:52 GMT 38.444237 -0.251282 10,575 20 289 1600
2018-12-03 15:58:42 GMT 38.430679 -0.257761 10,125 20 284 3264
2018-12-03 15:58:32 GMT 38.419189 -0.263367 9,675 20 285 2816
2018-12-03 15:58:22 GMT 38.405960 -0.269749 9,175 20 283 2688
2018-12-03 15:58:11 GMT 38.392960 -0.275827 8,725 19 280 2752
2018-12-03 15:58:00 GMT 38.380005 -0.281495 8,250 19 277 2624
2018-12-03 15:57:51 GMT 38.368492 -0.287495 7,875 31 277 3200
2018-12-03 15:57:40 GMT 38.357666 -0.297741 7,400 48 281 3328
2018-12-03 15:57:30 GMT 38.349930 -0.311942 6,900 65 286 3072
2018-12-03 15:57:19 GMT 38.344437 -0.328012 6,375 67 285 3136
2018-12-03 15:57:09 GMT 38.339401 -0.343440 5,875 67 283 2944
2018-12-03 15:57:05 GMT 38.336609 -0.352088 5,600 67 281 2624
2018-12-03 15:56:59 GMT 38.334370 -0.358966 5,400 66 279 2560
2018-12-03 15:56:54 GMT 38.331436 -0.367325 5,150 63 275 2496
2018-12-03 15:56:49 GMT 38.328690 -0.374412 4,950 62 271 2368
2018-12-03 15:56:38 GMT 38.322083 -0.389836 4,475 59 264 3072
2018-12-03 15:56:28 GMT 38.315781 -0.402579 3,950 56 264 3520
2018-12-03 15:56:20 GMT 38.310490 -0.412883 3,500 56 264 3520
2018-12-03 15:56:17 GMT 38.308548 -0.416662 3,350 56 264 3008
2018-12-03 15:56:14 GMT 38.305344 -0.422915 3,125 57 262 2304
2018-12-03 15:56:07 GMT 38.302094 -0.429402 2,950 57 258 1280
2018-12-03 15:56:03 GMT 38.299026 -0.435538 2,825 58 251 1472
2018-12-03 15:55:52 GMT 38.292572 -0.448920 2,450 58 241 2432
2018-12-03 15:55:47 GMT 38.289726 -0.454858 2,275 58 236 1216
2018-12-03 15:55:42 GMT 38.283585 -0.467635 1,925 59 227 768
2018-12-03 15:55:36 GMT 38.283585 -0.467635 2,075 59 221 1472
2018-12-03 15:55:32 GMT 38.280899 -0.473289 1,925 68 211 1856
2018-12-03 15:55:19 GMT 38.275669 -0.485846 1,575 70 211 1600
2018-12-03 15:55:11 GMT 38.273853 -0.495818 1,375 91 201 128
2018-12-03 15:54:59 GMT 38.275017 -0.509790 1,150 100 189 1280
2018-12-03 15:54:50 GMT 38.276508 -0.520000 925 100 175 2176
2018-12-03 15:54:41 GMT 38.277763 -0.528359 650 100 175 2048
2018-12-03 15:54:31 GMT 38.279301 -0.538569 250 100 172 2368
2018-12-03 15:53:42 GMT 38.284386 -0.573946 0 101 27
2018-12-03 15:53:27 GMT 38.285027 -0.575200 0 188 15
2018-12-03 15:50:19 GMT 38.284012 -0.556124 0 191 12
2018-12-03 15:50:12 GMT 38.284374 -0.556049 0 194 13
2018-12-03 15:50:04 GMT 38.284801 -0.555832 0 239 13
2018-12-03 15:49:54 GMT 38.284859 -0.555146 0 281 16
2018-12-03 15:49:43 GMT 38.284710 -0.554079 0 281 19
2018-12-03 15:49:34 GMT 38.284607 -0.553302 0 281 20
2018-12-03 15:49:19 GMT 38.284367 -0.551552 0 281 17
2018-12-03 15:48:52 GMT 38.284538 -0.549839 0 188 12
2018-12-03 15:48:42 GMT 38.285072 -0.549719 0 188 13
2018-12-03 15:48:33 GMT 38.285515 -0.549615 0 191 12
2018-12-03 15:48:22 GMT 38.286037 -0.549496 0 191 11
2018-12-03 15:48:09 GMT 38.286701 -0.549346 0 188 11
2018-12-03 15:47:49 GMT 38.287258 -0.549227 0 0
2018-12-03 15:47:30 GMT 38.287273 -0.549227 0 0
2018-12-03 15:47:15 GMT 38.287273 -0.549214 0 0
2018-12-03 15:47:00 GMT 38.287273 -0.549227 0 0
2018-12-03 15:46:15 GMT 38.287273 -0.549214 0 0
2018-12-03 15:45:54 GMT 38.287273 -0.549227 0 0

Making use of Plane Finder data

You are free to use the raw flight data, aircraft information and images provided in this report for your own purposes provided the data is correctly attributed to Plane Finder. We ask that you please credit Plane Finder and link to planefinder.net in close proximity to the content.

Optionally one of the following logos (no smaller then 150x24px) can be used and must link to planefinder.net

Embedding the Plane Finder map

You are welcome to embed the Plane Finder playback map on your website to offer visitors a more interactive experience. We suggest using the following HTML code:

<iframe src="//planefinder.net/data/report/D85330-EI-FHX-7700-squawk-2018-12-03/map" width="800" height="600" seamless="seamless"></iframe>

Where our data comes from

Plane Finder has a global network of data feeds and antenna radars that receive data broadcast directly from aircraft. The primary technologies used are ADS-B and MLAT. We also show feeds from the FAA and a FLARM glider feed.

Click here to find out more about the Plane Finder network.

How we collect our data